<?xml version="1.0" encoding="UTF-8" standalone="no" ?>
<gpx xmlns="http://www.topografix.com/GPX/1/1" xmlns:xsi="http://www.w3.org/2001/XMLSchema-instance" xsi:schemaLocation="http://www.topografix.com/GPX/1/1 http://www.topografix.com/GPX/1/1/gpx.xsd" version="1.1" creator="VisuGPX - https://www.visugpx.com">
  <metadata>
    <name>sortie VTT orvault-sautron-la paquelais</name>
    <desc><![CDATA[rando  VTT par GR3]]></desc>
  </metadata>
  <trk>
    <name><![CDATA[2012-01-09 10:13]]></name>
    <desc><![CDATA[<h1>OruxMaps</h1><br /><hr align="center" width="480" style="height: 2px; width: 517px"/><h2>Nom: 2012-01-09 10:13</h2><br /><p>Temps de départ: 01/09/2012 10:13</p><p>Temps d'arrivée: 01/09/2012 13:10</p><p>Distance: 33,6 km (02:57)</p><p>Temps déplacement: 02:16</p><p>Vitesse moyenne: 11,4 km/h</p><p>Vitesse moyenne: 14,8 km/h</p><p>Vitess Max.: 36 km/h</p><p>Altitude minimale: 25 m</p><p>Altitude maximale: 131 m</p><p>Vitesse d'élévation: 334,3 m/h</p><p>Vitesse de descente: -388,3 m/h</p><p>Gain Altitude: 413 m</p><p>Perte Altitude: -353 m</p><p>Temps d'élévation: 01:14</p><p>Temps de descente: 00:54</p><hr align="center" width="480" style="height: 2px; width: 517px"/>]]></desc>
    <trkseg>
      <trkpt lat="47.26991" lon="-1.6239">
        <ele>25.25</ele>
        <time>2012-01-09T09:13:34Z</time>
      </trkpt>
      <trkpt lat="47.26975" lon="-1.62405">
        <ele>43.94922</ele>
        <time>2012-01-09T09:13:44Z</time>
      </trkpt>
      <trkpt lat="47.2696" lon="-1.62422">
        <ele>57.592716</ele>
        <time>2012-01-09T09:15:07Z</time>
      </trkpt>
      <trkpt lat="47.26942" lon="-1.62428">
        <ele>62.29365</ele>
        <time>2012-01-09T09:15:21Z</time>
      </trkpt>
      <trkpt lat="47.26941" lon="-1.62456">
        <ele>66.22897</ele>
        <time>2012-01-09T09:15:31Z</time>
      </trkpt>
      <trkpt lat="47.2695" lon="-1.6248">
        <ele>67.9691</ele>
        <time>2012-01-09T09:15:38Z</time>
      </trkpt>
      <trkpt lat="47.26959" lon="-1.62503">
        <ele>69.29989</ele>
        <time>2012-01-09T09:15:45Z</time>
      </trkpt>
      <trkpt lat="47.26967" lon="-1.62529">
        <ele>70.17991</ele>
        <time>2012-01-09T09:15:53Z</time>
      </trkpt>
      <trkpt lat="47.26987" lon="-1.62527">
        <ele>70.989044</ele>
        <time>2012-01-09T09:16:08Z</time>
      </trkpt>
      <trkpt lat="47.26999" lon="-1.62503">
        <ele>71.76187</ele>
        <time>2012-01-09T09:16:17Z</time>
      </trkpt>
      <trkpt lat="47.27014" lon="-1.62484">
        <ele>73.3195</ele>
        <time>2012-01-09T09:16:26Z</time>
      </trkpt>
      <trkpt lat="47.27032" lon="-1.62475">
        <ele>75.39355</ele>
        <time>2012-01-09T09:16:35Z</time>
      </trkpt>
      <trkpt lat="47.27023" lon="-1.62501">
        <ele>79.476166</ele>
        <time>2012-01-09T09:16:53Z</time>
      </trkpt>
      <trkpt lat="47.27016" lon="-1.62527">
        <ele>81.708015</ele>
        <time>2012-01-09T09:17:06Z</time>
      </trkpt>
      <trkpt lat="47.27017" lon="-1.62555">
        <ele>84.19087</ele>
        <time>2012-01-09T09:17:17Z</time>
      </trkpt>
      <trkpt lat="47.27021" lon="-1.6258">
        <ele>86.61702</ele>
        <time>2012-01-09T09:17:27Z</time>
      </trkpt>
      <trkpt lat="47.27022" lon="-1.62611">
        <ele>87.75386</ele>
        <time>2012-01-09T09:17:33Z</time>
      </trkpt>
      <trkpt lat="47.27018" lon="-1.62638">
        <ele>88.53432</ele>
        <time>2012-01-09T09:17:39Z</time>
      </trkpt>
      <trkpt lat="47.27019" lon="-1.62668">
        <ele>89.51596</ele>
        <time>2012-01-09T09:17:46Z</time>
      </trkpt>
      <trkpt lat="47.27025" lon="-1.62694">
        <ele>90.491974</ele>
        <time>2012-01-09T09:17:52Z</time>
      </trkpt>
      <trkpt lat="47.27032" lon="-1.62722">
        <ele>91.944885</ele>
        <time>2012-01-09T09:17:59Z</time>
      </trkpt>
      <trkpt lat="47.27036" lon="-1.62752">
        <ele>93.542755</ele>
        <time>2012-01-09T09:18:06Z</time>
      </trkpt>
      <trkpt lat="47.27039" lon="-1.6278">
        <ele>95.24298</ele>
        <time>2012-01-09T09:18:13Z</time>
      </trkpt>
      <trkpt lat="47.27047" lon="-1.62808">
        <ele>95.89895</ele>
        <time>2012-01-09T09:18:20Z</time>
      </trkpt>
      <trkpt lat="47.27054" lon="-1.62834">
        <ele>96.659615</ele>
        <time>2012-01-09T09:18:25Z</time>
      </trkpt>
      <trkpt lat="47.27062" lon="-1.62862">
        <ele>96.939415</ele>
        <time>2012-01-09T09:18:31Z</time>
      </trkpt>
      <trkpt lat="47.27066" lon="-1.62889">
        <ele>97.567345</ele>
        <time>2012-01-09T09:18:37Z</time>
      </trkpt>
      <trkpt lat="47.2707" lon="-1.62915">
        <ele>98.14733</ele>
        <time>2012-01-09T09:18:42Z</time>
      </trkpt>
      <trkpt lat="47.27076" lon="-1.62943">
        <ele>99.48516</ele>
        <time>2012-01-09T09:18:47Z</time>
      </trkpt>
      <trkpt lat="47.27082" lon="-1.62975">
        <ele>101.40321</ele>
        <time>2012-01-09T09:18:52Z</time>
      </trkpt>
      <trkpt lat="47.27082" lon="-1.63005">
        <ele>102.54198</ele>
        <time>2012-01-09T09:18:57Z</time>
      </trkpt>
      <trkpt lat="47.2707" lon="-1.63029">
        <ele>102.06319</ele>
        <time>2012-01-09T09:19:02Z</time>
      </trkpt>
      <trkpt lat="47.27063" lon="-1.63055">
        <ele>101.07983</ele>
        <time>2012-01-09T09:19:11Z</time>
      </trkpt>
      <trkpt lat="47.27061" lon="-1.63091">
        <ele>97.95495</ele>
        <time>2012-01-09T09:19:15Z</time>
      </trkpt>
      <trkpt lat="47.27057" lon="-1.63126">
        <ele>95.55912</ele>
        <time>2012-01-09T09:19:18Z</time>
      </trkpt>
      <trkpt lat="47.27054" lon="-1.63158">
        <ele>93.64213</ele>
        <time>2012-01-09T09:19:21Z</time>
      </trkpt>
      <trkpt lat="47.27051" lon="-1.6319">
        <ele>91.39848</ele>
        <time>2012-01-09T09:19:25Z</time>
      </trkpt>
      <trkpt lat="47.27047" lon="-1.63216">
        <ele>89.864365</ele>
        <time>2012-01-09T09:19:29Z</time>
      </trkpt>
      <trkpt lat="47.27039" lon="-1.63246">
        <ele>89.20512</ele>
        <time>2012-01-09T09:19:34Z</time>
      </trkpt>
      <trkpt lat="47.27038" lon="-1.63276">
        <ele>89.048676</ele>
        <time>2012-01-09T09:19:39Z</time>
      </trkpt>
      <trkpt lat="47.27043" lon="-1.63301">
        <ele>89.0154</ele>
        <time>2012-01-09T09:19:43Z</time>
      </trkpt>
      <trkpt lat="47.27044" lon="-1.63329">
        <ele>89.00274</ele>
        <time>2012-01-09T09:19:49Z</time>
      </trkpt>
      <trkpt lat="47.27044" lon="-1.63357">
        <ele>89.00065</ele>
        <time>2012-01-09T09:19:54Z</time>
      </trkpt>
      <trkpt lat="47.27045" lon="-1.63387">
        <ele>89.76285</ele>
        <time>2012-01-09T09:19:59Z</time>
      </trkpt>
      <trkpt lat="47.27052" lon="-1.63415">
        <ele>89.3656</ele>
        <time>2012-01-09T09:20:04Z</time>
      </trkpt>
      <trkpt lat="47.27072" lon="-1.63426">
        <ele>89.06507</ele>
        <time>2012-01-09T09:20:10Z</time>
      </trkpt>
      <trkpt lat="47.27085" lon="-1.63447">
        <ele>89.00868</ele>
        <time>2012-01-09T09:20:17Z</time>
      </trkpt>
      <trkpt lat="47.27091" lon="-1.63475">
        <ele>89.00116</ele>
        <time>2012-01-09T09:20:24Z</time>
      </trkpt>
      <trkpt lat="47.27093" lon="-1.63503">
        <ele>89.250114</ele>
        <time>2012-01-09T09:20:32Z</time>
      </trkpt>
      <trkpt lat="47.27093" lon="-1.63531">
        <ele>89.8999</ele>
        <time>2012-01-09T09:20:39Z</time>
      </trkpt>
      <trkpt lat="47.27092" lon="-1.63561">
        <ele>91</ele>
        <time>2012-01-09T09:20:47Z</time>
      </trkpt>
      <trkpt lat="47.27082" lon="-1.63587">
        <ele>92</ele>
        <time>2012-01-09T09:20:55Z</time>
      </trkpt>
      <trkpt lat="47.27076" lon="-1.63613">
        <ele>92.82202</ele>
        <time>2012-01-09T09:21:01Z</time>
      </trkpt>
      <trkpt lat="47.27072" lon="-1.6364">
        <ele>93.97046</ele>
        <time>2012-01-09T09:21:06Z</time>
      </trkpt>
      <trkpt lat="47.27069" lon="-1.63668">
        <ele>96.37347</ele>
        <time>2012-01-09T09:21:10Z</time>
      </trkpt>
      <trkpt lat="47.27067" lon="-1.63696">
        <ele>98.168945</ele>
        <time>2012-01-09T09:21:14Z</time>
      </trkpt>
      <trkpt lat="47.27067" lon="-1.63724">
        <ele>99.17455</ele>
        <time>2012-01-09T09:21:18Z</time>
      </trkpt>
      <trkpt lat="47.27066" lon="-1.63752">
        <ele>99.73882</ele>
        <time>2012-01-09T09:21:22Z</time>
      </trkpt>
      <trkpt lat="47.27064" lon="-1.63782">
        <ele>100.35486</ele>
        <time>2012-01-09T09:21:26Z</time>
      </trkpt>
      <trkpt lat="47.27062" lon="-1.63812">
        <ele>101.72947</ele>
        <time>2012-01-09T09:21:30Z</time>
      </trkpt>
      <trkpt lat="47.27062" lon="-1.6384">
        <ele>102.59799</ele>
        <time>2012-01-09T09:21:34Z</time>
      </trkpt>
      <trkpt lat="47.27066" lon="-1.6387">
        <ele>102.9046</ele>
        <time>2012-01-09T09:21:39Z</time>
      </trkpt>
      <trkpt lat="47.27072" lon="-1.63898">
        <ele>102.53986</ele>
        <time>2012-01-09T09:21:44Z</time>
      </trkpt>
      <trkpt lat="47.27084" lon="-1.63917">
        <ele>101.733315</ele>
        <time>2012-01-09T09:21:48Z</time>
      </trkpt>
      <trkpt lat="47.27094" lon="-1.63943">
        <ele>100.6539</ele>
        <time>2012-01-09T09:21:52Z</time>
      </trkpt>
      <trkpt lat="47.27105" lon="-1.63965">
        <ele>100.2069</ele>
        <time>2012-01-09T09:21:56Z</time>
      </trkpt>
      <trkpt lat="47.27119" lon="-1.63988">
        <ele>99.2864</ele>
        <time>2012-01-09T09:22:01Z</time>
      </trkpt>
      <trkpt lat="47.27133" lon="-1.64012">
        <ele>97.72714</ele>
        <time>2012-01-09T09:22:06Z</time>
      </trkpt>
      <trkpt lat="47.27146" lon="-1.64035">
        <ele>95.726265</ele>
        <time>2012-01-09T09:22:11Z</time>
      </trkpt>
      <trkpt lat="47.27157" lon="-1.64061">
        <ele>95.42235</ele>
        <time>2012-01-09T09:22:16Z</time>
      </trkpt>
      <trkpt lat="47.27168" lon="-1.64085">
        <ele>95.86292</ele>
        <time>2012-01-09T09:22:21Z</time>
      </trkpt>
      <trkpt lat="47.27181" lon="-1.64113">
        <ele>95.52997</ele>
        <time>2012-01-09T09:22:26Z</time>
      </trkpt>
      <trkpt lat="47.27193" lon="-1.6414">
        <ele>95</ele>
        <time>2012-01-09T09:22:31Z</time>
      </trkpt>
      <trkpt lat="47.27205" lon="-1.64164">
        <ele>94.75</ele>
        <time>2012-01-09T09:22:35Z</time>
      </trkpt>
      <trkpt lat="47.27213" lon="-1.6419">
        <ele>93.40918</ele>
        <time>2012-01-09T09:22:39Z</time>
      </trkpt>
      <trkpt lat="47.27225" lon="-1.64218">
        <ele>91.18416</ele>
        <time>2012-01-09T09:22:43Z</time>
      </trkpt>
      <trkpt lat="47.27237" lon="-1.64241">
        <ele>88.569984</ele>
        <time>2012-01-09T09:22:47Z</time>
      </trkpt>
      <trkpt lat="47.27251" lon="-1.64261">
        <ele>87.37257</ele>
        <time>2012-01-09T09:22:52Z</time>
      </trkpt>
      <trkpt lat="47.27264" lon="-1.64282">
        <ele>87.04973</ele>
        <time>2012-01-09T09:22:59Z</time>
      </trkpt>
      <trkpt lat="47.27276" lon="-1.64304">
        <ele>86.14012</ele>
        <time>2012-01-09T09:23:06Z</time>
      </trkpt>
      <trkpt lat="47.27289" lon="-1.64325">
        <ele>86.02494</ele>
        <time>2012-01-09T09:23:12Z</time>
      </trkpt>
      <trkpt lat="47.27303" lon="-1.64346">
        <ele>86.00333</ele>
        <time>2012-01-09T09:23:19Z</time>
      </trkpt>
      <trkpt lat="47.27317" lon="-1.64366">
        <ele>85.13393</ele>
        <time>2012-01-09T09:23:26Z</time>
      </trkpt>
      <trkpt lat="47.27331" lon="-1.64385">
        <ele>84.760056</ele>
        <time>2012-01-09T09:23:35Z</time>
      </trkpt>
      <trkpt lat="47.27346" lon="-1.64409">
        <ele>84.32609</ele>
        <time>2012-01-09T09:23:43Z</time>
      </trkpt>
      <trkpt lat="47.27356" lon="-1.64432">
        <ele>84.997154</ele>
        <time>2012-01-09T09:24:02Z</time>
      </trkpt>
      <trkpt lat="47.2737" lon="-1.64454">
        <ele>85.93354</ele>
        <time>2012-01-09T09:24:16Z</time>
      </trkpt>
      <trkpt lat="47.27385" lon="-1.64473">
        <ele>87.143234</ele>
        <time>2012-01-09T09:24:24Z</time>
      </trkpt>
      <trkpt lat="47.27402" lon="-1.64482">
        <ele>88.16423</ele>
        <time>2012-01-09T09:24:32Z</time>
      </trkpt>
      <trkpt lat="47.2742" lon="-1.64484">
        <ele>88.85125</ele>
        <time>2012-01-09T09:24:38Z</time>
      </trkpt>
      <trkpt lat="47.27438" lon="-1.64486">
        <ele>89.54282</ele>
        <time>2012-01-09T09:24:43Z</time>
      </trkpt>
      <trkpt lat="47.27457" lon="-1.64486">
        <ele>89.89151</ele>
        <time>2012-01-09T09:24:48Z</time>
      </trkpt>
      <trkpt lat="47.27476" lon="-1.64482">
        <ele>90.80754</ele>
        <time>2012-01-09T09:24:55Z</time>
      </trkpt>
      <trkpt lat="47.27493" lon="-1.64471">
        <ele>91.73701</ele>
        <time>2012-01-09T09:25:02Z</time>
      </trkpt>
      <trkpt lat="47.2751" lon="-1.64462">
        <ele>91.9649</ele>
        <time>2012-01-09T09:25:09Z</time>
      </trkpt>
      <trkpt lat="47.2753" lon="-1.64456">
        <ele>92.75645</ele>
        <time>2012-01-09T09:25:15Z</time>
      </trkpt>
      <trkpt lat="47.27543" lon="-1.64475">
        <ele>93.78951</ele>
        <time>2012-01-09T09:25:22Z</time>
      </trkpt>
      <trkpt lat="47.27548" lon="-1.64503">
        <ele>95.33363</ele>
        <time>2012-01-09T09:25:28Z</time>
      </trkpt>
      <trkpt lat="47.27552" lon="-1.64529">
        <ele>97.05087</ele>
        <time>2012-01-09T09:25:32Z</time>
      </trkpt>
      <trkpt lat="47.27553" lon="-1.64557">
        <ele>97.69969</ele>
        <time>2012-01-09T09:25:36Z</time>
      </trkpt>
      <trkpt lat="47.27554" lon="-1.64585">
        <ele>97.90498</ele>
        <time>2012-01-09T09:25:40Z</time>
      </trkpt>
      <trkpt lat="47.27553" lon="-1.64615">
        <ele>98.227455</ele>
        <time>2012-01-09T09:25:45Z</time>
      </trkpt>
      <trkpt lat="47.27551" lon="-1.64645">
        <ele>99.06667</ele>
        <time>2012-01-09T09:25:50Z</time>
      </trkpt>
      <trkpt lat="47.27549" lon="-1.64675">
        <ele>99.77852</ele>
        <time>2012-01-09T09:25:55Z</time>
      </trkpt>
      <trkpt lat="47.27548" lon="-1.64703">
        <ele>100.71014</ele>
        <time>2012-01-09T09:26:00Z</time>
      </trkpt>
      <trkpt lat="47.27546" lon="-1.64733">
        <ele>100.94841</ele>
        <time>2012-01-09T09:26:06Z</time>
      </trkpt>
      <trkpt lat="47.27541" lon="-1.64758">
        <ele>100.987755</ele>
        <time>2012-01-09T09:26:11Z</time>
      </trkpt>
      <trkpt lat="47.27536" lon="-1.64786">
        <ele>100.99782</ele>
        <time>2012-01-09T09:26:17Z</time>
      </trkpt>
      <trkpt lat="47.2753" lon="-1.64814">
        <ele>101.76231</ele>
        <time>2012-01-09T09:26:23Z</time>
      </trkpt>
      <trkpt lat="47.27525" lon="-1.64844">
        <ele>101.957695</ele>
        <time>2012-01-09T09:26:29Z</time>
      </trkpt>
      <trkpt lat="47.27525" lon="-1.64872">
        <ele>102.24247</ele>
        <time>2012-01-09T09:26:35Z</time>
      </trkpt>
      <trkpt lat="47.27526" lon="-1.64902">
        <ele>102.86517</ele>
        <time>2012-01-09T09:26:41Z</time>
      </trkpt>
      <trkpt lat="47.27526" lon="-1.6493">
        <ele>102.968</ele>
        <time>2012-01-09T09:26:46Z</time>
      </trkpt>
      <trkpt lat="47.27527" lon="-1.64962">
        <ele>103.43181</ele>
        <time>2012-01-09T09:26:52Z</time>
      </trkpt>
      <trkpt lat="47.2753" lon="-1.64994">
        <ele>104.54876</ele>
        <time>2012-01-09T09:26:57Z</time>
      </trkpt>
      <trkpt lat="47.27535" lon="-1.6502">
        <ele>105.10722</ele>
        <time>2012-01-09T09:27:01Z</time>
      </trkpt>
      <trkpt lat="47.27543" lon="-1.65048">
        <ele>105.78814</ele>
        <time>2012-01-09T09:27:06Z</time>
      </trkpt>
      <trkpt lat="47.27548" lon="-1.65074">
        <ele>105.94972</ele>
        <time>2012-01-09T09:27:11Z</time>
      </trkpt>
      <trkpt lat="47.27552" lon="-1.651">
        <ele>105.31263</ele>
        <time>2012-01-09T09:27:20Z</time>
      </trkpt>
      <trkpt lat="47.2755" lon="-1.65128">
        <ele>105.04173</ele>
        <time>2012-01-09T09:27:27Z</time>
      </trkpt>
      <trkpt lat="47.27548" lon="-1.65158">
        <ele>105.82759</ele>
        <time>2012-01-09T09:27:34Z</time>
      </trkpt>
      <trkpt lat="47.27541" lon="-1.65183">
        <ele>105.97699</ele>
        <time>2012-01-09T09:27:41Z</time>
      </trkpt>
      <trkpt lat="47.27533" lon="-1.65209">
        <ele>105.9959</ele>
        <time>2012-01-09T09:27:47Z</time>
      </trkpt>
      <trkpt lat="47.27524" lon="-1.65233">
        <ele>105.99945</ele>
        <time>2012-01-09T09:27:54Z</time>
      </trkpt>
      <trkpt lat="47.27516" lon="-1.65263">
        <ele>106.4374</ele>
        <time>2012-01-09T09:28:00Z</time>
      </trkpt>
      <trkpt lat="47.2751" lon="-1.65293">
        <ele>106.86649</ele>
        <time>2012-01-09T09:28:05Z</time>
      </trkpt>
      <trkpt lat="47.27509" lon="-1.65331">
        <ele>107</ele>
        <time>2012-01-09T09:28:11Z</time>
      </trkpt>
      <trkpt lat="47.27518" lon="-1.65361">
        <ele>105.62891</ele>
        <time>2012-01-09T09:28:15Z</time>
      </trkpt>
      <trkpt lat="47.27526" lon="-1.65385">
        <ele>103.85907</ele>
        <time>2012-01-09T09:28:18Z</time>
      </trkpt>
      <trkpt lat="47.27538" lon="-1.65406">
        <ele>102.346794</ele>
        <time>2012-01-09T09:28:21Z</time>
      </trkpt>
      <trkpt lat="47.27551" lon="-1.6543">
        <ele>101.56818</ele>
        <time>2012-01-09T09:28:24Z</time>
      </trkpt>
      <trkpt lat="47.2756" lon="-1.65454">
        <ele>101.2397</ele>
        <time>2012-01-09T09:28:27Z</time>
      </trkpt>
      <trkpt lat="47.27566" lon="-1.65486">
        <ele>101.07584</ele>
        <time>2012-01-09T09:28:31Z</time>
      </trkpt>
      <trkpt lat="47.2757" lon="-1.65516">
        <ele>101.461494</ele>
        <time>2012-01-09T09:28:35Z</time>
      </trkpt>
      <trkpt lat="47.27571" lon="-1.65544">
        <ele>101.87221</ele>
        <time>2012-01-09T09:28:40Z</time>
      </trkpt>
      <trkpt lat="47.27577" lon="-1.65572">
        <ele>101.39155</ele>
        <time>2012-01-09T09:28:45Z</time>
      </trkpt>
      <trkpt lat="47.27585" lon="-1.65602">
        <ele>102.29311</ele>
        <time>2012-01-09T09:28:50Z</time>
      </trkpt>
      <trkpt lat="47.27595" lon="-1.6563">
        <ele>103.59495</ele>
        <time>2012-01-09T09:28:55Z</time>
      </trkpt>
      <trkpt lat="47.27606" lon="-1.65655">
        <ele>103.90388</ele>
        <time>2012-01-09T09:29:00Z</time>
      </trkpt>
      <trkpt lat="47.27617" lon="-1.65683">
        <ele>102.96449</ele>
        <time>2012-01-09T09:29:05Z</time>
      </trkpt>
      <trkpt lat="47.27621" lon="-1.65711">
        <ele>101</ele>
        <time>2012-01-09T09:29:10Z</time>
      </trkpt>
      <trkpt lat="47.27621" lon="-1.65741">
        <ele>101</ele>
        <time>2012-01-09T09:29:15Z</time>
      </trkpt>
      <trkpt lat="47.27622" lon="-1.65769">
        <ele>101</ele>
        <time>2012-01-09T09:29:20Z</time>
      </trkpt>
      <trkpt lat="47.27621" lon="-1.65797">
        <ele>101</ele>
        <time>2012-01-09T09:29:26Z</time>
      </trkpt>
      <trkpt lat="47.27619" lon="-1.65829">
        <ele>101.4375</ele>
        <time>2012-01-09T09:29:32Z</time>
      </trkpt>
      <trkpt lat="47.27606" lon="-1.65848">
        <ele>101.92491</ele>
        <time>2012-01-09T09:29:39Z</time>
      </trkpt>
      <trkpt lat="47.27588" lon="-1.65842">
        <ele>102.808655</ele>
        <time>2012-01-09T09:29:45Z</time>
      </trkpt>
      <trkpt lat="47.27567" lon="-1.65827">
        <ele>104</ele>
        <time>2012-01-09T09:29:52Z</time>
      </trkpt>
      <trkpt lat="47.27583" lon="-1.65844">
        <ele>106.78612</ele>
        <time>2012-01-09T09:30:13Z</time>
      </trkpt>
      <trkpt lat="47.27571" lon="-1.65866">
        <ele>107.800606</ele>
        <time>2012-01-09T09:30:21Z</time>
      </trkpt>
      <trkpt lat="47.27553" lon="-1.65874">
        <ele>107.97338</ele>
        <time>2012-01-09T09:30:28Z</time>
      </trkpt>
      <trkpt lat="47.27527" lon="-1.65885">
        <ele>107.99915</ele>
        <time>2012-01-09T09:30:40Z</time>
      </trkpt>
      <trkpt lat="47.27509" lon="-1.65894">
        <ele>108.7625</ele>
        <time>2012-01-09T09:30:45Z</time>
      </trkpt>
      <trkpt lat="47.27492" lon="-1.65902">
        <ele>107.99126</ele>
        <time>2012-01-09T09:30:49Z</time>
      </trkpt>
      <trkpt lat="47.27477" lon="-1.65917">
        <ele>106.48551</ele>
        <time>2012-01-09T09:30:53Z</time>
      </trkpt>
      <trkpt lat="47.2746" lon="-1.65936">
        <ele>104.6419</ele>
        <time>2012-01-09T09:30:57Z</time>
      </trkpt>
      <trkpt lat="47.27447" lon="-1.65958">
        <ele>102.69138</ele>
        <time>2012-01-09T09:31:01Z</time>
      </trkpt>
      <trkpt lat="47.27438" lon="-1.65988">
        <ele>100.023445</ele>
        <time>2012-01-09T09:31:05Z</time>
      </trkpt>
      <trkpt lat="47.2743" lon="-1.66016">
        <ele>97.519135</ele>
        <time>2012-01-09T09:31:09Z</time>
      </trkpt>
      <trkpt lat="47.27421" lon="-1.66042">
        <ele>95.35957</ele>
        <time>2012-01-09T09:31:13Z</time>
      </trkpt>
      <trkpt lat="47.27412" lon="-1.66067">
        <ele>94.430176</ele>
        <time>2012-01-09T09:31:17Z</time>
      </trkpt>
      <trkpt lat="47.27401" lon="-1.661">
        <ele>95.40173</ele>
        <time>2012-01-09T09:31:21Z</time>
      </trkpt>
      <trkpt lat="47.27391" lon="-1.66123">
        <ele>98.60698</ele>
        <time>2012-01-09T09:31:24Z</time>
      </trkpt>
      <trkpt lat="47.27383" lon="-1.66147">
        <ele>101.5842</ele>
        <time>2012-01-09T09:31:27Z</time>
      </trkpt>
      <trkpt lat="47.27372" lon="-1.66175">
        <ele>103.67313</ele>
        <time>2012-01-09T09:31:31Z</time>
      </trkpt>
      <trkpt lat="47.27359" lon="-1.66203">
        <ele>104.33017</ele>
        <time>2012-01-09T09:31:35Z</time>
      </trkpt>
      <trkpt lat="47.27349" lon="-1.6623">
        <ele>104.20994</ele>
        <time>2012-01-09T09:31:39Z</time>
      </trkpt>
      <trkpt lat="47.27343" lon="-1.66258">
        <ele>104.06642</ele>
        <time>2012-01-09T09:31:43Z</time>
      </trkpt>
      <trkpt lat="47.27335" lon="-1.66286">
        <ele>104.599144</ele>
        <time>2012-01-09T09:31:47Z</time>
      </trkpt>
      <trkpt lat="47.27331" lon="-1.66318">
        <ele>105.66757</ele>
        <time>2012-01-09T09:31:52Z</time>
      </trkpt>
      <trkpt lat="47.27328" lon="-1.66348">
        <ele>105.92111</ele>
        <time>2012-01-09T09:31:57Z</time>
      </trkpt>
      <trkpt lat="47.27324" lon="-1.66378">
        <ele>106.41878</ele>
        <time>2012-01-09T09:32:02Z</time>
      </trkpt>
      <trkpt lat="47.27322" lon="-1.66415">
        <ele>107</ele>
        <time>2012-01-09T09:32:08Z</time>
      </trkpt>
      <trkpt lat="47.27319" lon="-1.66445">
        <ele>108.34082</ele>
        <time>2012-01-09T09:32:13Z</time>
      </trkpt>
      <trkpt lat="47.27316" lon="-1.66477">
        <ele>107.75</ele>
        <time>2012-01-09T09:32:18Z</time>
      </trkpt>
      <trkpt lat="47.27316" lon="-1.66509">
        <ele>106.31641</ele>
        <time>2012-01-09T09:32:23Z</time>
      </trkpt>
      <trkpt lat="47.27317" lon="-1.66544">
        <ele>106.07509</ele>
        <time>2012-01-09T09:32:28Z</time>
      </trkpt>
      <trkpt lat="47.27315" lon="-1.66572">
        <ele>105.590164</ele>
        <time>2012-01-09T09:32:32Z</time>
      </trkpt>
      <trkpt lat="47.27314" lon="-1.6661">
        <ele>106</ele>
        <time>2012-01-09T09:32:37Z</time>
      </trkpt>
      <trkpt lat="47.27314" lon="-1.6664">
        <ele>106.578125</ele>
        <time>2012-01-09T09:32:41Z</time>
      </trkpt>
      <trkpt lat="47.27322" lon="-1.66666">
        <ele>107.242485</ele>
        <time>2012-01-09T09:32:55Z</time>
      </trkpt>
      <trkpt lat="47.27334" lon="-1.66687">
        <ele>109</ele>
        <time>2012-01-09T09:32:59Z</time>
      </trkpt>
      <trkpt lat="47.27352" lon="-1.66711">
        <ele>110</ele>
        <time>2012-01-09T09:33:04Z</time>
      </trkpt>
      <trkpt lat="47.27368" lon="-1.66733">
        <ele>110</ele>
        <time>2012-01-09T09:33:08Z</time>
      </trkpt>
      <trkpt lat="47.27383" lon="-1.66752">
        <ele>110</ele>
        <time>2012-01-09T09:33:12Z</time>
      </trkpt>
      <trkpt lat="47.27397" lon="-1.66769">
        <ele>110.4375</ele>
        <time>2012-01-09T09:33:16Z</time>
      </trkpt>
      <trkpt lat="47.27409" lon="-1.66788">
        <ele>110.82202</ele>
        <time>2012-01-09T09:33:20Z</time>
      </trkpt>
      <trkpt lat="47.27422" lon="-1.66812">
        <ele>110.95776</ele>
        <time>2012-01-09T09:33:25Z</time>
      </trkpt>
      <trkpt lat="47.27434" lon="-1.66838">
        <ele>110.989975</ele>
        <time>2012-01-09T09:33:30Z</time>
      </trkpt>
      <trkpt lat="47.27444" lon="-1.66861">
        <ele>110.996826</ele>
        <time>2012-01-09T09:33:34Z</time>
      </trkpt>
      <trkpt lat="47.27452" lon="-1.66887">
        <ele>110.23655</ele>
        <time>2012-01-09T09:33:39Z</time>
      </trkpt>
      <trkpt lat="47.27463" lon="-1.66915">
        <ele>108.68504</ele>
        <time>2012-01-09T09:33:44Z</time>
      </trkpt>
      <trkpt lat="47.27475" lon="-1.66943">
        <ele>106.13425</ele>
        <time>2012-01-09T09:33:49Z</time>
      </trkpt>
      <trkpt lat="47.27485" lon="-1.66969">
        <ele>102.97607</ele>
        <time>2012-01-09T09:33:53Z</time>
      </trkpt>
      <trkpt lat="47.27494" lon="-1.66992">
        <ele>101.29712</ele>
        <time>2012-01-09T09:33:57Z</time>
      </trkpt>
      <trkpt lat="47.27505" lon="-1.6702">
        <ele>101.508</ele>
        <time>2012-01-09T09:34:02Z</time>
      </trkpt>
      <trkpt lat="47.27514" lon="-1.67046">
        <ele>101.88325</ele>
        <time>2012-01-09T09:34:07Z</time>
      </trkpt>
      <trkpt lat="47.27524" lon="-1.67069">
        <ele>102.66281</ele>
        <time>2012-01-09T09:34:13Z</time>
      </trkpt>
      <trkpt lat="47.27533" lon="-1.67099">
        <ele>103.4375</ele>
        <time>2012-01-09T09:34:19Z</time>
      </trkpt>
      <trkpt lat="47.2754" lon="-1.6713">
        <ele>103.89989</ele>
        <time>2012-01-09T09:34:25Z</time>
      </trkpt>
      <trkpt lat="47.27545" lon="-1.67157">
        <ele>103.97624</ele>
        <time>2012-01-09T09:34:30Z</time>
      </trkpt>
      <trkpt lat="47.27548" lon="-1.67185">
        <ele>104.75706</ele>
        <time>2012-01-09T09:34:35Z</time>
      </trkpt>
      <trkpt lat="47.27552" lon="-1.67215">
        <ele>105.394264</ele>
        <time>2012-01-09T09:34:41Z</time>
      </trkpt>
      <trkpt lat="47.27556" lon="-1.67243">
        <ele>105.89219</ele>
        <time>2012-01-09T09:34:47Z</time>
      </trkpt>
      <trkpt lat="47.27562" lon="-1.67271">
        <ele>105.98081</ele>
        <time>2012-01-09T09:34:53Z</time>
      </trkpt>
      <trkpt lat="47.27571" lon="-1.67299">
        <ele>106.43408</ele>
        <time>2012-01-09T09:34:59Z</time>
      </trkpt>
      <trkpt lat="47.27587" lon="-1.67323">
        <ele>106.89928</ele>
        <time>2012-01-09T09:35:05Z</time>
      </trkpt>
      <trkpt lat="47.276" lon="-1.67342">
        <ele>107.73879</ele>
        <time>2012-01-09T09:35:10Z</time>
      </trkpt>
      <trkpt lat="47.27615" lon="-1.67361">
        <ele>110.89895</ele>
        <time>2012-01-09T09:35:15Z</time>
      </trkpt>
      <trkpt lat="47.27614" lon="-1.67391">
        <ele>114.26965</ele>
        <time>2012-01-09T09:35:22Z</time>
      </trkpt>
      <trkpt lat="47.27597" lon="-1.674">
        <ele>115.34704</ele>
        <time>2012-01-09T09:35:26Z</time>
      </trkpt>
      <trkpt lat="47.27577" lon="-1.67413">
        <ele>115.84505</ele>
        <time>2012-01-09T09:35:31Z</time>
      </trkpt>
      <trkpt lat="47.2756" lon="-1.67426">
        <ele>115.95097</ele>
        <time>2012-01-09T09:35:35Z</time>
      </trkpt>
      <trkpt lat="47.2754" lon="-1.67443">
        <ele>115.300896</ele>
        <time>2012-01-09T09:35:39Z</time>
      </trkpt>
      <trkpt lat="47.27522" lon="-1.67462">
        <ele>115.09521</ele>
        <time>2012-01-09T09:35:43Z</time>
      </trkpt>
      <trkpt lat="47.27504" lon="-1.67477">
        <ele>114.59262</ele>
        <time>2012-01-09T09:35:47Z</time>
      </trkpt>
      <trkpt lat="47.27486" lon="-1.67494">
        <ele>114.43751</ele>
        <time>2012-01-09T09:35:51Z</time>
      </trkpt>
      <trkpt lat="47.27468" lon="-1.67516">
        <ele>114.82202</ele>
        <time>2012-01-09T09:35:55Z</time>
      </trkpt>
      <trkpt lat="47.27452" lon="-1.67535">
        <ele>114.94369</ele>
        <time>2012-01-09T09:35:59Z</time>
      </trkpt>
      <trkpt lat="47.27435" lon="-1.67557">
        <ele>114.982185</ele>
        <time>2012-01-09T09:36:03Z</time>
      </trkpt>
      <trkpt lat="47.27428" lon="-1.67582">
        <ele>114.99436</ele>
        <time>2012-01-09T09:36:07Z</time>
      </trkpt>
      <trkpt lat="47.27437" lon="-1.67612">
        <ele>114.998215</ele>
        <time>2012-01-09T09:36:11Z</time>
      </trkpt>
      <trkpt lat="47.27443" lon="-1.67645">
        <ele>114.06584</ele>
        <time>2012-01-09T09:36:15Z</time>
      </trkpt>
      <trkpt lat="47.27446" lon="-1.67681">
        <ele>112</ele>
        <time>2012-01-09T09:36:20Z</time>
      </trkpt>
      <trkpt lat="47.27449" lon="-1.67709">
        <ele>112</ele>
        <time>2012-01-09T09:36:24Z</time>
      </trkpt>
      <trkpt lat="47.27463" lon="-1.6773">
        <ele>112.93359</ele>
        <time>2012-01-09T09:36:28Z</time>
      </trkpt>
      <trkpt lat="47.27478" lon="-1.6775">
        <ele>113.66258</ele>
        <time>2012-01-09T09:36:32Z</time>
      </trkpt>
      <trkpt lat="47.27491" lon="-1.67771">
        <ele>113.31512</ele>
        <time>2012-01-09T09:36:36Z</time>
      </trkpt>
      <trkpt lat="47.27497" lon="-1.67797">
        <ele>113.0997</ele>
        <time>2012-01-09T09:36:40Z</time>
      </trkpt>
      <trkpt lat="47.27499" lon="-1.67829">
        <ele>113.02366</ele>
        <time>2012-01-09T09:36:45Z</time>
      </trkpt>
      <trkpt lat="47.27499" lon="-1.67863">
        <ele>113.443115</ele>
        <time>2012-01-09T09:36:50Z</time>
      </trkpt>
      <trkpt lat="47.27499" lon="-1.67891">
        <ele>113.8238</ele>
        <time>2012-01-09T09:36:54Z</time>
      </trkpt>
      <trkpt lat="47.27507" lon="-1.67917">
        <ele>111.99503</ele>
        <time>2012-01-09T09:36:58Z</time>
      </trkpt>
      <trkpt lat="47.27522" lon="-1.67938">
        <ele>110.63124</ele>
        <time>2012-01-09T09:37:02Z</time>
      </trkpt>
      <trkpt lat="47.27535" lon="-1.67962">
        <ele>111</ele>
        <time>2012-01-09T09:37:07Z</time>
      </trkpt>
      <trkpt lat="47.27549" lon="-1.67988">
        <ele>111</ele>
        <time>2012-01-09T09:37:12Z</time>
      </trkpt>
      <trkpt lat="47.27558" lon="-1.6802">
        <ele>111</ele>
        <time>2012-01-09T09:38:14Z</time>
      </trkpt>
      <trkpt lat="47.27543" lon="-1.68039">
        <ele>110.75</ele>
        <time>2012-01-09T09:38:20Z</time>
      </trkpt>
      <trkpt lat="47.27531" lon="-1.68061">
        <ele>109.59985</ele>
        <time>2012-01-09T09:38:25Z</time>
      </trkpt>
      <trkpt lat="47.27523" lon="-1.68087">
        <ele>109.1898</ele>
        <time>2012-01-09T09:38:29Z</time>
      </trkpt>
      <trkpt lat="47.2752" lon="-1.68117">
        <ele>109.06005</ele>
        <time>2012-01-09T09:38:33Z</time>
      </trkpt>
      <trkpt lat="47.27516" lon="-1.68149">
        <ele>109.019005</ele>
        <time>2012-01-09T09:38:37Z</time>
      </trkpt>
      <trkpt lat="47.2751" lon="-1.68181">
        <ele>108.42789</ele>
        <time>2012-01-09T09:38:41Z</time>
      </trkpt>
      <trkpt lat="47.27507" lon="-1.68211">
        <ele>107.45179</ele>
        <time>2012-01-09T09:38:45Z</time>
      </trkpt>
      <trkpt lat="47.27505" lon="-1.68243">
        <ele>107.86991</ele>
        <time>2012-01-09T09:38:50Z</time>
      </trkpt>
      <trkpt lat="47.27504" lon="-1.68271">
        <ele>107.96913</ele>
        <time>2012-01-09T09:38:55Z</time>
      </trkpt>
      <trkpt lat="47.27504" lon="-1.68303">
        <ele>109.11377</ele>
        <time>2012-01-09T09:39:00Z</time>
      </trkpt>
      <trkpt lat="47.27501" lon="-1.68346">
        <ele>111</ele>
        <time>2012-01-09T09:39:08Z</time>
      </trkpt>
      <trkpt lat="47.27485" lon="-1.68372">
        <ele>110</ele>
        <time>2012-01-09T09:40:26Z</time>
      </trkpt>
      <trkpt lat="47.27468" lon="-1.68391">
        <ele>109.237305</ele>
        <time>2012-01-09T09:40:34Z</time>
      </trkpt>
      <trkpt lat="47.27472" lon="-1.6843">
        <ele>106.660416</ele>
        <time>2012-01-09T09:40:49Z</time>
      </trkpt>
      <trkpt lat="47.27473" lon="-1.68458">
        <ele>103.004196</ele>
        <time>2012-01-09T09:41:03Z</time>
      </trkpt>
      <trkpt lat="47.27466" lon="-1.68483">
        <ele>98.73594</ele>
        <time>2012-01-09T09:41:17Z</time>
      </trkpt>
      <trkpt lat="47.27452" lon="-1.68505">
        <ele>95.00009</ele>
        <time>2012-01-09T09:42:07Z</time>
      </trkpt>
      <trkpt lat="47.27442" lon="-1.68529">
        <ele>95.000015</ele>
        <time>2012-01-09T09:42:13Z</time>
      </trkpt>
      <trkpt lat="47.2743" lon="-1.6855">
        <ele>94.10011</ele>
        <time>2012-01-09T09:42:21Z</time>
      </trkpt>
      <trkpt lat="47.27416" lon="-1.68567">
        <ele>94.00032</ele>
        <time>2012-01-09T09:42:41Z</time>
      </trkpt>
      <trkpt lat="47.27402" lon="-1.68586">
        <ele>92.05674</ele>
        <time>2012-01-09T09:43:34Z</time>
      </trkpt>
      <trkpt lat="47.27391" lon="-1.68608">
        <ele>92.82226</ele>
        <time>2012-01-09T09:43:53Z</time>
      </trkpt>
      <trkpt lat="47.27376" lon="-1.68627">
        <ele>93.23666</ele>
        <time>2012-01-09T09:44:02Z</time>
      </trkpt>
      <trkpt lat="47.27362" lon="-1.68644">
        <ele>95</ele>
        <time>2012-01-09T09:44:11Z</time>
      </trkpt>
      <trkpt lat="47.27347" lon="-1.68666">
        <ele>95.4375</ele>
        <time>2012-01-09T09:44:20Z</time>
      </trkpt>
      <trkpt lat="47.27333" lon="-1.68685">
        <ele>97</ele>
        <time>2012-01-09T09:44:27Z</time>
      </trkpt>
      <trkpt lat="47.27317" lon="-1.68702">
        <ele>97.578125</ele>
        <time>2012-01-09T09:44:35Z</time>
      </trkpt>
      <trkpt lat="47.27299" lon="-1.68709">
        <ele>98.50304</ele>
        <time>2012-01-09T09:44:41Z</time>
      </trkpt>
      <trkpt lat="47.27282" lon="-1.6872">
        <ele>99.34905</ele>
        <time>2012-01-09T09:44:47Z</time>
      </trkpt>
      <trkpt lat="47.27265" lon="-1.68732">
        <ele>100.35061</ele>
        <time>2012-01-09T09:44:54Z</time>
      </trkpt>
      <trkpt lat="47.27247" lon="-1.68747">
        <ele>100.93499</ele>
        <time>2012-01-09T09:45:02Z</time>
      </trkpt>
      <trkpt lat="47.27234" lon="-1.68769">
        <ele>101.81714</ele>
        <time>2012-01-09T09:45:11Z</time>
      </trkpt>
      <trkpt lat="47.2722" lon="-1.68792">
        <ele>101.9817</ele>
        <time>2012-01-09T09:45:19Z</time>
      </trkpt>
      <trkpt lat="47.27205" lon="-1.68812">
        <ele>102.82065</ele>
        <time>2012-01-09T09:45:28Z</time>
      </trkpt>
      <trkpt lat="47.27192" lon="-1.68831">
        <ele>102.96808</ele>
        <time>2012-01-09T09:45:34Z</time>
      </trkpt>
      <trkpt lat="47.27182" lon="-1.68857">
        <ele>104.29976</ele>
        <time>2012-01-09T09:45:41Z</time>
      </trkpt>
      <trkpt lat="47.27194" lon="-1.6888">
        <ele>105.69259</ele>
        <time>2012-01-09T09:45:49Z</time>
      </trkpt>
      <trkpt lat="47.27211" lon="-1.68893">
        <ele>106.62888</ele>
        <time>2012-01-09T09:45:55Z</time>
      </trkpt>
      <trkpt lat="47.27228" lon="-1.68902">
        <ele>106.911934</ele>
        <time>2012-01-09T09:46:00Z</time>
      </trkpt>
      <trkpt lat="47.27247" lon="-1.68911">
        <ele>107.747025</ele>
        <time>2012-01-09T09:46:06Z</time>
      </trkpt>
      <trkpt lat="47.27266" lon="-1.68921">
        <ele>107.95498</ele>
        <time>2012-01-09T09:46:12Z</time>
      </trkpt>
      <trkpt lat="47.27283" lon="-1.6893">
        <ele>107.99199</ele>
        <time>2012-01-09T09:46:18Z</time>
      </trkpt>
      <trkpt lat="47.273" lon="-1.68938">
        <ele>108.43643</ele>
        <time>2012-01-09T09:46:25Z</time>
      </trkpt>
      <trkpt lat="47.27315" lon="-1.68923">
        <ele>109.54639</ele>
        <time>2012-01-09T09:46:35Z</time>
      </trkpt>
      <trkpt lat="47.27328" lon="-1.68902">
        <ele>109.89236</ele>
        <time>2012-01-09T09:46:40Z</time>
      </trkpt>
      <trkpt lat="47.27344" lon="-1.6888">
        <ele>111.09555</ele>
        <time>2012-01-09T09:46:45Z</time>
      </trkpt>
      <trkpt lat="47.27358" lon="-1.68861">
        <ele>112.291954</ele>
        <time>2012-01-09T09:46:49Z</time>
      </trkpt>
      <trkpt lat="47.27372" lon="-1.68844">
        <ele>112.77597</ele>
        <time>2012-01-09T09:46:53Z</time>
      </trkpt>
      <trkpt lat="47.27388" lon="-1.68823">
        <ele>112.94684</ele>
        <time>2012-01-09T09:46:58Z</time>
      </trkpt>
      <trkpt lat="47.27402" lon="-1.68805">
        <ele>112.98318</ele>
        <time>2012-01-09T09:47:02Z</time>
      </trkpt>
      <trkpt lat="47.27417" lon="-1.68786">
        <ele>112.41655</ele>
        <time>2012-01-09T09:47:06Z</time>
      </trkpt>
      <trkpt lat="47.27437" lon="-1.68788">
        <ele>111.84885</ele>
        <time>2012-01-09T09:47:11Z</time>
      </trkpt>
      <trkpt lat="47.27457" lon="-1.68801">
        <ele>111.20144</ele>
        <time>2012-01-09T09:47:16Z</time>
      </trkpt>
      <trkpt lat="47.27476" lon="-1.68814">
        <ele>109.8476</ele>
        <time>2012-01-09T09:47:21Z</time>
      </trkpt>
      <trkpt lat="47.27495" lon="-1.68823">
        <ele>109.06052</ele>
        <time>2012-01-09T09:47:26Z</time>
      </trkpt>
      <trkpt lat="47.27514" lon="-1.68827">
        <ele>109</ele>
        <time>2012-01-09T09:47:34Z</time>
      </trkpt>
      <trkpt lat="47.27534" lon="-1.68827">
        <ele>109</ele>
        <time>2012-01-09T09:47:47Z</time>
      </trkpt>
      <trkpt lat="47.27551" lon="-1.68818">
        <ele>109</ele>
        <time>2012-01-09T09:47:53Z</time>
      </trkpt>
      <trkpt lat="47.27566" lon="-1.68797">
        <ele>109</ele>
        <time>2012-01-09T09:48:02Z</time>
      </trkpt>
      <trkpt lat="47.27588" lon="-1.68801">
        <ele>109</ele>
        <time>2012-01-09T09:48:13Z</time>
      </trkpt>
      <trkpt lat="47.27607" lon="-1.68805">
        <ele>109</ele>
        <time>2012-01-09T09:48:20Z</time>
      </trkpt>
      <trkpt lat="47.27623" lon="-1.68818">
        <ele>109</ele>
        <time>2012-01-09T09:48:28Z</time>
      </trkpt>
      <trkpt lat="47.27643" lon="-1.68814">
        <ele>109</ele>
        <time>2012-01-09T09:48:36Z</time>
      </trkpt>
      <trkpt lat="47.27662" lon="-1.68801">
        <ele>108.5625</ele>
        <time>2012-01-09T09:48:41Z</time>
      </trkpt>
      <trkpt lat="47.27682" lon="-1.6879">
        <ele>108.04224</ele>
        <time>2012-01-09T09:48:50Z</time>
      </trkpt>
      <trkpt lat="47.277" lon="-1.68786">
        <ele>107.32392</ele>
        <time>2012-01-09T09:48:56Z</time>
      </trkpt>
      <trkpt lat="47.27718" lon="-1.68788">
        <ele>107.326866</ele>
        <time>2012-01-09T09:49:01Z</time>
      </trkpt>
      <trkpt lat="47.2774" lon="-1.68797">
        <ele>107.91015</ele>
        <time>2012-01-09T09:49:08Z</time>
      </trkpt>
      <trkpt lat="47.27766" lon="-1.68808">
        <ele>107.743256</ele>
        <time>2012-01-09T09:49:17Z</time>
      </trkpt>
      <trkpt lat="47.27761" lon="-1.68835">
        <ele>105.77934</ele>
        <time>2012-01-09T09:49:34Z</time>
      </trkpt>
      <trkpt lat="47.2775" lon="-1.68859">
        <ele>104.78291</ele>
        <time>2012-01-09T09:49:45Z</time>
      </trkpt>
      <trkpt lat="47.27743" lon="-1.68885">
        <ele>103.808784</ele>
        <time>2012-01-09T09:49:54Z</time>
      </trkpt>
      <trkpt lat="47.27733" lon="-1.68908">
        <ele>102.78416</ele>
        <time>2012-01-09T09:50:05Z</time>
      </trkpt>
      <trkpt lat="47.27716" lon="-1.68921">
        <ele>101.952065</ele>
        <time>2012-01-09T09:50:11Z</time>
      </trkpt>
      <trkpt lat="47.27697" lon="-1.68934">
        <ele>101.99147</ele>
        <time>2012-01-09T09:50:17Z</time>
      </trkpt>
      <trkpt lat="47.27681" lon="-1.68949">
        <ele>101.99848</ele>
        <time>2012-01-09T09:50:23Z</time>
      </trkpt>
      <trkpt lat="47.27665" lon="-1.68966">
        <ele>101.99985</ele>
        <time>2012-01-09T09:50:31Z</time>
      </trkpt>
      <trkpt lat="47.27649" lon="-1.68986">
        <ele>101.99998</ele>
        <time>2012-01-09T09:50:38Z</time>
      </trkpt>
      <trkpt lat="47.27629" lon="-1.6899">
        <ele>102.683586</ele>
        <time>2012-01-09T09:50:43Z</time>
      </trkpt>
      <trkpt lat="47.2761" lon="-1.6899">
        <ele>102.92491</ele>
        <time>2012-01-09T09:50:48Z</time>
      </trkpt>
      <trkpt lat="47.2759" lon="-1.6899">
        <ele>103.56031</ele>
        <time>2012-01-09T09:50:53Z</time>
      </trkpt>
      <trkpt lat="47.27571" lon="-1.68988">
        <ele>103.89566</ele>
        <time>2012-01-09T09:50:58Z</time>
      </trkpt>
      <trkpt lat="47.27551" lon="-1.6899">
        <ele>104.80345</ele>
        <time>2012-01-09T09:51:04Z</time>
      </trkpt>
      <trkpt lat="47.27532" lon="-1.68994">
        <ele>105.21502</ele>
        <time>2012-01-09T09:51:10Z</time>
      </trkpt>
      <trkpt lat="47.27512" lon="-1.69001">
        <ele>105.86029</ele>
        <time>2012-01-09T09:51:16Z</time>
      </trkpt>
      <trkpt lat="47.27493" lon="-1.69003">
        <ele>105.975136</ele>
        <time>2012-01-09T09:51:22Z</time>
      </trkpt>
      <trkpt lat="47.27473" lon="-1.69009">
        <ele>105.9941</ele>
        <time>2012-01-09T09:51:27Z</time>
      </trkpt>
      <trkpt lat="47.27455" lon="-1.69014">
        <ele>105.99895</ele>
        <time>2012-01-09T09:51:33Z</time>
      </trkpt>
      <trkpt lat="47.27435" lon="-1.6902">
        <ele>106.86638</ele>
        <time>2012-01-09T09:51:40Z</time>
      </trkpt>
      <trkpt lat="47.27445" lon="-1.69046">
        <ele>106.986626</ele>
        <time>2012-01-09T09:51:48Z</time>
      </trkpt>
      <trkpt lat="47.27462" lon="-1.69061">
        <ele>106.746826</ele>
        <time>2012-01-09T09:51:53Z</time>
      </trkpt>
      <trkpt lat="47.27481" lon="-1.69076">
        <ele>105.3491</ele>
        <time>2012-01-09T09:51:58Z</time>
      </trkpt>
      <trkpt lat="47.275" lon="-1.69093">
        <ele>103.19905</ele>
        <time>2012-01-09T09:52:03Z</time>
      </trkpt>
      <trkpt lat="47.27516" lon="-1.69108">
        <ele>101.55126</ele>
        <time>2012-01-09T09:52:07Z</time>
      </trkpt>
      <trkpt lat="47.27533" lon="-1.69119">
        <ele>99.912704</ele>
        <time>2012-01-09T09:52:11Z</time>
      </trkpt>
      <trkpt lat="47.27539" lon="-1.69147">
        <ele>97.87577</ele>
        <time>2012-01-09T09:52:16Z</time>
      </trkpt>
      <trkpt lat="47.27555" lon="-1.6917">
        <ele>96.698975</ele>
        <time>2012-01-09T09:52:20Z</time>
      </trkpt>
      <trkpt lat="47.27574" lon="-1.69181">
        <ele>95.71675</ele>
        <time>2012-01-09T09:52:23Z</time>
      </trkpt>
      <trkpt lat="47.27591" lon="-1.69192">
        <ele>94.72426</ele>
        <time>2012-01-09T09:52:26Z</time>
      </trkpt>
      <trkpt lat="47.27607" lon="-1.69204">
        <ele>94.88367</ele>
        <time>2012-01-09T09:52:29Z</time>
      </trkpt>
      <trkpt lat="47.27623" lon="-1.69219">
        <ele>94.95092</ele>
        <time>2012-01-09T09:52:32Z</time>
      </trkpt>
      <trkpt lat="47.27638" lon="-1.69239">
        <ele>94.979294</ele>
        <time>2012-01-09T09:52:35Z</time>
      </trkpt>
      <trkpt lat="47.27654" lon="-1.69256">
        <ele>95.428764</ele>
        <time>2012-01-09T09:52:38Z</time>
      </trkpt>
      <trkpt lat="47.27673" lon="-1.69273">
        <ele>96.25676</ele>
        <time>2012-01-09T09:52:42Z</time>
      </trkpt>
      <trkpt lat="47.27695" lon="-1.6928">
        <ele>96.76483</ele>
        <time>2012-01-09T09:52:46Z</time>
      </trkpt>
      <trkpt lat="47.27714" lon="-1.69277">
        <ele>96.32266</ele>
        <time>2012-01-09T09:52:49Z</time>
      </trkpt>
      <trkpt lat="47.27733" lon="-1.69275">
        <ele>95.88612</ele>
        <time>2012-01-09T09:52:52Z</time>
      </trkpt>
      <trkpt lat="47.2775" lon="-1.69288">
        <ele>95.118286</ele>
        <time>2012-01-09T09:52:59Z</time>
      </trkpt>
      <trkpt lat="47.2776" lon="-1.69314">
        <ele>95.00666</ele>
        <time>2012-01-09T09:53:09Z</time>
      </trkpt>
      <trkpt lat="47.27764" lon="-1.69344">
        <ele>95.0005</ele>
        <time>2012-01-09T09:53:18Z</time>
      </trkpt>
      <trkpt lat="47.27764" lon="-1.69372">
        <ele>95.00005</ele>
        <time>2012-01-09T09:53:26Z</time>
      </trkpt>
      <trkpt lat="47.27759" lon="-1.69404">
        <ele>95.00001</ele>
        <time>2012-01-09T09:53:33Z</time>
      </trkpt>
      <trkpt lat="47.27759" lon="-1.69438">
        <ele>95</ele>
        <time>2012-01-09T09:53:41Z</time>
      </trkpt>
      <trkpt lat="47.2776" lon="-1.69468">
        <ele>95</ele>
        <time>2012-01-09T09:53:49Z</time>
      </trkpt>
      <trkpt lat="47.27761" lon="-1.69498">
        <ele>95</ele>
        <time>2012-01-09T09:53:57Z</time>
      </trkpt>
      <trkpt lat="47.27766" lon="-1.69526">
        <ele>95</ele>
        <time>2012-01-09T09:54:04Z</time>
      </trkpt>
      <trkpt lat="47.2777" lon="-1.69552">
        <ele>95</ele>
        <time>2012-01-09T09:54:10Z</time>
      </trkpt>
      <trkpt lat="47.27774" lon="-1.69578">
        <ele>95.68359</ele>
        <time>2012-01-09T09:54:16Z</time>
      </trkpt>
      <trkpt lat="47.2778" lon="-1.69604">
        <ele>96.19369</ele>
        <time>2012-01-09T09:54:22Z</time>
      </trkpt>
      <trkpt lat="47.27786" lon="-1.69629">
        <ele>96.89237</ele>
        <time>2012-01-09T09:54:29Z</time>
      </trkpt>
      <trkpt lat="47.27804" lon="-1.69636">
        <ele>97.74833</ele>
        <time>2012-01-09T09:54:36Z</time>
      </trkpt>
      <trkpt lat="47.27823" lon="-1.69647">
        <ele>98.77723</ele>
        <time>2012-01-09T09:54:42Z</time>
      </trkpt>
      <trkpt lat="47.27838" lon="-1.69668">
        <ele>100.59178</ele>
        <time>2012-01-09T09:54:51Z</time>
      </trkpt>
      <trkpt lat="47.27855" lon="-1.69683">
        <ele>101.708206</ele>
        <time>2012-01-09T09:54:58Z</time>
      </trkpt>
      <trkpt lat="47.27874" lon="-1.69685">
        <ele>102.72375</ele>
        <time>2012-01-09T09:55:05Z</time>
      </trkpt>
      <trkpt lat="47.27893" lon="-1.69681">
        <ele>102.96313</ele>
        <time>2012-01-09T09:55:12Z</time>
      </trkpt>
      <trkpt lat="47.27913" lon="-1.69672">
        <ele>103.753944</ele>
        <time>2012-01-09T09:55:17Z</time>
      </trkpt>
      <trkpt lat="47.27932" lon="-1.6967">
        <ele>103.36349</ele>
        <time>2012-01-09T09:55:22Z</time>
      </trkpt>
      <trkpt lat="47.27943" lon="-1.69696">
        <ele>103.04852</ele>
        <time>2012-01-09T09:55:29Z</time>
      </trkpt>
      <trkpt lat="47.27957" lon="-1.69715">
        <ele>103.00365</ele>
        <time>2012-01-09T09:55:38Z</time>
      </trkpt>
      <trkpt lat="47.27976" lon="-1.69717">
        <ele>103.00115</ele>
        <time>2012-01-09T09:55:42Z</time>
      </trkpt>
      <trkpt lat="47.27995" lon="-1.69717">
        <ele>103.00037</ele>
        <time>2012-01-09T09:55:46Z</time>
      </trkpt>
      <trkpt lat="47.28009" lon="-1.69739">
        <ele>103.82203</ele>
        <time>2012-01-09T09:55:59Z</time>
      </trkpt>
      <trkpt lat="47.28016" lon="-1.69765">
        <ele>103.95776</ele>
        <time>2012-01-09T09:56:04Z</time>
      </trkpt>
      <trkpt lat="47.28023" lon="-1.6979">
        <ele>103.989975</ele>
        <time>2012-01-09T09:56:09Z</time>
      </trkpt>
      <trkpt lat="47.28031" lon="-1.69818">
        <ele>104.68181</ele>
        <time>2012-01-09T09:56:15Z</time>
      </trkpt>
      <trkpt lat="47.28037" lon="-1.69848">
        <ele>104.94337</ele>
        <time>2012-01-09T09:56:21Z</time>
      </trkpt>
      <trkpt lat="47.28046" lon="-1.69876">
        <ele>105.42742</ele>
        <time>2012-01-09T09:56:27Z</time>
      </trkpt>
      <trkpt lat="47.28054" lon="-1.69904">
        <ele>105.898094</ele>
        <time>2012-01-09T09:56:33Z</time>
      </trkpt>
      <trkpt lat="47.28059" lon="-1.69932">
        <ele>105.981865</ele>
        <time>2012-01-09T09:56:39Z</time>
      </trkpt>
      <trkpt lat="47.28065" lon="-1.69958">
        <ele>105.9957</ele>
        <time>2012-01-09T09:56:44Z</time>
      </trkpt>
      <trkpt lat="47.2807" lon="-1.69983">
        <ele>105.99898</ele>
        <time>2012-01-09T09:56:49Z</time>
      </trkpt>
      <trkpt lat="47.28076" lon="-1.70009">
        <ele>105.999756</ele>
        <time>2012-01-09T09:56:54Z</time>
      </trkpt>
      <trkpt lat="47.2808" lon="-1.70035">
        <ele>105.99994</ele>
        <time>2012-01-09T09:56:59Z</time>
      </trkpt>
      <trkpt lat="47.28079" lon="-1.70065">
        <ele>106.24999</ele>
        <time>2012-01-09T09:57:05Z</time>
      </trkpt>
      <trkpt lat="47.28073" lon="-1.70091">
        <ele>106.866516</ele>
        <time>2012-01-09T09:57:11Z</time>
      </trkpt>
      <trkpt lat="47.28063" lon="-1.70119">
        <ele>107.419685</ele>
        <time>2012-01-09T09:57:18Z</time>
      </trkpt>
      <trkpt lat="47.2807" lon="-1.70146">
        <ele>108</ele>
        <time>2012-01-09T09:57:25Z</time>
      </trkpt>
      <trkpt lat="47.28085" lon="-1.70168">
        <ele>108</ele>
        <time>2012-01-09T09:57:31Z</time>
      </trkpt>
      <trkpt lat="47.28098" lon="-1.70189">
        <ele>108.68359</ele>
        <time>2012-01-09T09:57:36Z</time>
      </trkpt>
      <trkpt lat="47.2811" lon="-1.70211">
        <ele>108.92491</ele>
        <time>2012-01-09T09:57:41Z</time>
      </trkpt>
      <trkpt lat="47.28124" lon="-1.70232">
        <ele>109.66578</ele>
        <time>2012-01-09T09:57:46Z</time>
      </trkpt>
      <trkpt lat="47.28138" lon="-1.70256">
        <ele>111.8699</ele>
        <time>2012-01-09T09:57:51Z</time>
      </trkpt>
      <trkpt lat="47.28152" lon="-1.7028">
        <ele>115.00624</ele>
        <time>2012-01-09T09:57:56Z</time>
      </trkpt>
      <trkpt lat="47.28166" lon="-1.70299">
        <ele>116.63234</ele>
        <time>2012-01-09T09:58:01Z</time>
      </trkpt>
      <trkpt lat="47.28179" lon="-1.70318">
        <ele>117</ele>
        <time>2012-01-09T09:58:06Z</time>
      </trkpt>
      <trkpt lat="47.28191" lon="-1.7034">
        <ele>117</ele>
        <time>2012-01-09T09:58:11Z</time>
      </trkpt>
      <trkpt lat="47.28206" lon="-1.70363">
        <ele>117.25</ele>
        <time>2012-01-09T09:58:17Z</time>
      </trkpt>
      <trkpt lat="47.28221" lon="-1.70387">
        <ele>117.82202</ele>
        <time>2012-01-09T09:58:22Z</time>
      </trkpt>
      <trkpt lat="47.28236" lon="-1.70406">
        <ele>117.95776</ele>
        <time>2012-01-09T09:58:27Z</time>
      </trkpt>
      <trkpt lat="47.28251" lon="-1.70428">
        <ele>118.5681</ele>
        <time>2012-01-09T09:58:32Z</time>
      </trkpt>
      <trkpt lat="47.28266" lon="-1.70451">
        <ele>118.923134</ele>
        <time>2012-01-09T09:58:38Z</time>
      </trkpt>
      <trkpt lat="47.2828" lon="-1.70475">
        <ele>118.98632</ele>
        <time>2012-01-09T09:58:44Z</time>
      </trkpt>
      <trkpt lat="47.28292" lon="-1.70498">
        <ele>119</ele>
        <time>2012-01-09T09:58:50Z</time>
      </trkpt>
      <trkpt lat="47.28306" lon="-1.7052">
        <ele>119</ele>
        <time>2012-01-09T09:58:56Z</time>
      </trkpt>
      <trkpt lat="47.28321" lon="-1.70539">
        <ele>118.421875</ele>
        <time>2012-01-09T09:59:03Z</time>
      </trkpt>
      <trkpt lat="47.28341" lon="-1.70533">
        <ele>118.07509</ele>
        <time>2012-01-09T09:59:09Z</time>
      </trkpt>
      <trkpt lat="47.2836" lon="-1.70526">
        <ele>118.017815</ele>
        <time>2012-01-09T09:59:14Z</time>
      </trkpt>
      <trkpt lat="47.28379" lon="-1.70522">
        <ele>118.00423</ele>
        <time>2012-01-09T09:59:19Z</time>
      </trkpt>
      <trkpt lat="47.28399" lon="-1.7052">
        <ele>118.00101</ele>
        <time>2012-01-09T09:59:24Z</time>
      </trkpt>
      <trkpt lat="47.2842" lon="-1.70518">
        <ele>118.000175</ele>
        <time>2012-01-09T09:59:30Z</time>
      </trkpt>
      <trkpt lat="47.28442" lon="-1.7052">
        <ele>118.00003</ele>
        <time>2012-01-09T09:59:36Z</time>
      </trkpt>
      <trkpt lat="47.28461" lon="-1.70522">
        <ele>118.00001</ele>
        <time>2012-01-09T09:59:41Z</time>
      </trkpt>
      <trkpt lat="47.28482" lon="-1.70524">
        <ele>118</ele>
        <time>2012-01-09T09:59:47Z</time>
      </trkpt>
      <trkpt lat="47.28503" lon="-1.70526">
        <ele>118</ele>
        <time>2012-01-09T09:59:53Z</time>
      </trkpt>
      <trkpt lat="47.28521" lon="-1.70526">
        <ele>118</ele>
        <time>2012-01-09T09:59:58Z</time>
      </trkpt>
      <trkpt lat="47.2854" lon="-1.70528">
        <ele>118.25</ele>
        <time>2012-01-09T10:00:03Z</time>
      </trkpt>
      <trkpt lat="47.28562" lon="-1.70533">
        <ele>118.82202</ele>
        <time>2012-01-09T10:00:08Z</time>
      </trkpt>
      <trkpt lat="47.2858" lon="-1.70537">
        <ele>119.77181</ele>
        <time>2012-01-09T10:00:12Z</time>
      </trkpt>
      <trkpt lat="47.28601" lon="-1.70539">
        <ele>120.95854</ele>
        <time>2012-01-09T10:00:17Z</time>
      </trkpt>
      <trkpt lat="47.28623" lon="-1.70541">
        <ele>121.75286</ele>
        <time>2012-01-09T10:00:22Z</time>
      </trkpt>
      <trkpt lat="47.28644" lon="-1.70543">
        <ele>121.94135</ele>
        <time>2012-01-09T10:00:27Z</time>
      </trkpt>
      <trkpt lat="47.28666" lon="-1.70546">
        <ele>121.30249</ele>
        <time>2012-01-09T10:00:32Z</time>
      </trkpt>
      <trkpt lat="47.28685" lon="-1.70548">
        <ele>120.517586</ele>
        <time>2012-01-09T10:00:36Z</time>
      </trkpt>
      <trkpt lat="47.28706" lon="-1.70554">
        <ele>118.79267</ele>
        <time>2012-01-09T10:00:40Z</time>
      </trkpt>
      <trkpt lat="47.28726" lon="-1.70563">
        <ele>116.55159</ele>
        <time>2012-01-09T10:00:44Z</time>
      </trkpt>
      <trkpt lat="47.28746" lon="-1.70569">
        <ele>114.9128</ele>
        <time>2012-01-09T10:00:48Z</time>
      </trkpt>
      <trkpt lat="47.28767" lon="-1.70578">
        <ele>113.85132</ele>
        <time>2012-01-09T10:00:52Z</time>
      </trkpt>
      <trkpt lat="47.28786" lon="-1.70591">
        <ele>112.95202</ele>
        <time>2012-01-09T10:00:57Z</time>
      </trkpt>
      <trkpt lat="47.28805" lon="-1.70601">
        <ele>112.16944</ele>
        <time>2012-01-09T10:01:03Z</time>
      </trkpt>
      <trkpt lat="47.28822" lon="-1.70616">
        <ele>112.02262</ele>
        <time>2012-01-09T10:01:10Z</time>
      </trkpt>
      <trkpt lat="47.28839" lon="-1.70634">
        <ele>112.00302</ele>
        <time>2012-01-09T10:01:17Z</time>
      </trkpt>
      <trkpt lat="47.28854" lon="-1.70651">
        <ele>112.86692</ele>
        <time>2012-01-09T10:01:24Z</time>
      </trkpt>
      <trkpt lat="47.28868" lon="-1.70668">
        <ele>113.68359</ele>
        <time>2012-01-09T10:02:18Z</time>
      </trkpt>
      <trkpt lat="47.2888" lon="-1.70691">
        <ele>113.94369</ele>
        <time>2012-01-09T10:02:24Z</time>
      </trkpt>
      <trkpt lat="47.2889" lon="-1.70719">
        <ele>114.812</ele>
        <time>2012-01-09T10:02:30Z</time>
      </trkpt>
      <trkpt lat="47.28894" lon="-1.70745">
        <ele>115.63898</ele>
        <time>2012-01-09T10:02:35Z</time>
      </trkpt>
      <trkpt lat="47.289" lon="-1.70771">
        <ele>116.61934</ele>
        <time>2012-01-09T10:02:41Z</time>
      </trkpt>
      <trkpt lat="47.28909" lon="-1.70794">
        <ele>117.77121</ele>
        <time>2012-01-09T10:02:48Z</time>
      </trkpt>
      <trkpt lat="47.28922" lon="-1.70816">
        <ele>118.835976</ele>
        <time>2012-01-09T10:02:55Z</time>
      </trkpt>
      <trkpt lat="47.28939" lon="-1.70827">
        <ele>119</ele>
        <time>2012-01-09T10:03:02Z</time>
      </trkpt>
      <trkpt lat="47.28959" lon="-1.70837">
        <ele>119</ele>
        <time>2012-01-09T10:03:08Z</time>
      </trkpt>
      <trkpt lat="47.28979" lon="-1.70844">
        <ele>120.51172</ele>
        <time>2012-01-09T10:03:12Z</time>
      </trkpt>
      <trkpt lat="47.28998" lon="-1.70844">
        <ele>122.38776</ele>
        <time>2012-01-09T10:03:15Z</time>
      </trkpt>
      <trkpt lat="47.29017" lon="-1.70844">
        <ele>123.75733</ele>
        <time>2012-01-09T10:03:18Z</time>
      </trkpt>
      <trkpt lat="47.29035" lon="-1.70837">
        <ele>124.35681</ele>
        <time>2012-01-09T10:03:22Z</time>
      </trkpt>
      <trkpt lat="47.2905" lon="-1.70816">
        <ele>124.08467</ele>
        <time>2012-01-09T10:03:27Z</time>
      </trkpt>
      <trkpt lat="47.29064" lon="-1.70797">
        <ele>124.020096</ele>
        <time>2012-01-09T10:03:32Z</time>
      </trkpt>
      <trkpt lat="47.29079" lon="-1.70773">
        <ele>123.18156</ele>
        <time>2012-01-09T10:03:38Z</time>
      </trkpt>
      <trkpt lat="47.29095" lon="-1.70758">
        <ele>123.04308</ele>
        <time>2012-01-09T10:03:43Z</time>
      </trkpt>
      <trkpt lat="47.29112" lon="-1.70743">
        <ele>121.99753</ele>
        <time>2012-01-09T10:03:48Z</time>
      </trkpt>
      <trkpt lat="47.29131" lon="-1.70734">
        <ele>119.80391</ele>
        <time>2012-01-09T10:03:52Z</time>
      </trkpt>
      <trkpt lat="47.29153" lon="-1.7073">
        <ele>117.992645</ele>
        <time>2012-01-09T10:03:56Z</time>
      </trkpt>
      <trkpt lat="47.29172" lon="-1.70722">
        <ele>116.380486</ele>
        <time>2012-01-09T10:04:00Z</time>
      </trkpt>
      <trkpt lat="47.2919" lon="-1.70713">
        <ele>114.608665</ele>
        <time>2012-01-09T10:04:04Z</time>
      </trkpt>
      <trkpt lat="47.29205" lon="-1.70698">
        <ele>113.508995</ele>
        <time>2012-01-09T10:04:08Z</time>
      </trkpt>
      <trkpt lat="47.29222" lon="-1.70676">
        <ele>112.35809</ele>
        <time>2012-01-09T10:04:13Z</time>
      </trkpt>
      <trkpt lat="47.29236" lon="-1.70653">
        <ele>112.08498</ele>
        <time>2012-01-09T10:04:18Z</time>
      </trkpt>
      <trkpt lat="47.29251" lon="-1.70634">
        <ele>112.020164</ele>
        <time>2012-01-09T10:04:23Z</time>
      </trkpt>
      <trkpt lat="47.29267" lon="-1.70621">
        <ele>111.75</ele>
        <time>2012-01-09T10:04:28Z</time>
      </trkpt>
      <trkpt lat="47.29284" lon="-1.70606">
        <ele>110.74048</ele>
        <time>2012-01-09T10:04:33Z</time>
      </trkpt>
      <trkpt lat="47.29299" lon="-1.70586">
        <ele>109.79679</ele>
        <time>2012-01-09T10:04:37Z</time>
      </trkpt>
      <trkpt lat="47.29313" lon="-1.70569">
        <ele>109.00211</ele>
        <time>2012-01-09T10:04:41Z</time>
      </trkpt>
      <trkpt lat="47.29328" lon="-1.7055">
        <ele>108</ele>
        <time>2012-01-09T10:04:46Z</time>
      </trkpt>
      <trkpt lat="47.29364" lon="-1.70518">
        <ele>107</ele>
        <time>2012-01-09T10:05:02Z</time>
      </trkpt>
      <trkpt lat="47.29384" lon="-1.70505">
        <ele>107</ele>
        <time>2012-01-09T10:05:09Z</time>
      </trkpt>
      <trkpt lat="47.294" lon="-1.7049">
        <ele>107</ele>
        <time>2012-01-09T10:05:15Z</time>
      </trkpt>
      <trkpt lat="47.2942" lon="-1.7049">
        <ele>107.68359</ele>
        <time>2012-01-09T10:05:24Z</time>
      </trkpt>
      <trkpt lat="47.29448" lon="-1.7049">
        <ele>108.75</ele>
        <time>2012-01-09T10:05:34Z</time>
      </trkpt>
      <trkpt lat="47.29467" lon="-1.70477">
        <ele>107.92798</ele>
        <time>2012-01-09T10:05:39Z</time>
      </trkpt>
      <trkpt lat="47.29477" lon="-1.70453">
        <ele>106.970215</ele>
        <time>2012-01-09T10:05:44Z</time>
      </trkpt>
      <trkpt lat="47.29468" lon="-1.70428">
        <ele>105.125015</ele>
        <time>2012-01-09T10:06:22Z</time>
      </trkpt>
      <trkpt lat="47.29461" lon="-1.704">
        <ele>103.572044</ele>
        <time>2012-01-09T10:06:29Z</time>
      </trkpt>
      <trkpt lat="47.29451" lon="-1.70376">
        <ele>103.07636</ele>
        <time>2012-01-09T10:06:36Z</time>
      </trkpt>
      <trkpt lat="47.29451" lon="-1.70346">
        <ele>101.421906</ele>
        <time>2012-01-09T10:07:13Z</time>
      </trkpt>
      <trkpt lat="47.29468" lon="-1.70359">
        <ele>100.478195</ele>
        <time>2012-01-09T10:07:20Z</time>
      </trkpt>
      <trkpt lat="47.29484" lon="-1.70378">
        <ele>99.397606</ele>
        <time>2012-01-09T10:07:26Z</time>
      </trkpt>
      <trkpt lat="47.29501" lon="-1.704">
        <ele>98.33166</ele>
        <time>2012-01-09T10:07:31Z</time>
      </trkpt>
      <trkpt lat="47.29514" lon="-1.70421">
        <ele>97.828705</ele>
        <time>2012-01-09T10:07:36Z</time>
      </trkpt>
      <trkpt lat="47.29525" lon="-1.70445">
        <ele>97.196655</ele>
        <time>2012-01-09T10:07:41Z</time>
      </trkpt>
      <trkpt lat="47.29534" lon="-1.70473">
        <ele>97.48417</ele>
        <time>2012-01-09T10:07:46Z</time>
      </trkpt>
      <trkpt lat="47.2954" lon="-1.70501">
        <ele>97.877594</ele>
        <time>2012-01-09T10:07:51Z</time>
      </trkpt>
      <trkpt lat="47.29547" lon="-1.70526">
        <ele>97.970955</ele>
        <time>2012-01-09T10:07:56Z</time>
      </trkpt>
      <trkpt lat="47.29554" lon="-1.70552">
        <ele>97.99483</ele>
        <time>2012-01-09T10:08:02Z</time>
      </trkpt>
      <trkpt lat="47.2956" lon="-1.70578">
        <ele>98.24931</ele>
        <time>2012-01-09T10:08:09Z</time>
      </trkpt>
      <trkpt lat="47.29567" lon="-1.70604">
        <ele>98.899796</ele>
        <time>2012-01-09T10:08:16Z</time>
      </trkpt>
      <trkpt lat="47.29576" lon="-1.70631">
        <ele>98.98997</ele>
        <time>2012-01-09T10:08:24Z</time>
      </trkpt>
      <trkpt lat="47.29582" lon="-1.70657">
        <ele>99.68225</ele>
        <time>2012-01-09T10:08:31Z</time>
      </trkpt>
      <trkpt lat="47.29589" lon="-1.70683">
        <ele>99.95759</ele>
        <time>2012-01-09T10:08:38Z</time>
      </trkpt>
      <trkpt lat="47.29595" lon="-1.70711">
        <ele>99.99434</ele>
        <time>2012-01-09T10:08:45Z</time>
      </trkpt>
      <trkpt lat="47.29602" lon="-1.70737">
        <ele>100.86576</ele>
        <time>2012-01-09T10:08:52Z</time>
      </trkpt>
      <trkpt lat="47.29611" lon="-1.70762">
        <ele>100.98208</ele>
        <time>2012-01-09T10:08:59Z</time>
      </trkpt>
      <trkpt lat="47.29623" lon="-1.70786">
        <ele>101.247604</ele>
        <time>2012-01-09T10:09:06Z</time>
      </trkpt>
      <trkpt lat="47.29638" lon="-1.70803">
        <ele>101.82146</ele>
        <time>2012-01-09T10:09:11Z</time>
      </trkpt>
      <trkpt lat="47.29656" lon="-1.70818">
        <ele>102.381004</ele>
        <time>2012-01-09T10:09:15Z</time>
      </trkpt>
      <trkpt lat="47.29674" lon="-1.70833">
        <ele>103.13983</ele>
        <time>2012-01-09T10:09:21Z</time>
      </trkpt>
      <trkpt lat="47.29692" lon="-1.70844">
        <ele>103.795876</ele>
        <time>2012-01-09T10:09:26Z</time>
      </trkpt>
      <trkpt lat="47.2971" lon="-1.70852">
        <ele>104.529686</ele>
        <time>2012-01-09T10:09:31Z</time>
      </trkpt>
      <trkpt lat="47.2973" lon="-1.70863">
        <ele>104.88839</ele>
        <time>2012-01-09T10:09:36Z</time>
      </trkpt>
      <trkpt lat="47.29751" lon="-1.70872">
        <ele>105.21468</ele>
        <time>2012-01-09T10:09:40Z</time>
      </trkpt>
      <trkpt lat="47.29771" lon="-1.7088">
        <ele>105.75152</ele>
        <time>2012-01-09T10:09:44Z</time>
      </trkpt>
      <trkpt lat="47.29788" lon="-1.70889">
        <ele>106.499504</ele>
        <time>2012-01-09T10:09:48Z</time>
      </trkpt>
      <trkpt lat="47.29806" lon="-1.709">
        <ele>106.88123</ele>
        <time>2012-01-09T10:09:53Z</time>
      </trkpt>
      <trkpt lat="47.29825" lon="-1.70891">
        <ele>106.984146</ele>
        <time>2012-01-09T10:10:00Z</time>
      </trkpt>
      <trkpt lat="47.29815" lon="-1.70865">
        <ele>106.56039</ele>
        <time>2012-01-09T10:10:07Z</time>
      </trkpt>
      <trkpt lat="47.29801" lon="-1.70848">
        <ele>105.59918</ele>
        <time>2012-01-09T10:10:11Z</time>
      </trkpt>
      <trkpt lat="47.29788" lon="-1.70827">
        <ele>104.61146</ele>
        <time>2012-01-09T10:10:15Z</time>
      </trkpt>
      <trkpt lat="47.29774" lon="-1.70805">
        <ele>104.1451</ele>
        <time>2012-01-09T10:10:20Z</time>
      </trkpt>
      <trkpt lat="47.29761" lon="-1.70784">
        <ele>104.968025</ele>
        <time>2012-01-09T10:10:25Z</time>
      </trkpt>
      <trkpt lat="47.29746" lon="-1.70762">
        <ele>105.81633</ele>
        <time>2012-01-09T10:10:31Z</time>
      </trkpt>
      <trkpt lat="47.29733" lon="-1.70739">
        <ele>105.96731</ele>
        <time>2012-01-09T10:10:37Z</time>
      </trkpt>
      <trkpt lat="47.29722" lon="-1.70717">
        <ele>105.99418</ele>
        <time>2012-01-09T10:10:43Z</time>
      </trkpt>
      <trkpt lat="47.2971" lon="-1.70689">
        <ele>105.99896</ele>
        <time>2012-01-09T10:10:49Z</time>
      </trkpt>
      <trkpt lat="47.29701" lon="-1.70661">
        <ele>105.31616</ele>
        <time>2012-01-09T10:10:54Z</time>
      </trkpt>
      <trkpt lat="47.2969" lon="-1.70634">
        <ele>104.63753</ele>
        <time>2012-01-09T10:10:59Z</time>
      </trkpt>
      <trkpt lat="47.29676" lon="-1.70612">
        <ele>104.20171</ele>
        <time>2012-01-09T10:11:03Z</time>
      </trkpt>
      <trkpt lat="47.29658" lon="-1.70591">
        <ele>104.45445</ele>
        <time>2012-01-09T10:11:07Z</time>
      </trkpt>
      <trkpt lat="47.29643" lon="-1.70573">
        <ele>105.019844</ele>
        <time>2012-01-09T10:11:10Z</time>
      </trkpt>
      <trkpt lat="47.29628" lon="-1.70546">
        <ele>106.268</ele>
        <time>2012-01-09T10:11:14Z</time>
      </trkpt>
      <trkpt lat="47.29624" lon="-1.70516">
        <ele>107.45198</ele>
        <time>2012-01-09T10:11:18Z</time>
      </trkpt>
      <trkpt lat="47.29625" lon="-1.70488">
        <ele>108.65473</ele>
        <time>2012-01-09T10:11:22Z</time>
      </trkpt>
      <trkpt lat="47.29624" lon="-1.70458">
        <ele>109.93076</ele>
        <time>2012-01-09T10:11:27Z</time>
      </trkpt>
      <trkpt lat="47.29621" lon="-1.70428">
        <ele>110.74626</ele>
        <time>2012-01-09T10:11:32Z</time>
      </trkpt>
      <trkpt lat="47.29619" lon="-1.704">
        <ele>111.702484</ele>
        <time>2012-01-09T10:11:37Z</time>
      </trkpt>
      <trkpt lat="47.29617" lon="-1.70372">
        <ele>111.9294</ele>
        <time>2012-01-09T10:11:42Z</time>
      </trkpt>
      <trkpt lat="47.29617" lon="-1.70344">
        <ele>111.29965</ele>
        <time>2012-01-09T10:11:47Z</time>
      </trkpt>
      <trkpt lat="47.29619" lon="-1.70314">
        <ele>111.05333</ele>
        <time>2012-01-09T10:11:53Z</time>
      </trkpt>
      <trkpt lat="47.2963" lon="-1.70292">
        <ele>111.00949</ele>
        <time>2012-01-09T10:11:59Z</time>
      </trkpt>
      <trkpt lat="47.29636" lon="-1.70264">
        <ele>111.001686</ele>
        <time>2012-01-09T10:12:05Z</time>
      </trkpt>
      <trkpt lat="47.29626" lon="-1.70241">
        <ele>110.313034</ele>
        <time>2012-01-09T10:12:09Z</time>
      </trkpt>
      <trkpt lat="47.29611" lon="-1.70215">
        <ele>107.90373</ele>
        <time>2012-01-09T10:12:13Z</time>
      </trkpt>
      <trkpt lat="47.29601" lon="-1.70189">
        <ele>105.34064</ele>
        <time>2012-01-09T10:12:17Z</time>
      </trkpt>
      <trkpt lat="47.29607" lon="-1.70217">
        <ele>103.28605</ele>
        <time>2012-01-09T10:12:46Z</time>
      </trkpt>
      <trkpt lat="47.29627" lon="-1.70213">
        <ele>102.34505</ele>
        <time>2012-01-09T10:12:54Z</time>
      </trkpt>
      <trkpt lat="47.29645" lon="-1.702">
        <ele>102.06141</ele>
        <time>2012-01-09T10:13:00Z</time>
      </trkpt>
      <trkpt lat="47.29663" lon="-1.70192">
        <ele>102.01457</ele>
        <time>2012-01-09T10:13:05Z</time>
      </trkpt>
      <trkpt lat="47.29678" lon="-1.70172">
        <ele>102.440094</ele>
        <time>2012-01-09T10:13:11Z</time>
      </trkpt>
      <trkpt lat="47.29694" lon="-1.70157">
        <ele>103.15035</ele>
        <time>2012-01-09T10:13:17Z</time>
      </trkpt>
      <trkpt lat="47.29714" lon="-1.70153">
        <ele>104.09878</ele>
        <time>2012-01-09T10:13:23Z</time>
      </trkpt>
      <trkpt lat="47.29732" lon="-1.70153">
        <ele>104.78613</ele>
        <time>2012-01-09T10:13:28Z</time>
      </trkpt>
      <trkpt lat="47.29751" lon="-1.70153">
        <ele>105.63284</ele>
        <time>2012-01-09T10:13:33Z</time>
      </trkpt>
      <trkpt lat="47.2977" lon="-1.70155">
        <ele>107.006676</ele>
        <time>2012-01-09T10:13:39Z</time>
      </trkpt>
      <trkpt lat="47.29787" lon="-1.70164">
        <ele>108.70676</ele>
        <time>2012-01-09T10:13:49Z</time>
      </trkpt>
      <trkpt lat="47.29805" lon="-1.70174">
        <ele>109.6314</ele>
        <time>2012-01-09T10:13:55Z</time>
      </trkpt>
      <trkpt lat="47.29825" lon="-1.70198">
        <ele>110.87913</ele>
        <time>2012-01-09T10:14:05Z</time>
      </trkpt>
      <trkpt lat="47.29822" lon="-1.7023">
        <ele>112.00362</ele>
        <time>2012-01-09T10:14:14Z</time>
      </trkpt>
      <trkpt lat="47.29826" lon="-1.70258">
        <ele>114.63005</ele>
        <time>2012-01-09T10:14:18Z</time>
      </trkpt>
      <trkpt lat="47.29831" lon="-1.70284">
        <ele>115.566536</ele>
        <time>2012-01-09T10:14:22Z</time>
      </trkpt>
      <trkpt lat="47.29837" lon="-1.7031">
        <ele>115.89714</ele>
        <time>2012-01-09T10:14:27Z</time>
      </trkpt>
      <trkpt lat="47.29846" lon="-1.70337">
        <ele>115.39747</ele>
        <time>2012-01-09T10:14:32Z</time>
      </trkpt>
      <trkpt lat="47.29857" lon="-1.70361">
        <ele>115.56326</ele>
        <time>2012-01-09T10:14:36Z</time>
      </trkpt>
      <trkpt lat="47.29867" lon="-1.70389">
        <ele>115.89636</ele>
        <time>2012-01-09T10:14:41Z</time>
      </trkpt>
      <trkpt lat="47.29879" lon="-1.70413">
        <ele>116.659</ele>
        <time>2012-01-09T10:14:46Z</time>
      </trkpt>
      <trkpt lat="47.2989" lon="-1.70434">
        <ele>117.47023</ele>
        <time>2012-01-09T10:14:50Z</time>
      </trkpt>
      <trkpt lat="47.29905" lon="-1.70455">
        <ele>118.55788</ele>
        <time>2012-01-09T10:14:55Z</time>
      </trkpt>
      <trkpt lat="47.29922" lon="-1.7047">
        <ele>119.578674</ele>
        <time>2012-01-09T10:15:00Z</time>
      </trkpt>
      <trkpt lat="47.29937" lon="-1.70485">
        <ele>120.47814</ele>
        <time>2012-01-09T10:15:05Z</time>
      </trkpt>
      <trkpt lat="47.2995" lon="-1.70505">
        <ele>120.90712</ele>
        <time>2012-01-09T10:15:11Z</time>
      </trkpt>
      <trkpt lat="47.29958" lon="-1.70531">
        <ele>120.98347</ele>
        <time>2012-01-09T10:15:17Z</time>
      </trkpt>
      <trkpt lat="47.29965" lon="-1.70556">
        <ele>120.23436</ele>
        <time>2012-01-09T10:15:23Z</time>
      </trkpt>
      <trkpt lat="47.29978" lon="-1.70582">
        <ele>120.04171</ele>
        <time>2012-01-09T10:15:29Z</time>
      </trkpt>
      <trkpt lat="47.2999" lon="-1.70604">
        <ele>120.009895</ele>
        <time>2012-01-09T10:15:34Z</time>
      </trkpt>
      <trkpt lat="47.29999" lon="-1.70631">
        <ele>120.43926</ele>
        <time>2012-01-09T10:15:40Z</time>
      </trkpt>
      <trkpt lat="47.3001" lon="-1.70655">
        <ele>120.18334</ele>
        <time>2012-01-09T10:15:45Z</time>
      </trkpt>
      <trkpt lat="47.30024" lon="-1.70676">
        <ele>120.04351</ele>
        <time>2012-01-09T10:15:50Z</time>
      </trkpt>
      <trkpt lat="47.30039" lon="-1.70696">
        <ele>120.01032</ele>
        <time>2012-01-09T10:15:55Z</time>
      </trkpt>
      <trkpt lat="47.30055" lon="-1.70715">
        <ele>120.00184</ele>
        <time>2012-01-09T10:16:01Z</time>
      </trkpt>
      <trkpt lat="47.30072" lon="-1.70707">
        <ele>120.000435</ele>
        <time>2012-01-09T10:16:06Z</time>
      </trkpt>
      <trkpt lat="47.30087" lon="-1.70689">
        <ele>120.00011</ele>
        <time>2012-01-09T10:16:11Z</time>
      </trkpt>
      <trkpt lat="47.30105" lon="-1.7067">
        <ele>120.68362</ele>
        <time>2012-01-09T10:16:16Z</time>
      </trkpt>
      <trkpt lat="47.3012" lon="-1.70651">
        <ele>120.899895</ele>
        <time>2012-01-09T10:16:20Z</time>
      </trkpt>
      <trkpt lat="47.30136" lon="-1.70629">
        <ele>121.40582</ele>
        <time>2012-01-09T10:16:24Z</time>
      </trkpt>
      <trkpt lat="47.30147" lon="-1.70606">
        <ele>121.23387</ele>
        <time>2012-01-09T10:16:28Z</time>
      </trkpt>
      <trkpt lat="47.30165" lon="-1.70595">
        <ele>121.03122</ele>
        <time>2012-01-09T10:16:35Z</time>
      </trkpt>
      <trkpt lat="47.30183" lon="-1.70595">
        <ele>120.56991</ele>
        <time>2012-01-09T10:16:40Z</time>
      </trkpt>
      <trkpt lat="47.30201" lon="-1.70606">
        <ele>118.79442</ele>
        <time>2012-01-09T10:16:45Z</time>
      </trkpt>
      <trkpt lat="47.3021" lon="-1.70629">
        <ele>118.25136</ele>
        <time>2012-01-09T10:16:49Z</time>
      </trkpt>
      <trkpt lat="47.30217" lon="-1.70659">
        <ele>118.05965</ele>
        <time>2012-01-09T10:16:54Z</time>
      </trkpt>
      <trkpt lat="47.30225" lon="-1.70687">
        <ele>118.77685</ele>
        <time>2012-01-09T10:16:59Z</time>
      </trkpt>
      <trkpt lat="47.30231" lon="-1.70713">
        <ele>118.9294</ele>
        <time>2012-01-09T10:17:03Z</time>
      </trkpt>
      <trkpt lat="47.30238" lon="-1.70739">
        <ele>118.97766</ele>
        <time>2012-01-09T10:17:07Z</time>
      </trkpt>
      <trkpt lat="47.30243" lon="-1.70764">
        <ele>118.992935</ele>
        <time>2012-01-09T10:17:11Z</time>
      </trkpt>
      <trkpt lat="47.30248" lon="-1.70792">
        <ele>118.99832</ele>
        <time>2012-01-09T10:17:16Z</time>
      </trkpt>
      <trkpt lat="47.30249" lon="-1.70825">
        <ele>118.9997</ele>
        <time>2012-01-09T10:17:22Z</time>
      </trkpt>
      <trkpt lat="47.30255" lon="-1.7085">
        <ele>118.99991</ele>
        <time>2012-01-09T10:17:26Z</time>
      </trkpt>
      <trkpt lat="47.30259" lon="-1.70878">
        <ele>118.99998</ele>
        <time>2012-01-09T10:17:31Z</time>
      </trkpt>
      <trkpt lat="47.30263" lon="-1.7091">
        <ele>118</ele>
        <time>2012-01-09T10:17:37Z</time>
      </trkpt>
      <trkpt lat="47.30268" lon="-1.70938">
        <ele>118</ele>
        <time>2012-01-09T10:17:42Z</time>
      </trkpt>
      <trkpt lat="47.30272" lon="-1.70968">
        <ele>117.17798</ele>
        <time>2012-01-09T10:17:48Z</time>
      </trkpt>
      <trkpt lat="47.30277" lon="-1.70994">
        <ele>117.04224</ele>
        <time>2012-01-09T10:17:53Z</time>
      </trkpt>
      <trkpt lat="47.30282" lon="-1.7102">
        <ele>117.010025</ele>
        <time>2012-01-09T10:17:58Z</time>
      </trkpt>
      <trkpt lat="47.30289" lon="-1.71046">
        <ele>117.00238</ele>
        <time>2012-01-09T10:18:03Z</time>
      </trkpt>
      <trkpt lat="47.30301" lon="-1.71069">
        <ele>117.68416</ele>
        <time>2012-01-09T10:18:08Z</time>
      </trkpt>
      <trkpt lat="47.30318" lon="-1.71082">
        <ele>117.86675</ele>
        <time>2012-01-09T10:18:11Z</time>
      </trkpt>
      <trkpt lat="47.30338" lon="-1.71093">
        <ele>118.535965</ele>
        <time>2012-01-09T10:18:15Z</time>
      </trkpt>
      <trkpt lat="47.30351" lon="-1.71114">
        <ele>118.889885</ele>
        <time>2012-01-09T10:18:20Z</time>
      </trkpt>
      <trkpt lat="47.30363" lon="-1.71136">
        <ele>118.97387</ele>
        <time>2012-01-09T10:18:25Z</time>
      </trkpt>
      <trkpt lat="47.30377" lon="-1.71159">
        <ele>118.995346</ele>
        <time>2012-01-09T10:18:31Z</time>
      </trkpt>
      <trkpt lat="47.3039" lon="-1.71183">
        <ele>119.51187</ele>
        <time>2012-01-09T10:18:37Z</time>
      </trkpt>
      <trkpt lat="47.30403" lon="-1.71204">
        <ele>119.12147</ele>
        <time>2012-01-09T10:18:42Z</time>
      </trkpt>
      <trkpt lat="47.30415" lon="-1.71228">
        <ele>118.591324</ele>
        <time>2012-01-09T10:18:47Z</time>
      </trkpt>
      <trkpt lat="47.30428" lon="-1.71252">
        <ele>115.65205</ele>
        <time>2012-01-09T10:18:52Z</time>
      </trkpt>
      <trkpt lat="47.30439" lon="-1.71275">
        <ele>114.39204</ele>
        <time>2012-01-09T10:18:57Z</time>
      </trkpt>
      <trkpt lat="47.30449" lon="-1.71299">
        <ele>114.09303</ele>
        <time>2012-01-09T10:19:02Z</time>
      </trkpt>
      <trkpt lat="47.30459" lon="-1.71324">
        <ele>114.70958</ele>
        <time>2012-01-09T10:19:07Z</time>
      </trkpt>
      <trkpt lat="47.30468" lon="-1.7135">
        <ele>116.706474</ele>
        <time>2012-01-09T10:19:12Z</time>
      </trkpt>
      <trkpt lat="47.30479" lon="-1.71372">
        <ele>118.02822</ele>
        <time>2012-01-09T10:19:16Z</time>
      </trkpt>
      <trkpt lat="47.3049" lon="-1.71393">
        <ele>118.114395</ele>
        <time>2012-01-09T10:19:20Z</time>
      </trkpt>
      <trkpt lat="47.30512" lon="-1.71402">
        <ele>118.036194</ele>
        <time>2012-01-09T10:19:24Z</time>
      </trkpt>
      <trkpt lat="47.30535" lon="-1.71404">
        <ele>118.015274</ele>
        <time>2012-01-09T10:19:27Z</time>
      </trkpt>
      <trkpt lat="47.30554" lon="-1.71402">
        <ele>118.00644</ele>
        <time>2012-01-09T10:19:30Z</time>
      </trkpt>
      <trkpt lat="47.30573" lon="-1.71397">
        <ele>118.58084</ele>
        <time>2012-01-09T10:19:33Z</time>
      </trkpt>
      <trkpt lat="47.30596" lon="-1.71393">
        <ele>118.86738</ele>
        <time>2012-01-09T10:19:37Z</time>
      </trkpt>
      <trkpt lat="47.30616" lon="-1.71389">
        <ele>119.64163</ele>
        <time>2012-01-09T10:19:41Z</time>
      </trkpt>
      <trkpt lat="47.30638" lon="-1.71382">
        <ele>119.88661</ele>
        <time>2012-01-09T10:19:45Z</time>
      </trkpt>
      <trkpt lat="47.3066" lon="-1.71378">
        <ele>119.96412</ele>
        <time>2012-01-09T10:19:49Z</time>
      </trkpt>
      <trkpt lat="47.30683" lon="-1.71372">
        <ele>119.41052</ele>
        <time>2012-01-09T10:19:53Z</time>
      </trkpt>
      <trkpt lat="47.30706" lon="-1.71367">
        <ele>118.69239</ele>
        <time>2012-01-09T10:19:57Z</time>
      </trkpt>
      <trkpt lat="47.30725" lon="-1.71363">
        <ele>118.29211</ele>
        <time>2012-01-09T10:20:00Z</time>
      </trkpt>
      <trkpt lat="47.30747" lon="-1.71357">
        <ele>117.40883</ele>
        <time>2012-01-09T10:20:04Z</time>
      </trkpt>
      <trkpt lat="47.3077" lon="-1.71352">
        <ele>116.44576</ele>
        <time>2012-01-09T10:20:08Z</time>
      </trkpt>
      <trkpt lat="47.3079" lon="-1.71348">
        <ele>115.891045</ele>
        <time>2012-01-09T10:20:12Z</time>
      </trkpt>
      <trkpt lat="47.30811" lon="-1.71342">
        <ele>115.28193</ele>
        <time>2012-01-09T10:20:16Z</time>
      </trkpt>
      <trkpt lat="47.30832" lon="-1.71337">
        <ele>115.0892</ele>
        <time>2012-01-09T10:20:20Z</time>
      </trkpt>
      <trkpt lat="47.30853" lon="-1.71331">
        <ele>115.02823</ele>
        <time>2012-01-09T10:20:24Z</time>
      </trkpt>
      <trkpt lat="47.30873" lon="-1.71329">
        <ele>114.571434</ele>
        <time>2012-01-09T10:20:28Z</time>
      </trkpt>
      <trkpt lat="47.30893" lon="-1.71322">
        <ele>113.74721</ele>
        <time>2012-01-09T10:20:32Z</time>
      </trkpt>
      <trkpt lat="47.30916" lon="-1.71316">
        <ele>113.92001</ele>
        <time>2012-01-09T10:20:36Z</time>
      </trkpt>
      <trkpt lat="47.30938" lon="-1.71312">
        <ele>113.97469</ele>
        <time>2012-01-09T10:20:40Z</time>
      </trkpt>
      <trkpt lat="47.30961" lon="-1.71305">
        <ele>113.99199</ele>
        <time>2012-01-09T10:20:44Z</time>
      </trkpt>
      <trkpt lat="47.30979" lon="-1.71303">
        <ele>113.99747</ele>
        <time>2012-01-09T10:20:48Z</time>
      </trkpt>
      <trkpt lat="47.30998" lon="-1.71297">
        <ele>113.5617</ele>
        <time>2012-01-09T10:20:52Z</time>
      </trkpt>
      <trkpt lat="47.31019" lon="-1.7129">
        <ele>112.92773</ele>
        <time>2012-01-09T10:20:56Z</time>
      </trkpt>
      <trkpt lat="47.31038" lon="-1.71286">
        <ele>112.29354</ele>
        <time>2012-01-09T10:21:00Z</time>
      </trkpt>
      <trkpt lat="47.31057" lon="-1.71282">
        <ele>112.09288</ele>
        <time>2012-01-09T10:21:04Z</time>
      </trkpt>
      <trkpt lat="47.31077" lon="-1.71277">
        <ele>111.77939</ele>
        <time>2012-01-09T10:21:08Z</time>
      </trkpt>
      <trkpt lat="47.31098" lon="-1.71273">
        <ele>111.9302</ele>
        <time>2012-01-09T10:21:12Z</time>
      </trkpt>
      <trkpt lat="47.3112" lon="-1.71271">
        <ele>111.97791</ele>
        <time>2012-01-09T10:21:16Z</time>
      </trkpt>
      <trkpt lat="47.3114" lon="-1.71267">
        <ele>111.99301</ele>
        <time>2012-01-09T10:21:20Z</time>
      </trkpt>
      <trkpt lat="47.31158" lon="-1.71264">
        <ele>111.89232</ele>
        <time>2012-01-09T10:21:24Z</time>
      </trkpt>
      <trkpt lat="47.31172" lon="-1.71282">
        <ele>111.96593</ele>
        <time>2012-01-09T10:21:28Z</time>
      </trkpt>
      <trkpt lat="47.3119" lon="-1.71301">
        <ele>111.41379</ele>
        <time>2012-01-09T10:21:33Z</time>
      </trkpt>
      <trkpt lat="47.31209" lon="-1.71299">
        <ele>110.5528</ele>
        <time>2012-01-09T10:21:37Z</time>
      </trkpt>
      <trkpt lat="47.31227" lon="-1.71297">
        <ele>109.05382</ele>
        <time>2012-01-09T10:21:41Z</time>
      </trkpt>
      <trkpt lat="47.31247" lon="-1.71292">
        <ele>109.01277</ele>
        <time>2012-01-09T10:21:46Z</time>
      </trkpt>
      <trkpt lat="47.31268" lon="-1.71286">
        <ele>109.44053</ele>
        <time>2012-01-09T10:21:51Z</time>
      </trkpt>
      <trkpt lat="47.31287" lon="-1.71277">
        <ele>109.10454</ele>
        <time>2012-01-09T10:21:56Z</time>
      </trkpt>
      <trkpt lat="47.31304" lon="-1.71269">
        <ele>109.28307</ele>
        <time>2012-01-09T10:22:00Z</time>
      </trkpt>
      <trkpt lat="47.31321" lon="-1.7126">
        <ele>109.77316</ele>
        <time>2012-01-09T10:22:04Z</time>
      </trkpt>
      <trkpt lat="47.31338" lon="-1.71252">
        <ele>109.92823</ele>
        <time>2012-01-09T10:22:08Z</time>
      </trkpt>
      <trkpt lat="47.31356" lon="-1.71243">
        <ele>109.97729</ele>
        <time>2012-01-09T10:22:12Z</time>
      </trkpt>
      <trkpt lat="47.31377" lon="-1.71234">
        <ele>109.55711</ele>
        <time>2012-01-09T10:22:17Z</time>
      </trkpt>
      <trkpt lat="47.31395" lon="-1.71224">
        <ele>109.67728</ele>
        <time>2012-01-09T10:22:23Z</time>
      </trkpt>
      <trkpt lat="47.31416" lon="-1.71215">
        <ele>109.942566</ele>
        <time>2012-01-09T10:22:29Z</time>
      </trkpt>
      <trkpt lat="47.31436" lon="-1.71209">
        <ele>110.67593</ele>
        <time>2012-01-09T10:22:36Z</time>
      </trkpt>
      <trkpt lat="47.31453" lon="-1.712">
        <ele>111.360596</ele>
        <time>2012-01-09T10:22:41Z</time>
      </trkpt>
      <trkpt lat="47.31474" lon="-1.71189">
        <ele>113.544556</ele>
        <time>2012-01-09T10:22:46Z</time>
      </trkpt>
      <trkpt lat="47.31493" lon="-1.71179">
        <ele>114.90462</ele>
        <time>2012-01-09T10:22:51Z</time>
      </trkpt>
      <trkpt lat="47.31513" lon="-1.7117">
        <ele>115.805046</ele>
        <time>2012-01-09T10:22:57Z</time>
      </trkpt>
      <trkpt lat="47.3153" lon="-1.71161">
        <ele>115.9653</ele>
        <time>2012-01-09T10:23:03Z</time>
      </trkpt>
      <trkpt lat="47.31543" lon="-1.71138">
        <ele>116.56989</ele>
        <time>2012-01-09T10:23:08Z</time>
      </trkpt>
      <trkpt lat="47.31553" lon="-1.71112">
        <ele>116.897934</ele>
        <time>2012-01-09T10:23:13Z</time>
      </trkpt>
      <trkpt lat="47.31557" lon="-1.71084">
        <ele>116.97578</ele>
        <time>2012-01-09T10:23:18Z</time>
      </trkpt>
      <trkpt lat="47.31562" lon="-1.71056">
        <ele>118.83609</ele>
        <time>2012-01-09T10:23:22Z</time>
      </trkpt>
      <trkpt lat="47.31566" lon="-1.71031">
        <ele>120.89345</ele>
        <time>2012-01-09T10:23:26Z</time>
      </trkpt>
      <trkpt lat="47.31571" lon="-1.71005">
        <ele>121.73741</ele>
        <time>2012-01-09T10:23:31Z</time>
      </trkpt>
      <trkpt lat="47.31578" lon="-1.70975">
        <ele>121.93768</ele>
        <time>2012-01-09T10:23:36Z</time>
      </trkpt>
      <trkpt lat="47.31582" lon="-1.70947">
        <ele>122.74791</ele>
        <time>2012-01-09T10:23:41Z</time>
      </trkpt>
      <trkpt lat="47.31586" lon="-1.70919">
        <ele>122.94018</ele>
        <time>2012-01-09T10:23:46Z</time>
      </trkpt>
      <trkpt lat="47.31588" lon="-1.70889">
        <ele>123.56393</ele>
        <time>2012-01-09T10:23:51Z</time>
      </trkpt>
      <trkpt lat="47.31593" lon="-1.70857">
        <ele>124.334015</ele>
        <time>2012-01-09T10:23:56Z</time>
      </trkpt>
      <trkpt lat="47.31597" lon="-1.70831">
        <ele>124.789276</ele>
        <time>2012-01-09T10:24:00Z</time>
      </trkpt>
      <trkpt lat="47.31601" lon="-1.70805">
        <ele>124.93333</ele>
        <time>2012-01-09T10:24:04Z</time>
      </trkpt>
      <trkpt lat="47.31606" lon="-1.70773">
        <ele>124.40605</ele>
        <time>2012-01-09T10:24:09Z</time>
      </trkpt>
      <trkpt lat="47.3161" lon="-1.70743">
        <ele>124.77995</ele>
        <time>2012-01-09T10:24:14Z</time>
      </trkpt>
      <trkpt lat="47.31614" lon="-1.70717">
        <ele>124.492874</ele>
        <time>2012-01-09T10:24:18Z</time>
      </trkpt>
      <trkpt lat="47.31619" lon="-1.70687">
        <ele>124.11696</ele>
        <time>2012-01-09T10:24:23Z</time>
      </trkpt>
      <trkpt lat="47.31624" lon="-1.70655">
        <ele>124.027756</ele>
        <time>2012-01-09T10:24:28Z</time>
      </trkpt>
      <trkpt lat="47.31628" lon="-1.70627">
        <ele>124.00878</ele>
        <time>2012-01-09T10:24:32Z</time>
      </trkpt>
      <trkpt lat="47.31632" lon="-1.70595">
        <ele>124.00208</ele>
        <time>2012-01-09T10:24:37Z</time>
      </trkpt>
      <trkpt lat="47.31637" lon="-1.70569">
        <ele>124.000656</ele>
        <time>2012-01-09T10:24:41Z</time>
      </trkpt>
      <trkpt lat="47.31641" lon="-1.70541">
        <ele>124.4338</ele>
        <time>2012-01-09T10:24:45Z</time>
      </trkpt>
      <trkpt lat="47.31645" lon="-1.70516">
        <ele>124.13726</ele>
        <time>2012-01-09T10:24:49Z</time>
      </trkpt>
      <trkpt lat="47.31651" lon="-1.70488">
        <ele>125.16452</ele>
        <time>2012-01-09T10:24:53Z</time>
      </trkpt>
      <trkpt lat="47.31656" lon="-1.7046">
        <ele>126.17315</ele>
        <time>2012-01-09T10:24:57Z</time>
      </trkpt>
      <trkpt lat="47.31661" lon="-1.7043">
        <ele>126.73838</ele>
        <time>2012-01-09T10:25:01Z</time>
      </trkpt>
      <trkpt lat="47.31666" lon="-1.704">
        <ele>126.91722</ele>
        <time>2012-01-09T10:25:05Z</time>
      </trkpt>
      <trkpt lat="47.3167" lon="-1.7037">
        <ele>126.97381</ele>
        <time>2012-01-09T10:25:09Z</time>
      </trkpt>
      <trkpt lat="47.31673" lon="-1.70342">
        <ele>128</ele>
        <time>2012-01-09T10:25:13Z</time>
      </trkpt>
      <trkpt lat="47.31678" lon="-1.7031">
        <ele>127.3125</ele>
        <time>2012-01-09T10:25:17Z</time>
      </trkpt>
      <trkpt lat="47.31688" lon="-1.70284">
        <ele>125.62787</ele>
        <time>2012-01-09T10:25:22Z</time>
      </trkpt>
      <trkpt lat="47.317" lon="-1.70307">
        <ele>125.06286</ele>
        <time>2012-01-09T10:25:30Z</time>
      </trkpt>
      <trkpt lat="47.31704" lon="-1.70333">
        <ele>124.441765</ele>
        <time>2012-01-09T10:25:34Z</time>
      </trkpt>
      <trkpt lat="47.3171" lon="-1.70361">
        <ele>123.456184</ele>
        <time>2012-01-09T10:25:38Z</time>
      </trkpt>
      <trkpt lat="47.31715" lon="-1.70389">
        <ele>122.46075</ele>
        <time>2012-01-09T10:25:42Z</time>
      </trkpt>
      <trkpt lat="47.31721" lon="-1.70417">
        <ele>121.56766</ele>
        <time>2012-01-09T10:25:46Z</time>
      </trkpt>
      <trkpt lat="47.31728" lon="-1.70447">
        <ele>121.32024</ele>
        <time>2012-01-09T10:25:50Z</time>
      </trkpt>
      <trkpt lat="47.31735" lon="-1.70479">
        <ele>121.101326</ele>
        <time>2012-01-09T10:25:54Z</time>
      </trkpt>
      <trkpt lat="47.31742" lon="-1.70507">
        <ele>121.03206</ele>
        <time>2012-01-09T10:25:58Z</time>
      </trkpt>
      <trkpt lat="47.31748" lon="-1.70535">
        <ele>121.44765</ele>
        <time>2012-01-09T10:26:02Z</time>
      </trkpt>
      <trkpt lat="47.31758" lon="-1.70563">
        <ele>121.86893</ele>
        <time>2012-01-09T10:26:07Z</time>
      </trkpt>
      <trkpt lat="47.31768" lon="-1.70586">
        <ele>120.69681</ele>
        <time>2012-01-09T10:26:11Z</time>
      </trkpt>
      <trkpt lat="47.31778" lon="-1.70612">
        <ele>120.124016</ele>
        <time>2012-01-09T10:26:17Z</time>
      </trkpt>
      <trkpt lat="47.31798" lon="-1.70597">
        <ele>119.59193</ele>
        <time>2012-01-09T10:26:22Z</time>
      </trkpt>
      <trkpt lat="47.31815" lon="-1.70584">
        <ele>119.187294</ele>
        <time>2012-01-09T10:26:26Z</time>
      </trkpt>
      <trkpt lat="47.3183" lon="-1.70569">
        <ele>119.05926</ele>
        <time>2012-01-09T10:26:30Z</time>
      </trkpt>
      <trkpt lat="47.31847" lon="-1.70554">
        <ele>118.435936</ele>
        <time>2012-01-09T10:26:35Z</time>
      </trkpt>
      <trkpt lat="47.31866" lon="-1.70537">
        <ele>118</ele>
        <time>2012-01-09T10:26:41Z</time>
      </trkpt>
      <trkpt lat="47.31882" lon="-1.7052">
        <ele>118</ele>
        <time>2012-01-09T10:26:47Z</time>
      </trkpt>
      <trkpt lat="47.31899" lon="-1.70503">
        <ele>117.940674</ele>
        <time>2012-01-09T10:26:53Z</time>
      </trkpt>
      <trkpt lat="47.31915" lon="-1.70485">
        <ele>118</ele>
        <time>2012-01-09T10:26:59Z</time>
      </trkpt>
      <trkpt lat="47.31937" lon="-1.70462">
        <ele>118</ele>
        <time>2012-01-09T10:27:08Z</time>
      </trkpt>
      <trkpt lat="47.31954" lon="-1.70443">
        <ele>118</ele>
        <time>2012-01-09T10:27:13Z</time>
      </trkpt>
      <trkpt lat="47.31971" lon="-1.70423">
        <ele>118</ele>
        <time>2012-01-09T10:27:18Z</time>
      </trkpt>
      <trkpt lat="47.31986" lon="-1.70406">
        <ele>118.25</ele>
        <time>2012-01-09T10:27:22Z</time>
      </trkpt>
      <trkpt lat="47.32001" lon="-1.70391">
        <ele>118</ele>
        <time>2012-01-09T10:27:26Z</time>
      </trkpt>
      <trkpt lat="47.32019" lon="-1.70372">
        <ele>118</ele>
        <time>2012-01-09T10:27:30Z</time>
      </trkpt>
      <trkpt lat="47.32036" lon="-1.7035">
        <ele>118</ele>
        <time>2012-01-09T10:27:34Z</time>
      </trkpt>
      <trkpt lat="47.32052" lon="-1.70331">
        <ele>118</ele>
        <time>2012-01-09T10:27:38Z</time>
      </trkpt>
      <trkpt lat="47.32071" lon="-1.70312">
        <ele>118</ele>
        <time>2012-01-09T10:27:42Z</time>
      </trkpt>
      <trkpt lat="47.32089" lon="-1.70292">
        <ele>117.06641</ele>
        <time>2012-01-09T10:27:46Z</time>
      </trkpt>
      <trkpt lat="47.32105" lon="-1.70271">
        <ele>115.75929</ele>
        <time>2012-01-09T10:27:50Z</time>
      </trkpt>
      <trkpt lat="47.32124" lon="-1.70252">
        <ele>114.93018</ele>
        <time>2012-01-09T10:27:55Z</time>
      </trkpt>
      <trkpt lat="47.3214" lon="-1.70239">
        <ele>114.29432</ele>
        <time>2012-01-09T10:27:59Z</time>
      </trkpt>
      <trkpt lat="47.32157" lon="-1.70226">
        <ele>113.491714</ele>
        <time>2012-01-09T10:28:04Z</time>
      </trkpt>
      <trkpt lat="47.32174" lon="-1.70213">
        <ele>113.116684</ele>
        <time>2012-01-09T10:28:09Z</time>
      </trkpt>
      <trkpt lat="47.32191" lon="-1.702">
        <ele>113.02077</ele>
        <time>2012-01-09T10:28:15Z</time>
      </trkpt>
      <trkpt lat="47.32211" lon="-1.70194">
        <ele>113.00277</ele>
        <time>2012-01-09T10:28:22Z</time>
      </trkpt>
      <trkpt lat="47.32218" lon="-1.70222">
        <ele>113.000206</ele>
        <time>2012-01-09T10:28:31Z</time>
      </trkpt>
      <trkpt lat="47.32213" lon="-1.70252">
        <ele>113</ele>
        <time>2012-01-09T10:28:39Z</time>
      </trkpt>
      <trkpt lat="47.32208" lon="-1.70277">
        <ele>113</ele>
        <time>2012-01-09T10:28:47Z</time>
      </trkpt>
      <trkpt lat="47.32205" lon="-1.70305">
        <ele>113</ele>
        <time>2012-01-09T10:28:54Z</time>
      </trkpt>
      <trkpt lat="47.32205" lon="-1.70333">
        <ele>113</ele>
        <time>2012-01-09T10:29:00Z</time>
      </trkpt>
      <trkpt lat="47.32208" lon="-1.70365">
        <ele>113</ele>
        <time>2012-01-09T10:29:08Z</time>
      </trkpt>
      <trkpt lat="47.32217" lon="-1.70395">
        <ele>113</ele>
        <time>2012-01-09T10:29:16Z</time>
      </trkpt>
      <trkpt lat="47.32224" lon="-1.70425">
        <ele>113.25</ele>
        <time>2012-01-09T10:29:24Z</time>
      </trkpt>
      <trkpt lat="47.3223" lon="-1.70464">
        <ele>114</ele>
        <time>2012-01-09T10:29:36Z</time>
      </trkpt>
      <trkpt lat="47.32229" lon="-1.70496">
        <ele>114</ele>
        <time>2012-01-09T10:29:40Z</time>
      </trkpt>
      <trkpt lat="47.32237" lon="-1.70535">
        <ele>113.75</ele>
        <time>2012-01-09T10:29:47Z</time>
      </trkpt>
      <trkpt lat="47.32237" lon="-1.70563">
        <ele>113.68359</ele>
        <time>2012-01-09T10:29:53Z</time>
      </trkpt>
      <trkpt lat="47.3223" lon="-1.70588">
        <ele>114</ele>
        <time>2012-01-09T10:30:00Z</time>
      </trkpt>
      <trkpt lat="47.32222" lon="-1.70619">
        <ele>113.31641</ele>
        <time>2012-01-09T10:30:08Z</time>
      </trkpt>
      <trkpt lat="47.32231" lon="-1.70642">
        <ele>112.52199</ele>
        <time>2012-01-09T10:30:12Z</time>
      </trkpt>
      <trkpt lat="47.32254" lon="-1.70668">
        <ele>111.80226</ele>
        <time>2012-01-09T10:30:20Z</time>
      </trkpt>
      <trkpt lat="47.32254" lon="-1.70696">
        <ele>111.080315</ele>
        <time>2012-01-09T10:30:28Z</time>
      </trkpt>
      <trkpt lat="47.32247" lon="-1.70724">
        <ele>110.13688</ele>
        <time>2012-01-09T10:30:39Z</time>
      </trkpt>
      <trkpt lat="47.32248" lon="-1.70754">
        <ele>110.00433</ele>
        <time>2012-01-09T10:30:51Z</time>
      </trkpt>
      <trkpt lat="47.32256" lon="-1.70779">
        <ele>110.000244</ele>
        <time>2012-01-09T10:31:01Z</time>
      </trkpt>
      <trkpt lat="47.32267" lon="-1.70801">
        <ele>110.96833</ele>
        <time>2012-01-09T10:31:14Z</time>
      </trkpt>
      <trkpt lat="47.32278" lon="-1.70825">
        <ele>110.998215</ele>
        <time>2012-01-09T10:31:24Z</time>
      </trkpt>
      <trkpt lat="47.32283" lon="-1.70852">
        <ele>110.999825</ele>
        <time>2012-01-09T10:31:32Z</time>
      </trkpt>
      <trkpt lat="47.32293" lon="-1.70878">
        <ele>110.999985</ele>
        <time>2012-01-09T10:31:40Z</time>
      </trkpt>
      <trkpt lat="47.323" lon="-1.70904">
        <ele>111</ele>
        <time>2012-01-09T10:31:48Z</time>
      </trkpt>
      <trkpt lat="47.32303" lon="-1.70932">
        <ele>111.866516</ele>
        <time>2012-01-09T10:31:56Z</time>
      </trkpt>
      <trkpt lat="47.32304" lon="-1.70962">
        <ele>111.989975</ele>
        <time>2012-01-09T10:32:05Z</time>
      </trkpt>
      <trkpt lat="47.32307" lon="-1.7099">
        <ele>111.99899</ele>
        <time>2012-01-09T10:32:13Z</time>
      </trkpt>
      <trkpt lat="47.32311" lon="-1.71018">
        <ele>111.99986</ele>
        <time>2012-01-09T10:32:20Z</time>
      </trkpt>
      <trkpt lat="47.32322" lon="-1.71039">
        <ele>111.999985</ele>
        <time>2012-01-09T10:32:28Z</time>
      </trkpt>
      <trkpt lat="47.32342" lon="-1.71035">
        <ele>112</ele>
        <time>2012-01-09T10:32:34Z</time>
      </trkpt>
      <trkpt lat="47.32361" lon="-1.7102">
        <ele>112</ele>
        <time>2012-01-09T10:32:39Z</time>
      </trkpt>
      <trkpt lat="47.32378" lon="-1.71011">
        <ele>112.25</ele>
        <time>2012-01-09T10:32:44Z</time>
      </trkpt>
      <trkpt lat="47.32397" lon="-1.71005">
        <ele>112.866516</ele>
        <time>2012-01-09T10:32:50Z</time>
      </trkpt>
      <trkpt lat="47.32418" lon="-1.71">
        <ele>113.65192</ele>
        <time>2012-01-09T10:32:55Z</time>
      </trkpt>
      <trkpt lat="47.32438" lon="-1.71">
        <ele>113.2338</ele>
        <time>2012-01-09T10:33:00Z</time>
      </trkpt>
      <trkpt lat="47.3246" lon="-1.70996">
        <ele>113.05548</ele>
        <time>2012-01-09T10:33:05Z</time>
      </trkpt>
      <trkpt lat="47.32472" lon="-1.70975">
        <ele>113.01317</ele>
        <time>2012-01-09T10:33:10Z</time>
      </trkpt>
      <trkpt lat="47.32481" lon="-1.70947">
        <ele>112.5625</ele>
        <time>2012-01-09T10:33:15Z</time>
      </trkpt>
      <trkpt lat="47.3249" lon="-1.70917">
        <ele>112.42407</ele>
        <time>2012-01-09T10:33:19Z</time>
      </trkpt>
      <trkpt lat="47.32499" lon="-1.70887">
        <ele>112.38418</ele>
        <time>2012-01-09T10:33:23Z</time>
      </trkpt>
      <trkpt lat="47.32519" lon="-1.70882">
        <ele>112.03846</ele>
        <time>2012-01-09T10:33:31Z</time>
      </trkpt>
      <trkpt lat="47.32536" lon="-1.70891">
        <ele>111.321625</ele>
        <time>2012-01-09T10:33:36Z</time>
      </trkpt>
      <trkpt lat="47.32561" lon="-1.709">
        <ele>108.96984</ele>
        <time>2012-01-09T10:33:48Z</time>
      </trkpt>
      <trkpt lat="47.32586" lon="-1.70904">
        <ele>107.17821</ele>
        <time>2012-01-09T10:34:17Z</time>
      </trkpt>
      <trkpt lat="47.32607" lon="-1.7091">
        <ele>105.421196</ele>
        <time>2012-01-09T10:34:22Z</time>
      </trkpt>
      <trkpt lat="47.32625" lon="-1.70917">
        <ele>102.504364</ele>
        <time>2012-01-09T10:34:26Z</time>
      </trkpt>
      <trkpt lat="47.32645" lon="-1.70915">
        <ele>100.7924</ele>
        <time>2012-01-09T10:34:30Z</time>
      </trkpt>
      <trkpt lat="47.32661" lon="-1.709">
        <ele>99.89679</ele>
        <time>2012-01-09T10:34:33Z</time>
      </trkpt>
      <trkpt lat="47.32676" lon="-1.70874">
        <ele>99.378334</ele>
        <time>2012-01-09T10:34:36Z</time>
      </trkpt>
      <trkpt lat="47.3269" lon="-1.70846">
        <ele>98.58148</ele>
        <time>2012-01-09T10:34:39Z</time>
      </trkpt>
      <trkpt lat="47.32703" lon="-1.70814">
        <ele>98.495316</ele>
        <time>2012-01-09T10:34:42Z</time>
      </trkpt>
      <trkpt lat="47.32717" lon="-1.70786">
        <ele>98.09959</ele>
        <time>2012-01-09T10:34:45Z</time>
      </trkpt>
      <trkpt lat="47.32733" lon="-1.70771">
        <ele>96.77639</ele>
        <time>2012-01-09T10:34:48Z</time>
      </trkpt>
      <trkpt lat="47.32751" lon="-1.70777">
        <ele>94.44096</ele>
        <time>2012-01-09T10:34:52Z</time>
      </trkpt>
      <trkpt lat="47.32771" lon="-1.70786">
        <ele>92</ele>
        <time>2012-01-09T10:35:49Z</time>
      </trkpt>
      <trkpt lat="47.32777" lon="-1.70816">
        <ele>91.133484</ele>
        <time>2012-01-09T10:36:07Z</time>
      </trkpt>
      <trkpt lat="47.32779" lon="-1.70844">
        <ele>90.760025</ele>
        <time>2012-01-09T10:36:16Z</time>
      </trkpt>
      <trkpt lat="47.32794" lon="-1.70863">
        <ele>90.10145</ele>
        <time>2012-01-09T10:36:23Z</time>
      </trkpt>
      <trkpt lat="47.32815" lon="-1.70874">
        <ele>89.25085</ele>
        <time>2012-01-09T10:36:30Z</time>
      </trkpt>
      <trkpt lat="47.32834" lon="-1.70878">
        <ele>88.775116</ele>
        <time>2012-01-09T10:36:38Z</time>
      </trkpt>
      <trkpt lat="47.32854" lon="-1.70878">
        <ele>86.91622</ele>
        <time>2012-01-09T10:36:49Z</time>
      </trkpt>
      <trkpt lat="47.32879" lon="-1.7088">
        <ele>85.276</ele>
        <time>2012-01-09T10:37:00Z</time>
      </trkpt>
      <trkpt lat="47.32898" lon="-1.70893">
        <ele>85.02763</ele>
        <time>2012-01-09T10:37:08Z</time>
      </trkpt>
      <trkpt lat="47.32923" lon="-1.70902">
        <ele>85.25492</ele>
        <time>2012-01-09T10:37:14Z</time>
      </trkpt>
      <trkpt lat="47.32942" lon="-1.70908">
        <ele>86.15054</ele>
        <time>2012-01-09T10:37:21Z</time>
      </trkpt>
      <trkpt lat="47.32962" lon="-1.70915">
        <ele>86.95216</ele>
        <time>2012-01-09T10:37:31Z</time>
      </trkpt>
      <trkpt lat="47.3298" lon="-1.70919">
        <ele>86.99641</ele>
        <time>2012-01-09T10:37:40Z</time>
      </trkpt>
      <trkpt lat="47.32976" lon="-1.70893">
        <ele>87.57812</ele>
        <time>2012-01-09T10:38:03Z</time>
      </trkpt>
      <trkpt lat="47.3296" lon="-1.70876">
        <ele>88.40582</ele>
        <time>2012-01-09T10:38:12Z</time>
      </trkpt>
      <trkpt lat="47.32947" lon="-1.70855">
        <ele>89.6585</ele>
        <time>2012-01-09T10:38:23Z</time>
      </trkpt>
      <trkpt lat="47.32949" lon="-1.70827">
        <ele>90.81391</ele>
        <time>2012-01-09T10:38:36Z</time>
      </trkpt>
      <trkpt lat="47.32951" lon="-1.70799">
        <ele>90.99214</ele>
        <time>2012-01-09T10:38:47Z</time>
      </trkpt>
      <trkpt lat="47.32952" lon="-1.70771">
        <ele>91.89989</ele>
        <time>2012-01-09T10:38:59Z</time>
      </trkpt>
      <trkpt lat="47.32952" lon="-1.70743">
        <ele>93</ele>
        <time>2012-01-09T10:39:09Z</time>
      </trkpt>
      <trkpt lat="47.32949" lon="-1.70715">
        <ele>93.762695</ele>
        <time>2012-01-09T10:39:17Z</time>
      </trkpt>
      <trkpt lat="47.32947" lon="-1.70685">
        <ele>94.808655</ele>
        <time>2012-01-09T10:39:27Z</time>
      </trkpt>
      <trkpt lat="47.32933" lon="-1.70666">
        <ele>94.98084</ele>
        <time>2012-01-09T10:39:35Z</time>
      </trkpt>
      <trkpt lat="47.32925" lon="-1.7064">
        <ele>94.998085</ele>
        <time>2012-01-09T10:39:43Z</time>
      </trkpt>
      <trkpt lat="47.32925" lon="-1.70612">
        <ele>94.237045</ele>
        <time>2012-01-09T10:39:50Z</time>
      </trkpt>
      <trkpt lat="47.32918" lon="-1.7058">
        <ele>95</ele>
        <time>2012-01-09T10:40:00Z</time>
      </trkpt>
      <trkpt lat="47.32909" lon="-1.70556">
        <ele>95.762695</ele>
        <time>2012-01-09T10:40:07Z</time>
      </trkpt>
      <trkpt lat="47.32899" lon="-1.70531">
        <ele>97.27234</ele>
        <time>2012-01-09T10:40:14Z</time>
      </trkpt>
      <trkpt lat="47.32894" lon="-1.70503">
        <ele>99.16239</ele>
        <time>2012-01-09T10:40:21Z</time>
      </trkpt>
      <trkpt lat="47.32892" lon="-1.70475">
        <ele>99.85092</ele>
        <time>2012-01-09T10:40:27Z</time>
      </trkpt>
      <trkpt lat="47.3289" lon="-1.70447">
        <ele>99.21741</ele>
        <time>2012-01-09T10:40:34Z</time>
      </trkpt>
      <trkpt lat="47.32882" lon="-1.70421">
        <ele>99.02902</ele>
        <time>2012-01-09T10:40:41Z</time>
      </trkpt>
      <trkpt lat="47.32868" lon="-1.70402">
        <ele>98.75218</ele>
        <time>2012-01-09T10:40:50Z</time>
      </trkpt>
      <trkpt lat="47.32862" lon="-1.70376">
        <ele>97.478355</ele>
        <time>2012-01-09T10:40:59Z</time>
      </trkpt>
      <trkpt lat="47.32865" lon="-1.70299">
        <ele>92</ele>
        <time>2012-01-09T10:41:24Z</time>
      </trkpt>
      <trkpt lat="47.32852" lon="-1.70228">
        <ele>90</ele>
        <time>2012-01-09T10:41:45Z</time>
      </trkpt>
      <trkpt lat="47.32839" lon="-1.70207">
        <ele>89.8125</ele>
        <time>2012-01-09T10:41:50Z</time>
      </trkpt>
      <trkpt lat="47.32825" lon="-1.70187">
        <ele>90.74902</ele>
        <time>2012-01-09T10:41:53Z</time>
      </trkpt>
      <trkpt lat="47.32801" lon="-1.70161">
        <ele>92.86981</ele>
        <time>2012-01-09T10:41:57Z</time>
      </trkpt>
      <trkpt lat="47.32787" lon="-1.70134">
        <ele>94.7635</ele>
        <time>2012-01-09T10:42:01Z</time>
      </trkpt>
      <trkpt lat="47.32782" lon="-1.70108">
        <ele>95.608765</ele>
        <time>2012-01-09T10:42:05Z</time>
      </trkpt>
      <trkpt lat="47.32777" lon="-1.70082">
        <ele>95.93037</ele>
        <time>2012-01-09T10:42:11Z</time>
      </trkpt>
      <trkpt lat="47.32769" lon="-1.70054">
        <ele>95.99071</ele>
        <time>2012-01-09T10:42:18Z</time>
      </trkpt>
      <trkpt lat="47.32761" lon="-1.70028">
        <ele>95.748344</ele>
        <time>2012-01-09T10:42:24Z</time>
      </trkpt>
      <trkpt lat="47.32748" lon="-1.70005">
        <ele>94.84989</ele>
        <time>2012-01-09T10:42:31Z</time>
      </trkpt>
      <trkpt lat="47.3273" lon="-1.70011">
        <ele>93.06641</ele>
        <time>2012-01-09T10:43:24Z</time>
      </trkpt>
      <trkpt lat="47.32713" lon="-1.7002">
        <ele>91.81557</ele>
        <time>2012-01-09T10:43:29Z</time>
      </trkpt>
      <trkpt lat="47.32695" lon="-1.70024">
        <ele>90.068535</ele>
        <time>2012-01-09T10:43:34Z</time>
      </trkpt>
      <trkpt lat="47.32675" lon="-1.70026">
        <ele>86.607086</ele>
        <time>2012-01-09T10:43:39Z</time>
      </trkpt>
      <trkpt lat="47.32656" lon="-1.70026">
        <ele>84.26028</ele>
        <time>2012-01-09T10:43:44Z</time>
      </trkpt>
      <trkpt lat="47.32634" lon="-1.70028">
        <ele>82.72095</ele>
        <time>2012-01-09T10:43:49Z</time>
      </trkpt>
      <trkpt lat="47.32615" lon="-1.70028">
        <ele>82.17108</ele>
        <time>2012-01-09T10:43:54Z</time>
      </trkpt>
      <trkpt lat="47.32595" lon="-1.70031">
        <ele>82.03045</ele>
        <time>2012-01-09T10:44:00Z</time>
      </trkpt>
      <trkpt lat="47.32576" lon="-1.70031">
        <ele>83</ele>
        <time>2012-01-09T10:44:06Z</time>
      </trkpt>
      <trkpt lat="47.32558" lon="-1.70033">
        <ele>83</ele>
        <time>2012-01-09T10:44:12Z</time>
      </trkpt>
      <trkpt lat="47.3254" lon="-1.70031">
        <ele>83</ele>
        <time>2012-01-09T10:44:18Z</time>
      </trkpt>
      <trkpt lat="47.32541" lon="-1.70001">
        <ele>83.95776</ele>
        <time>2012-01-09T10:44:29Z</time>
      </trkpt>
      <trkpt lat="47.32543" lon="-1.69973">
        <ele>83.992485</ele>
        <time>2012-01-09T10:44:35Z</time>
      </trkpt>
      <trkpt lat="47.32544" lon="-1.69945">
        <ele>83.998665</ele>
        <time>2012-01-09T10:44:41Z</time>
      </trkpt>
      <trkpt lat="47.32549" lon="-1.6991">
        <ele>83.75</ele>
        <time>2012-01-09T10:44:48Z</time>
      </trkpt>
      <trkpt lat="47.32552" lon="-1.69874">
        <ele>81</ele>
        <time>2012-01-09T10:44:59Z</time>
      </trkpt>
      <trkpt lat="47.32556" lon="-1.69846">
        <ele>81.4375</ele>
        <time>2012-01-09T10:45:04Z</time>
      </trkpt>
      <trkpt lat="47.32574" lon="-1.69837">
        <ele>82.88986</ele>
        <time>2012-01-09T10:45:18Z</time>
      </trkpt>
      <trkpt lat="47.32594" lon="-1.69844">
        <ele>83.75649</ele>
        <time>2012-01-09T10:45:28Z</time>
      </trkpt>
      <trkpt lat="47.32611" lon="-1.69852">
        <ele>83.975624</ele>
        <time>2012-01-09T10:45:36Z</time>
      </trkpt>
      <trkpt lat="47.32632" lon="-1.6985">
        <ele>83.99422</ele>
        <time>2012-01-09T10:45:41Z</time>
      </trkpt>
      <trkpt lat="47.32653" lon="-1.69844">
        <ele>84.24817</ele>
        <time>2012-01-09T10:45:45Z</time>
      </trkpt>
      <trkpt lat="47.32671" lon="-1.69835">
        <ele>84.82159</ele>
        <time>2012-01-09T10:45:50Z</time>
      </trkpt>
      <trkpt lat="47.32688" lon="-1.69825">
        <ele>84.96825</ele>
        <time>2012-01-09T10:45:56Z</time>
      </trkpt>
      <trkpt lat="47.32705" lon="-1.69807">
        <ele>86.25</ele>
        <time>2012-01-09T10:46:21Z</time>
      </trkpt>
      <trkpt lat="47.32712" lon="-1.69782">
        <ele>86.89989</ele>
        <time>2012-01-09T10:46:28Z</time>
      </trkpt>
      <trkpt lat="47.32716" lon="-1.69754">
        <ele>86.98663</ele>
        <time>2012-01-09T10:46:35Z</time>
      </trkpt>
      <trkpt lat="47.3272" lon="-1.69726">
        <ele>86.748665</ele>
        <time>2012-01-09T10:46:43Z</time>
      </trkpt>
      <trkpt lat="47.32725" lon="-1.69696">
        <ele>85.312256</ele>
        <time>2012-01-09T10:46:51Z</time>
      </trkpt>
      <trkpt lat="47.32731" lon="-1.6967">
        <ele>85.04168</ele>
        <time>2012-01-09T10:46:58Z</time>
      </trkpt>
      <trkpt lat="47.32734" lon="-1.69642">
        <ele>84.24043</ele>
        <time>2012-01-09T10:47:07Z</time>
      </trkpt>
      <trkpt lat="47.32733" lon="-1.69614">
        <ele>84.0321</ele>
        <time>2012-01-09T10:47:14Z</time>
      </trkpt>
      <trkpt lat="47.32731" lon="-1.69586">
        <ele>83.31882</ele>
        <time>2012-01-09T10:47:23Z</time>
      </trkpt>
      <trkpt lat="47.32731" lon="-1.69556">
        <ele>83.46144</ele>
        <time>2012-01-09T10:47:32Z</time>
      </trkpt>
      <trkpt lat="47.3273" lon="-1.69528">
        <ele>84.17811</ele>
        <time>2012-01-09T10:47:39Z</time>
      </trkpt>
      <trkpt lat="47.32729" lon="-1.69498">
        <ele>85.787315</ele>
        <time>2012-01-09T10:47:45Z</time>
      </trkpt>
      <trkpt lat="47.32732" lon="-1.69441">
        <ele>92</ele>
        <time>2012-01-09T10:47:55Z</time>
      </trkpt>
      <trkpt lat="47.3273" lon="-1.69413">
        <ele>92</ele>
        <time>2012-01-09T10:48:02Z</time>
      </trkpt>
      <trkpt lat="47.32728" lon="-1.69383">
        <ele>92.762695</ele>
        <time>2012-01-09T10:48:09Z</time>
      </trkpt>
      <trkpt lat="47.32727" lon="-1.6935">
        <ele>93.40582</ele>
        <time>2012-01-09T10:48:16Z</time>
      </trkpt>
      <trkpt lat="47.32727" lon="-1.69322">
        <ele>94.37801</ele>
        <time>2012-01-09T10:48:24Z</time>
      </trkpt>
      <trkpt lat="47.32718" lon="-1.69297">
        <ele>95.92967</ele>
        <time>2012-01-09T10:48:31Z</time>
      </trkpt>
      <trkpt lat="47.3271" lon="-1.69273">
        <ele>96.8095</ele>
        <time>2012-01-09T10:48:37Z</time>
      </trkpt>
      <trkpt lat="47.32704" lon="-1.69245">
        <ele>96.97457</ele>
        <time>2012-01-09T10:48:44Z</time>
      </trkpt>
      <trkpt lat="47.32701" lon="-1.69217">
        <ele>96.99745</ele>
        <time>2012-01-09T10:48:52Z</time>
      </trkpt>
      <trkpt lat="47.32699" lon="-1.6917">
        <ele>96</ele>
        <time>2012-01-09T10:49:03Z</time>
      </trkpt>
      <trkpt lat="47.32697" lon="-1.69142">
        <ele>95.237305</ele>
        <time>2012-01-09T10:49:08Z</time>
      </trkpt>
      <trkpt lat="47.32688" lon="-1.6911">
        <ele>94.85011</ele>
        <time>2012-01-09T10:49:11Z</time>
      </trkpt>
      <trkpt lat="47.32679" lon="-1.69082">
        <ele>94.60864</ele>
        <time>2012-01-09T10:49:14Z</time>
      </trkpt>
      <trkpt lat="47.32675" lon="-1.69056">
        <ele>96.53802</ele>
        <time>2012-01-09T10:49:17Z</time>
      </trkpt>
      <trkpt lat="47.32672" lon="-1.69026">
        <ele>97.96135</ele>
        <time>2012-01-09T10:49:20Z</time>
      </trkpt>
      <trkpt lat="47.32669" lon="-1.68996">
        <ele>97.733696</ele>
        <time>2012-01-09T10:49:23Z</time>
      </trkpt>
      <trkpt lat="47.32667" lon="-1.68966">
        <ele>96.4814</ele>
        <time>2012-01-09T10:49:26Z</time>
      </trkpt>
      <trkpt lat="47.32662" lon="-1.68936">
        <ele>94.796844</ele>
        <time>2012-01-09T10:49:29Z</time>
      </trkpt>
      <trkpt lat="47.32655" lon="-1.68908">
        <ele>93.32054</ele>
        <time>2012-01-09T10:49:32Z</time>
      </trkpt>
      <trkpt lat="47.32643" lon="-1.68883">
        <ele>91.73424</ele>
        <time>2012-01-09T10:49:36Z</time>
      </trkpt>
      <trkpt lat="47.32623" lon="-1.6888">
        <ele>90.55255</ele>
        <time>2012-01-09T10:49:42Z</time>
      </trkpt>
      <trkpt lat="47.32607" lon="-1.68895">
        <ele>90.13113</ele>
        <time>2012-01-09T10:49:47Z</time>
      </trkpt>
      <trkpt lat="47.32594" lon="-1.68917">
        <ele>89.32954</ele>
        <time>2012-01-09T10:49:55Z</time>
      </trkpt>
      <trkpt lat="47.32596" lon="-1.68885">
        <ele>88.08032</ele>
        <time>2012-01-09T10:50:06Z</time>
      </trkpt>
      <trkpt lat="47.32589" lon="-1.68857">
        <ele>86.42958</ele>
        <time>2012-01-09T10:50:12Z</time>
      </trkpt>
      <trkpt lat="47.32584" lon="-1.68831">
        <ele>86.076454</ele>
        <time>2012-01-09T10:50:18Z</time>
      </trkpt>
      <trkpt lat="47.32571" lon="-1.6881">
        <ele>85.19159</ele>
        <time>2012-01-09T10:50:24Z</time>
      </trkpt>
      <trkpt lat="47.32555" lon="-1.68795">
        <ele>84.2714</ele>
        <time>2012-01-09T10:50:30Z</time>
      </trkpt>
      <trkpt lat="47.32538" lon="-1.68784">
        <ele>82.97628</ele>
        <time>2012-01-09T10:50:36Z</time>
      </trkpt>
      <trkpt lat="47.3252" lon="-1.68775">
        <ele>81.73626</ele>
        <time>2012-01-09T10:50:42Z</time>
      </trkpt>
      <trkpt lat="47.32501" lon="-1.68765">
        <ele>80.596596</ele>
        <time>2012-01-09T10:50:47Z</time>
      </trkpt>
      <trkpt lat="47.32483" lon="-1.6876">
        <ele>78.941376</ele>
        <time>2012-01-09T10:50:52Z</time>
      </trkpt>
      <trkpt lat="47.32465" lon="-1.68754">
        <ele>77.40485</ele>
        <time>2012-01-09T10:50:58Z</time>
      </trkpt>
      <trkpt lat="47.32445" lon="-1.68745">
        <ele>76.25003</ele>
        <time>2012-01-09T10:51:04Z</time>
      </trkpt>
      <trkpt lat="47.32419" lon="-1.68743">
        <ele>76.88529</ele>
        <time>2012-01-09T10:51:13Z</time>
      </trkpt>
      <trkpt lat="47.32398" lon="-1.68735">
        <ele>77.66828</ele>
        <time>2012-01-09T10:51:20Z</time>
      </trkpt>
      <trkpt lat="47.32379" lon="-1.68722">
        <ele>77.95572</ele>
        <time>2012-01-09T10:51:27Z</time>
      </trkpt>
      <trkpt lat="47.32363" lon="-1.68709">
        <ele>77.99212</ele>
        <time>2012-01-09T10:51:33Z</time>
      </trkpt>
      <trkpt lat="47.32345" lon="-1.68694">
        <ele>77.99895</ele>
        <time>2012-01-09T10:51:40Z</time>
      </trkpt>
      <trkpt lat="47.32329" lon="-1.68674">
        <ele>78.89981</ele>
        <time>2012-01-09T10:51:49Z</time>
      </trkpt>
      <trkpt lat="47.32315" lon="-1.68655">
        <ele>79.424126</ele>
        <time>2012-01-09T10:51:56Z</time>
      </trkpt>
      <trkpt lat="47.32296" lon="-1.68629">
        <ele>80.848274</ele>
        <time>2012-01-09T10:52:08Z</time>
      </trkpt>
      <trkpt lat="47.32288" lon="-1.68606">
        <ele>81.6684</ele>
        <time>2012-01-09T10:52:16Z</time>
      </trkpt>
      <trkpt lat="47.32284" lon="-1.68578">
        <ele>82</ele>
        <time>2012-01-09T10:52:24Z</time>
      </trkpt>
      <trkpt lat="47.32281" lon="-1.6855">
        <ele>82.25</ele>
        <time>2012-01-09T10:52:30Z</time>
      </trkpt>
      <trkpt lat="47.32275" lon="-1.68524">
        <ele>83.55011</ele>
        <time>2012-01-09T10:52:36Z</time>
      </trkpt>
      <trkpt lat="47.32263" lon="-1.68501">
        <ele>83.70496</ele>
        <time>2012-01-09T10:52:44Z</time>
      </trkpt>
      <trkpt lat="47.32249" lon="-1.68479">
        <ele>83</ele>
        <time>2012-01-09T10:52:54Z</time>
      </trkpt>
      <trkpt lat="47.32235" lon="-1.68456">
        <ele>81.987305</ele>
        <time>2012-01-09T10:53:03Z</time>
      </trkpt>
      <trkpt lat="47.32222" lon="-1.68434">
        <ele>79.75802</ele>
        <time>2012-01-09T10:53:11Z</time>
      </trkpt>
      <trkpt lat="47.32203" lon="-1.68426">
        <ele>78.75413</ele>
        <time>2012-01-09T10:53:19Z</time>
      </trkpt>
      <trkpt lat="47.32185" lon="-1.68428">
        <ele>80.28555</ele>
        <time>2012-01-09T10:53:28Z</time>
      </trkpt>
      <trkpt lat="47.32167" lon="-1.68428">
        <ele>82.45538</ele>
        <time>2012-01-09T10:53:40Z</time>
      </trkpt>
      <trkpt lat="47.32152" lon="-1.68443">
        <ele>84.68359</ele>
        <time>2012-01-09T10:53:53Z</time>
      </trkpt>
      <trkpt lat="47.32137" lon="-1.68462">
        <ele>87.27462</ele>
        <time>2012-01-09T10:54:07Z</time>
      </trkpt>
      <trkpt lat="47.32126" lon="-1.68483">
        <ele>89</ele>
        <time>2012-01-09T10:57:08Z</time>
      </trkpt>
      <trkpt lat="47.32123" lon="-1.68511">
        <ele>90.67608</ele>
        <time>2012-01-09T10:57:27Z</time>
      </trkpt>
      <trkpt lat="47.32122" lon="-1.68539">
        <ele>93.30786</ele>
        <time>2012-01-09T10:57:41Z</time>
      </trkpt>
      <trkpt lat="47.32122" lon="-1.68567">
        <ele>94.78304</ele>
        <time>2012-01-09T10:57:51Z</time>
      </trkpt>
      <trkpt lat="47.32129" lon="-1.68593">
        <ele>97.12098</ele>
        <time>2012-01-09T10:58:04Z</time>
      </trkpt>
      <trkpt lat="47.32134" lon="-1.68619">
        <ele>98.7849</ele>
        <time>2012-01-09T10:58:15Z</time>
      </trkpt>
      <trkpt lat="47.32143" lon="-1.68644">
        <ele>98.987885</ele>
        <time>2012-01-09T10:58:25Z</time>
      </trkpt>
      <trkpt lat="47.3216" lon="-1.68636">
        <ele>98.42178</ele>
        <time>2012-01-09T10:58:42Z</time>
      </trkpt>
      <trkpt lat="47.32173" lon="-1.68614">
        <ele>98.69111</ele>
        <time>2012-01-09T10:58:56Z</time>
      </trkpt>
      <trkpt lat="47.32161" lon="-1.68636">
        <ele>100.67023</ele>
        <time>2012-01-09T10:59:44Z</time>
      </trkpt>
      <trkpt lat="47.32146" lon="-1.68619">
        <ele>103.40206</ele>
        <time>2012-01-09T11:00:06Z</time>
      </trkpt>
      <trkpt lat="47.32131" lon="-1.68604">
        <ele>104.9866</ele>
        <time>2012-01-09T11:00:24Z</time>
      </trkpt>
      <trkpt lat="47.32114" lon="-1.68614">
        <ele>104.86369</ele>
        <time>2012-01-09T11:00:35Z</time>
      </trkpt>
      <trkpt lat="47.32105" lon="-1.68638">
        <ele>104.99568</ele>
        <time>2012-01-09T11:00:47Z</time>
      </trkpt>
      <trkpt lat="47.321" lon="-1.68664">
        <ele>105.9821</ele>
        <time>2012-01-09T11:01:01Z</time>
      </trkpt>
      <trkpt lat="47.32105" lon="-1.68689">
        <ele>105.17697</ele>
        <time>2012-01-09T11:01:11Z</time>
      </trkpt>
      <trkpt lat="47.32111" lon="-1.68715">
        <ele>105</ele>
        <time>2012-01-09T11:01:23Z</time>
      </trkpt>
      <trkpt lat="47.32113" lon="-1.68745">
        <ele>106.36241</ele>
        <time>2012-01-09T11:01:33Z</time>
      </trkpt>
      <trkpt lat="47.32116" lon="-1.68773">
        <ele>106.98864</ele>
        <time>2012-01-09T11:01:47Z</time>
      </trkpt>
      <trkpt lat="47.32125" lon="-1.68799">
        <ele>106.999886</ele>
        <time>2012-01-09T11:02:03Z</time>
      </trkpt>
      <trkpt lat="47.32128" lon="-1.68835">
        <ele>105</ele>
        <time>2012-01-09T11:02:18Z</time>
      </trkpt>
      <trkpt lat="47.32124" lon="-1.68861">
        <ele>104.5625</ele>
        <time>2012-01-09T11:02:27Z</time>
      </trkpt>
      <trkpt lat="47.32111" lon="-1.68883">
        <ele>104.05631</ele>
        <time>2012-01-09T11:02:35Z</time>
      </trkpt>
      <trkpt lat="47.32095" lon="-1.68895">
        <ele>105.3064</ele>
        <time>2012-01-09T11:02:46Z</time>
      </trkpt>
      <trkpt lat="47.32077" lon="-1.68898">
        <ele>107.60531</ele>
        <time>2012-01-09T11:02:58Z</time>
      </trkpt>
      <trkpt lat="47.3206" lon="-1.68911">
        <ele>109.27438</ele>
        <time>2012-01-09T11:03:07Z</time>
      </trkpt>
      <trkpt lat="47.32043" lon="-1.68919">
        <ele>111.48006</ele>
        <time>2012-01-09T11:03:19Z</time>
      </trkpt>
      <trkpt lat="47.32025" lon="-1.68923">
        <ele>113.5542</ele>
        <time>2012-01-09T11:03:29Z</time>
      </trkpt>
      <trkpt lat="47.32005" lon="-1.68926">
        <ele>115.583405</ele>
        <time>2012-01-09T11:03:39Z</time>
      </trkpt>
      <trkpt lat="47.31986" lon="-1.68926">
        <ele>116.60945</ele>
        <time>2012-01-09T11:03:45Z</time>
      </trkpt>
      <trkpt lat="47.31967" lon="-1.68923">
        <ele>118.448685</ele>
        <time>2012-01-09T11:03:54Z</time>
      </trkpt>
      <trkpt lat="47.31962" lon="-1.68895">
        <ele>120.08547</ele>
        <time>2012-01-09T11:04:04Z</time>
      </trkpt>
      <trkpt lat="47.31964" lon="-1.68868">
        <ele>121.087234</ele>
        <time>2012-01-09T11:04:10Z</time>
      </trkpt>
      <trkpt lat="47.31968" lon="-1.6884">
        <ele>122.08755</ele>
        <time>2012-01-09T11:04:16Z</time>
      </trkpt>
      <trkpt lat="47.31969" lon="-1.68812">
        <ele>122.878204</ele>
        <time>2012-01-09T11:04:23Z</time>
      </trkpt>
      <trkpt lat="47.31968" lon="-1.68767">
        <ele>120.75</ele>
        <time>2012-01-09T11:04:31Z</time>
      </trkpt>
      <trkpt lat="47.31964" lon="-1.68741">
        <ele>119.0625</ele>
        <time>2012-01-09T11:04:35Z</time>
      </trkpt>
      <trkpt lat="47.31959" lon="-1.68707">
        <ele>115.957275</ele>
        <time>2012-01-09T11:04:39Z</time>
      </trkpt>
      <trkpt lat="47.31954" lon="-1.68679">
        <ele>115.841354</ele>
        <time>2012-01-09T11:04:42Z</time>
      </trkpt>
      <trkpt lat="47.3195" lon="-1.68651">
        <ele>115.68307</ele>
        <time>2012-01-09T11:04:45Z</time>
      </trkpt>
      <trkpt lat="47.31947" lon="-1.68623">
        <ele>114.710045</ele>
        <time>2012-01-09T11:04:48Z</time>
      </trkpt>
      <trkpt lat="47.31943" lon="-1.68593">
        <ele>113.54107</ele>
        <time>2012-01-09T11:04:52Z</time>
      </trkpt>
      <trkpt lat="47.31941" lon="-1.68563">
        <ele>113.378395</ele>
        <time>2012-01-09T11:04:57Z</time>
      </trkpt>
      <trkpt lat="47.31938" lon="-1.68535">
        <ele>114.36519</ele>
        <time>2012-01-09T11:05:02Z</time>
      </trkpt>
      <trkpt lat="47.31933" lon="-1.68509">
        <ele>114.08666</ele>
        <time>2012-01-09T11:05:07Z</time>
      </trkpt>
      <trkpt lat="47.31923" lon="-1.68481">
        <ele>113.33183</ele>
        <time>2012-01-09T11:05:13Z</time>
      </trkpt>
      <trkpt lat="47.31911" lon="-1.68453">
        <ele>113.2943</ele>
        <time>2012-01-09T11:05:20Z</time>
      </trkpt>
      <trkpt lat="47.31901" lon="-1.68432">
        <ele>113.832535</ele>
        <time>2012-01-09T11:05:25Z</time>
      </trkpt>
      <trkpt lat="47.31887" lon="-1.68411">
        <ele>113.947014</ele>
        <time>2012-01-09T11:05:29Z</time>
      </trkpt>
      <trkpt lat="47.31871" lon="-1.68389">
        <ele>113.98323</ele>
        <time>2012-01-09T11:05:33Z</time>
      </trkpt>
      <trkpt lat="47.31854" lon="-1.68365">
        <ele>113.9947</ele>
        <time>2012-01-09T11:05:37Z</time>
      </trkpt>
      <trkpt lat="47.3184" lon="-1.68344">
        <ele>113.99832</ele>
        <time>2012-01-09T11:05:41Z</time>
      </trkpt>
      <trkpt lat="47.31828" lon="-1.68323">
        <ele>113.999466</ele>
        <time>2012-01-09T11:05:45Z</time>
      </trkpt>
      <trkpt lat="47.3181" lon="-1.68312">
        <ele>113.99983</ele>
        <time>2012-01-09T11:05:49Z</time>
      </trkpt>
      <trkpt lat="47.3179" lon="-1.68316">
        <ele>114.43746</ele>
        <time>2012-01-09T11:05:54Z</time>
      </trkpt>
      <trkpt lat="47.31766" lon="-1.68323">
        <ele>116.25</ele>
        <time>2012-01-09T11:06:00Z</time>
      </trkpt>
      <trkpt lat="47.31745" lon="-1.68329">
        <ele>117.62921</ele>
        <time>2012-01-09T11:06:06Z</time>
      </trkpt>
      <trkpt lat="47.31726" lon="-1.68335">
        <ele>117.934006</ele>
        <time>2012-01-09T11:06:12Z</time>
      </trkpt>
      <trkpt lat="47.31706" lon="-1.68344">
        <ele>118.75095</ele>
        <time>2012-01-09T11:06:18Z</time>
      </trkpt>
      <trkpt lat="47.31686" lon="-1.68353">
        <ele>118.95567</ele>
        <time>2012-01-09T11:06:24Z</time>
      </trkpt>
      <trkpt lat="47.31667" lon="-1.68359">
        <ele>119.24211</ele>
        <time>2012-01-09T11:06:30Z</time>
      </trkpt>
      <trkpt lat="47.31648" lon="-1.68365">
        <ele>119.82015</ele>
        <time>2012-01-09T11:06:35Z</time>
      </trkpt>
      <trkpt lat="47.31629" lon="-1.68372">
        <ele>119.96799</ele>
        <time>2012-01-09T11:06:41Z</time>
      </trkpt>
      <trkpt lat="47.31609" lon="-1.68376">
        <ele>120.2424</ele>
        <time>2012-01-09T11:06:46Z</time>
      </trkpt>
      <trkpt lat="47.31589" lon="-1.68385">
        <ele>120.82022</ele>
        <time>2012-01-09T11:06:51Z</time>
      </trkpt>
      <trkpt lat="47.31571" lon="-1.68391">
        <ele>121.64093</ele>
        <time>2012-01-09T11:06:56Z</time>
      </trkpt>
      <trkpt lat="47.31552" lon="-1.68398">
        <ele>121.9361</ele>
        <time>2012-01-09T11:07:02Z</time>
      </trkpt>
      <trkpt lat="47.3153" lon="-1.68406">
        <ele>121.988625</ele>
        <time>2012-01-09T11:07:08Z</time>
      </trkpt>
      <trkpt lat="47.3151" lon="-1.68413">
        <ele>122</ele>
        <time>2012-01-09T11:07:14Z</time>
      </trkpt>
      <trkpt lat="47.3149" lon="-1.68419">
        <ele>122.578125</ele>
        <time>2012-01-09T11:07:20Z</time>
      </trkpt>
      <trkpt lat="47.31469" lon="-1.68426">
        <ele>123</ele>
        <time>2012-01-09T11:07:26Z</time>
      </trkpt>
      <trkpt lat="47.31449" lon="-1.68432">
        <ele>123.762695</ele>
        <time>2012-01-09T11:07:32Z</time>
      </trkpt>
      <trkpt lat="47.31431" lon="-1.68438">
        <ele>123.95776</ele>
        <time>2012-01-09T11:07:38Z</time>
      </trkpt>
      <trkpt lat="47.3141" lon="-1.68445">
        <ele>124.81451</ele>
        <time>2012-01-09T11:07:44Z</time>
      </trkpt>
      <trkpt lat="47.3139" lon="-1.68453">
        <ele>124.96699</ele>
        <time>2012-01-09T11:07:50Z</time>
      </trkpt>
      <trkpt lat="47.31369" lon="-1.6846">
        <ele>125.67772</ele>
        <time>2012-01-09T11:07:56Z</time>
      </trkpt>
      <trkpt lat="47.31349" lon="-1.68466">
        <ele>125.94264</ele>
        <time>2012-01-09T11:08:02Z</time>
      </trkpt>
      <trkpt lat="47.31328" lon="-1.68475">
        <ele>125.98979</ele>
        <time>2012-01-09T11:08:08Z</time>
      </trkpt>
      <trkpt lat="47.31309" lon="-1.68479">
        <ele>125.997574</ele>
        <time>2012-01-09T11:08:13Z</time>
      </trkpt>
      <trkpt lat="47.3129" lon="-1.68486">
        <ele>126.68316</ele>
        <time>2012-01-09T11:08:19Z</time>
      </trkpt>
      <trkpt lat="47.3127" lon="-1.68494">
        <ele>126.94361</ele>
        <time>2012-01-09T11:08:25Z</time>
      </trkpt>
      <trkpt lat="47.31251" lon="-1.68501">
        <ele>126.99247</ele>
        <time>2012-01-09T11:08:32Z</time>
      </trkpt>
      <trkpt lat="47.31231" lon="-1.68507">
        <ele>127</ele>
        <time>2012-01-09T11:09:09Z</time>
      </trkpt>
      <trkpt lat="47.31212" lon="-1.68501">
        <ele>127</ele>
        <time>2012-01-09T11:09:16Z</time>
      </trkpt>
      <trkpt lat="47.31194" lon="-1.68488">
        <ele>127.762695</ele>
        <time>2012-01-09T11:09:22Z</time>
      </trkpt>
      <trkpt lat="47.31176" lon="-1.68475">
        <ele>128.38118</ele>
        <time>2012-01-09T11:09:27Z</time>
      </trkpt>
      <trkpt lat="47.31158" lon="-1.68462">
        <ele>128.85315</ele>
        <time>2012-01-09T11:09:32Z</time>
      </trkpt>
      <trkpt lat="47.31141" lon="-1.68449">
        <ele>128.96515</ele>
        <time>2012-01-09T11:09:37Z</time>
      </trkpt>
      <trkpt lat="47.31125" lon="-1.68436">
        <ele>128.99173</ele>
        <time>2012-01-09T11:09:42Z</time>
      </trkpt>
      <trkpt lat="47.31107" lon="-1.68421">
        <ele>128.56104</ele>
        <time>2012-01-09T11:09:48Z</time>
      </trkpt>
      <trkpt lat="47.31086" lon="-1.68417">
        <ele>128.05617</ele>
        <time>2012-01-09T11:09:56Z</time>
      </trkpt>
      <trkpt lat="47.31068" lon="-1.68423">
        <ele>127.25</ele>
        <time>2012-01-09T11:10:01Z</time>
      </trkpt>
      <trkpt lat="47.31048" lon="-1.68423">
        <ele>128.65015</ele>
        <time>2012-01-09T11:10:06Z</time>
      </trkpt>
      <trkpt lat="47.31029" lon="-1.68419">
        <ele>130.83461</ele>
        <time>2012-01-09T11:10:10Z</time>
      </trkpt>
      <trkpt lat="47.3101" lon="-1.68415">
        <ele>131.72345</ele>
        <time>2012-01-09T11:10:15Z</time>
      </trkpt>
      <trkpt lat="47.3099" lon="-1.68413">
        <ele>131.68437</ele>
        <time>2012-01-09T11:10:20Z</time>
      </trkpt>
      <trkpt lat="47.3097" lon="-1.68411">
        <ele>131.1624</ele>
        <time>2012-01-09T11:10:25Z</time>
      </trkpt>
      <trkpt lat="47.3095" lon="-1.68411">
        <ele>130.27585</ele>
        <time>2012-01-09T11:10:30Z</time>
      </trkpt>
      <trkpt lat="47.30931" lon="-1.68411">
        <ele>129.48734</ele>
        <time>2012-01-09T11:10:35Z</time>
      </trkpt>
      <trkpt lat="47.30911" lon="-1.68413">
        <ele>129.11565</ele>
        <time>2012-01-09T11:10:40Z</time>
      </trkpt>
      <trkpt lat="47.30892" lon="-1.68417">
        <ele>129.02745</ele>
        <time>2012-01-09T11:10:45Z</time>
      </trkpt>
      <trkpt lat="47.30874" lon="-1.68421">
        <ele>129.00652</ele>
        <time>2012-01-09T11:10:50Z</time>
      </trkpt>
      <trkpt lat="47.30856" lon="-1.68423">
        <ele>129.00154</ele>
        <time>2012-01-09T11:10:55Z</time>
      </trkpt>
      <trkpt lat="47.30834" lon="-1.6843">
        <ele>129.00027</ele>
        <time>2012-01-09T11:11:01Z</time>
      </trkpt>
      <trkpt lat="47.30816" lon="-1.68434">
        <ele>129.00006</ele>
        <time>2012-01-09T11:11:06Z</time>
      </trkpt>
      <trkpt lat="47.30797" lon="-1.68438">
        <ele>129.00002</ele>
        <time>2012-01-09T11:11:12Z</time>
      </trkpt>
      <trkpt lat="47.30776" lon="-1.68445">
        <ele>129</ele>
        <time>2012-01-09T11:11:18Z</time>
      </trkpt>
      <trkpt lat="47.30756" lon="-1.68451">
        <ele>128.2373</ele>
        <time>2012-01-09T11:11:24Z</time>
      </trkpt>
      <trkpt lat="47.30738" lon="-1.68462">
        <ele>127.59418</ele>
        <time>2012-01-09T11:11:31Z</time>
      </trkpt>
      <trkpt lat="47.30719" lon="-1.68471">
        <ele>127.079315</ele>
        <time>2012-01-09T11:11:38Z</time>
      </trkpt>
      <trkpt lat="47.30702" lon="-1.68481">
        <ele>126.237305</ele>
        <time>2012-01-09T11:11:45Z</time>
      </trkpt>
      <trkpt lat="47.30699" lon="-1.68453">
        <ele>125</ele>
        <time>2012-01-09T11:12:48Z</time>
      </trkpt>
      <trkpt lat="47.30705" lon="-1.68428">
        <ele>125.578125</ele>
        <time>2012-01-09T11:12:53Z</time>
      </trkpt>
      <trkpt lat="47.30713" lon="-1.684">
        <ele>125.89989</ele>
        <time>2012-01-09T11:12:58Z</time>
      </trkpt>
      <trkpt lat="47.3072" lon="-1.68368">
        <ele>125.97624</ele>
        <time>2012-01-09T11:13:03Z</time>
      </trkpt>
      <trkpt lat="47.30725" lon="-1.68342">
        <ele>126.67608</ele>
        <time>2012-01-09T11:13:07Z</time>
      </trkpt>
      <trkpt lat="47.30729" lon="-1.68316">
        <ele>126.89751</ele>
        <time>2012-01-09T11:13:11Z</time>
      </trkpt>
      <trkpt lat="47.30735" lon="-1.68286">
        <ele>125.38486</ele>
        <time>2012-01-09T11:13:16Z</time>
      </trkpt>
      <trkpt lat="47.30741" lon="-1.6826">
        <ele>123.64504</ele>
        <time>2012-01-09T11:13:21Z</time>
      </trkpt>
      <trkpt lat="47.30748" lon="-1.6823">
        <ele>123.15307</ele>
        <time>2012-01-09T11:13:26Z</time>
      </trkpt>
      <trkpt lat="47.30736" lon="-1.68202">
        <ele>123.71992</ele>
        <time>2012-01-09T11:13:31Z</time>
      </trkpt>
      <trkpt lat="47.30719" lon="-1.68187">
        <ele>123.33325</ele>
        <time>2012-01-09T11:13:35Z</time>
      </trkpt>
      <trkpt lat="47.30701" lon="-1.68172">
        <ele>121.98435</ele>
        <time>2012-01-09T11:13:39Z</time>
      </trkpt>
      <trkpt lat="47.30683" lon="-1.68157">
        <ele>120.73333</ele>
        <time>2012-01-09T11:13:43Z</time>
      </trkpt>
      <trkpt lat="47.30665" lon="-1.68142">
        <ele>119.65391</ele>
        <time>2012-01-09T11:13:47Z</time>
      </trkpt>
      <trkpt lat="47.30645" lon="-1.68125">
        <ele>118.57705</ele>
        <time>2012-01-09T11:13:52Z</time>
      </trkpt>
      <trkpt lat="47.30637" lon="-1.68099">
        <ele>118.13694</ele>
        <time>2012-01-09T11:13:57Z</time>
      </trkpt>
      <trkpt lat="47.30629" lon="-1.68072">
        <ele>117.2698</ele>
        <time>2012-01-09T11:14:02Z</time>
      </trkpt>
      <trkpt lat="47.3061" lon="-1.68069">
        <ele>117.02701</ele>
        <time>2012-01-09T11:14:10Z</time>
      </trkpt>
      <trkpt lat="47.30592" lon="-1.68078">
        <ele>117.25481</ele>
        <time>2012-01-09T11:14:16Z</time>
      </trkpt>
      <trkpt lat="47.30572" lon="-1.68087">
        <ele>117.9254</ele>
        <time>2012-01-09T11:14:24Z</time>
      </trkpt>
      <trkpt lat="47.30555" lon="-1.68097">
        <ele>118.236725</ele>
        <time>2012-01-09T11:14:30Z</time>
      </trkpt>
      <trkpt lat="47.30539" lon="-1.68112">
        <ele>118.86415</ele>
        <time>2012-01-09T11:14:36Z</time>
      </trkpt>
      <trkpt lat="47.30523" lon="-1.68127">
        <ele>119.66546</ele>
        <time>2012-01-09T11:14:43Z</time>
      </trkpt>
      <trkpt lat="47.30506" lon="-1.68138">
        <ele>119.96651</ele>
        <time>2012-01-09T11:14:51Z</time>
      </trkpt>
      <trkpt lat="47.30488" lon="-1.68149">
        <ele>120.866516</ele>
        <time>2012-01-09T11:14:59Z</time>
      </trkpt>
      <trkpt lat="47.30469" lon="-1.68162">
        <ele>121.74933</ele>
        <time>2012-01-09T11:15:07Z</time>
      </trkpt>
      <trkpt lat="47.30452" lon="-1.68177">
        <ele>122.54466</ele>
        <time>2012-01-09T11:15:14Z</time>
      </trkpt>
      <trkpt lat="47.30435" lon="-1.6819">
        <ele>122.954414</ele>
        <time>2012-01-09T11:15:22Z</time>
      </trkpt>
      <trkpt lat="47.30418" lon="-1.682">
        <ele>123.81593</ele>
        <time>2012-01-09T11:15:29Z</time>
      </trkpt>
      <trkpt lat="47.304" lon="-1.68209">
        <ele>124</ele>
        <time>2012-01-09T11:15:37Z</time>
      </trkpt>
      <trkpt lat="47.30377" lon="-1.68217">
        <ele>125</ele>
        <time>2012-01-09T11:15:45Z</time>
      </trkpt>
      <trkpt lat="47.30359" lon="-1.68228">
        <ele>125</ele>
        <time>2012-01-09T11:15:52Z</time>
      </trkpt>
      <trkpt lat="47.30341" lon="-1.68239">
        <ele>125</ele>
        <time>2012-01-09T11:15:58Z</time>
      </trkpt>
      <trkpt lat="47.30322" lon="-1.6825">
        <ele>125</ele>
        <time>2012-01-09T11:16:04Z</time>
      </trkpt>
      <trkpt lat="47.30304" lon="-1.68262">
        <ele>125</ele>
        <time>2012-01-09T11:16:11Z</time>
      </trkpt>
      <trkpt lat="47.30287" lon="-1.68278">
        <ele>125</ele>
        <time>2012-01-09T11:16:18Z</time>
      </trkpt>
      <trkpt lat="47.30271" lon="-1.68295">
        <ele>125.578125</ele>
        <time>2012-01-09T11:16:25Z</time>
      </trkpt>
      <trkpt lat="47.30255" lon="-1.6831">
        <ele>125.94369</ele>
        <time>2012-01-09T11:16:32Z</time>
      </trkpt>
      <trkpt lat="47.30239" lon="-1.68327">
        <ele>125.989975</ele>
        <time>2012-01-09T11:16:38Z</time>
      </trkpt>
      <trkpt lat="47.30222" lon="-1.68342">
        <ele>125.998215</ele>
        <time>2012-01-09T11:16:44Z</time>
      </trkpt>
      <trkpt lat="47.30205" lon="-1.68355">
        <ele>125.42164</ele>
        <time>2012-01-09T11:16:51Z</time>
      </trkpt>
      <trkpt lat="47.3019" lon="-1.6837">
        <ele>125.05628</ele>
        <time>2012-01-09T11:16:58Z</time>
      </trkpt>
      <trkpt lat="47.30175" lon="-1.68387">
        <ele>125.007515</ele>
        <time>2012-01-09T11:17:05Z</time>
      </trkpt>
      <trkpt lat="47.3016" lon="-1.68406">
        <ele>124.564285</ele>
        <time>2012-01-09T11:17:10Z</time>
      </trkpt>
      <trkpt lat="47.30149" lon="-1.68428">
        <ele>124.1339</ele>
        <time>2012-01-09T11:17:15Z</time>
      </trkpt>
      <trkpt lat="47.30134" lon="-1.68449">
        <ele>124.023834</ele>
        <time>2012-01-09T11:17:21Z</time>
      </trkpt>
      <trkpt lat="47.3012" lon="-1.68466">
        <ele>123.323944</ele>
        <time>2012-01-09T11:17:25Z</time>
      </trkpt>
      <trkpt lat="47.30101" lon="-1.68479">
        <ele>122.49875</ele>
        <time>2012-01-09T11:17:30Z</time>
      </trkpt>
      <trkpt lat="47.30083" lon="-1.6849">
        <ele>122.118355</ele>
        <time>2012-01-09T11:17:35Z</time>
      </trkpt>
      <trkpt lat="47.30065" lon="-1.68501">
        <ele>121.26539</ele>
        <time>2012-01-09T11:17:40Z</time>
      </trkpt>
      <trkpt lat="47.30047" lon="-1.68511">
        <ele>120.81298</ele>
        <time>2012-01-09T11:17:45Z</time>
      </trkpt>
      <trkpt lat="47.30028" lon="-1.68522">
        <ele>119.81973</ele>
        <time>2012-01-09T11:17:49Z</time>
      </trkpt>
      <trkpt lat="47.30009" lon="-1.68533">
        <ele>118.431244</ele>
        <time>2012-01-09T11:17:53Z</time>
      </trkpt>
      <trkpt lat="47.29998" lon="-1.68554">
        <ele>117.33964</ele>
        <time>2012-01-09T11:17:58Z</time>
      </trkpt>
      <trkpt lat="47.3001" lon="-1.6858">
        <ele>117.06045</ele>
        <time>2012-01-09T11:18:04Z</time>
      </trkpt>
      <trkpt lat="47.3002" lon="-1.68606">
        <ele>116.76076</ele>
        <time>2012-01-09T11:18:10Z</time>
      </trkpt>
      <trkpt lat="47.30006" lon="-1.68625">
        <ele>116.10155</ele>
        <time>2012-01-09T11:18:17Z</time>
      </trkpt>
      <trkpt lat="47.29988" lon="-1.68619">
        <ele>114.90301</ele>
        <time>2012-01-09T11:18:22Z</time>
      </trkpt>
      <trkpt lat="47.29967" lon="-1.68617">
        <ele>113.77679</ele>
        <time>2012-01-09T11:18:27Z</time>
      </trkpt>
      <trkpt lat="47.29945" lon="-1.68604">
        <ele>112</ele>
        <time>2012-01-09T11:18:33Z</time>
      </trkpt>
      <trkpt lat="47.29929" lon="-1.68591">
        <ele>112</ele>
        <time>2012-01-09T11:18:38Z</time>
      </trkpt>
      <trkpt lat="47.29908" lon="-1.68586">
        <ele>111.31641</ele>
        <time>2012-01-09T11:18:45Z</time>
      </trkpt>
      <trkpt lat="47.29894" lon="-1.68606">
        <ele>111.63444</ele>
        <time>2012-01-09T11:18:51Z</time>
      </trkpt>
      <trkpt lat="47.29881" lon="-1.68627">
        <ele>111.93494</ele>
        <time>2012-01-09T11:18:57Z</time>
      </trkpt>
      <trkpt lat="47.29869" lon="-1.68651">
        <ele>111.99132</ele>
        <time>2012-01-09T11:19:04Z</time>
      </trkpt>
      <trkpt lat="47.29852" lon="-1.68672">
        <ele>111.74951</ele>
        <time>2012-01-09T11:19:14Z</time>
      </trkpt>
      <trkpt lat="47.29833" lon="-1.68679">
        <ele>111.031654</ele>
        <time>2012-01-09T11:19:25Z</time>
      </trkpt>
      <trkpt lat="47.29814" lon="-1.68681">
        <ele>111.00042</ele>
        <time>2012-01-09T11:19:40Z</time>
      </trkpt>
      <trkpt lat="47.29793" lon="-1.68696">
        <ele>111.989975</ele>
        <time>2012-01-09T11:20:02Z</time>
      </trkpt>
      <trkpt lat="47.29772" lon="-1.6872">
        <ele>112.68284</ele>
        <time>2012-01-09T11:20:11Z</time>
      </trkpt>
      <trkpt lat="47.29755" lon="-1.68737">
        <ele>112.20555</ele>
        <time>2012-01-09T11:20:19Z</time>
      </trkpt>
      <trkpt lat="47.29739" lon="-1.68754">
        <ele>112.027435</ele>
        <time>2012-01-09T11:20:26Z</time>
      </trkpt>
      <trkpt lat="47.2972" lon="-1.68769">
        <ele>112.00488</ele>
        <time>2012-01-09T11:20:32Z</time>
      </trkpt>
      <trkpt lat="47.29702" lon="-1.68784">
        <ele>112.00116</ele>
        <time>2012-01-09T11:20:37Z</time>
      </trkpt>
      <trkpt lat="47.29685" lon="-1.68799">
        <ele>112.5784</ele>
        <time>2012-01-09T11:20:42Z</time>
      </trkpt>
      <trkpt lat="47.29667" lon="-1.68801">
        <ele>112.924965</ele>
        <time>2012-01-09T11:20:48Z</time>
      </trkpt>
      <trkpt lat="47.29649" lon="-1.68788">
        <ele>112.98665</ele>
        <time>2012-01-09T11:20:54Z</time>
      </trkpt>
      <trkpt lat="47.29634" lon="-1.68771">
        <ele>112.99762</ele>
        <time>2012-01-09T11:21:00Z</time>
      </trkpt>
      <trkpt lat="47.29619" lon="-1.68752">
        <ele>112.99958</ele>
        <time>2012-01-09T11:21:06Z</time>
      </trkpt>
      <trkpt lat="47.29604" lon="-1.68735">
        <ele>112.4218</ele>
        <time>2012-01-09T11:21:12Z</time>
      </trkpt>
      <trkpt lat="47.29585" lon="-1.68715">
        <ele>112.07507</ele>
        <time>2012-01-09T11:21:18Z</time>
      </trkpt>
      <trkpt lat="47.29569" lon="-1.68702">
        <ele>112.017815</ele>
        <time>2012-01-09T11:21:23Z</time>
      </trkpt>
      <trkpt lat="47.2955" lon="-1.68702">
        <ele>112.003174</ele>
        <time>2012-01-09T11:21:29Z</time>
      </trkpt>
      <trkpt lat="47.29533" lon="-1.68717">
        <ele>112.250755</ele>
        <time>2012-01-09T11:21:34Z</time>
      </trkpt>
      <trkpt lat="47.29517" lon="-1.68735">
        <ele>112.86665</ele>
        <time>2012-01-09T11:21:40Z</time>
      </trkpt>
      <trkpt lat="47.29499" lon="-1.6875">
        <ele>112.96835</ele>
        <time>2012-01-09T11:21:45Z</time>
      </trkpt>
      <trkpt lat="47.29484" lon="-1.68767">
        <ele>112.80249</ele>
        <time>2012-01-09T11:21:49Z</time>
      </trkpt>
      <trkpt lat="47.29467" lon="-1.68784">
        <ele>112.26954</ele>
        <time>2012-01-09T11:21:54Z</time>
      </trkpt>
      <trkpt lat="47.29452" lon="-1.68799">
        <ele>112.063965</ele>
        <time>2012-01-09T11:21:59Z</time>
      </trkpt>
      <trkpt lat="47.29437" lon="-1.68814">
        <ele>112.015175</ele>
        <time>2012-01-09T11:22:04Z</time>
      </trkpt>
      <trkpt lat="47.29419" lon="-1.68831">
        <ele>112.0027</ele>
        <time>2012-01-09T11:22:10Z</time>
      </trkpt>
      <trkpt lat="47.29402" lon="-1.68846">
        <ele>112.00048</ele>
        <time>2012-01-09T11:22:16Z</time>
      </trkpt>
      <trkpt lat="47.29385" lon="-1.68859">
        <ele>112.000084</ele>
        <time>2012-01-09T11:22:22Z</time>
      </trkpt>
      <trkpt lat="47.2937" lon="-1.68874">
        <ele>111.562515</ele>
        <time>2012-01-09T11:22:28Z</time>
      </trkpt>
      <trkpt lat="47.29354" lon="-1.68891">
        <ele>111</ele>
        <time>2012-01-09T11:22:35Z</time>
      </trkpt>
      <trkpt lat="47.29336" lon="-1.68908">
        <ele>110.133484</ele>
        <time>2012-01-09T11:22:42Z</time>
      </trkpt>
      <trkpt lat="47.2932" lon="-1.68923">
        <ele>110.04224</ele>
        <time>2012-01-09T11:22:46Z</time>
      </trkpt>
      <trkpt lat="47.29304" lon="-1.68941">
        <ele>110.26337</ele>
        <time>2012-01-09T11:22:50Z</time>
      </trkpt>
      <trkpt lat="47.29289" lon="-1.68958">
        <ele>110.825195</ele>
        <time>2012-01-09T11:22:55Z</time>
      </trkpt>
      <trkpt lat="47.29273" lon="-1.68975">
        <ele>110.96889</ele>
        <time>2012-01-09T11:23:01Z</time>
      </trkpt>
      <trkpt lat="47.29257" lon="-1.68988">
        <ele>110.99446</ele>
        <time>2012-01-09T11:23:07Z</time>
      </trkpt>
      <trkpt lat="47.29239" lon="-1.68998">
        <ele>110.99869</ele>
        <time>2012-01-09T11:23:12Z</time>
      </trkpt>
      <trkpt lat="47.29218" lon="-1.69007">
        <ele>111.76246</ele>
        <time>2012-01-09T11:23:18Z</time>
      </trkpt>
      <trkpt lat="47.29198" lon="-1.69011">
        <ele>111.957726</ele>
        <time>2012-01-09T11:23:24Z</time>
      </trkpt>
      <trkpt lat="47.29178" lon="-1.69016">
        <ele>111.99248</ele>
        <time>2012-01-09T11:23:30Z</time>
      </trkpt>
      <trkpt lat="47.29159" lon="-1.69009">
        <ele>111.998215</ele>
        <time>2012-01-09T11:23:35Z</time>
      </trkpt>
      <trkpt lat="47.2914" lon="-1.69001">
        <ele>111.56207</ele>
        <time>2012-01-09T11:23:40Z</time>
      </trkpt>
      <trkpt lat="47.29121" lon="-1.68994">
        <ele>111.133385</ele>
        <time>2012-01-09T11:23:45Z</time>
      </trkpt>
      <trkpt lat="47.29101" lon="-1.68994">
        <ele>111.031654</ele>
        <time>2012-01-09T11:23:50Z</time>
      </trkpt>
      <trkpt lat="47.29082" lon="-1.68996">
        <ele>111.007515</ele>
        <time>2012-01-09T11:23:55Z</time>
      </trkpt>
      <trkpt lat="47.2906" lon="-1.68998">
        <ele>111.001785</ele>
        <time>2012-01-09T11:24:00Z</time>
      </trkpt>
      <trkpt lat="47.29037" lon="-1.69001">
        <ele>110.56292</ele>
        <time>2012-01-09T11:24:05Z</time>
      </trkpt>
      <trkpt lat="47.29017" lon="-1.69003">
        <ele>109.221855</ele>
        <time>2012-01-09T11:24:08Z</time>
      </trkpt>
      <trkpt lat="47.28995" lon="-1.69001">
        <ele>107.80848</ele>
        <time>2012-01-09T11:24:12Z</time>
      </trkpt>
      <trkpt lat="47.28972" lon="-1.69001">
        <ele>106.755806</ele>
        <time>2012-01-09T11:24:16Z</time>
      </trkpt>
      <trkpt lat="47.28953" lon="-1.69011">
        <ele>104.04383</ele>
        <time>2012-01-09T11:24:20Z</time>
      </trkpt>
      <trkpt lat="47.28942" lon="-1.69033">
        <ele>102.113754</ele>
        <time>2012-01-09T11:24:26Z</time>
      </trkpt>
      <trkpt lat="47.28927" lon="-1.69056">
        <ele>98.750565</ele>
        <time>2012-01-09T11:25:15Z</time>
      </trkpt>
      <trkpt lat="47.28937" lon="-1.69035">
        <ele>96.02005</ele>
        <time>2012-01-09T11:25:25Z</time>
      </trkpt>
      <trkpt lat="47.2893" lon="-1.69009">
        <ele>94.089424</ele>
        <time>2012-01-09T11:25:33Z</time>
      </trkpt>
      <trkpt lat="47.28914" lon="-1.68992">
        <ele>92.13273</ele>
        <time>2012-01-09T11:25:40Z</time>
      </trkpt>
      <trkpt lat="47.28912" lon="-1.6902">
        <ele>89.1752</ele>
        <time>2012-01-09T11:26:19Z</time>
      </trkpt>
      <trkpt lat="47.28894" lon="-1.69033">
        <ele>89.45065</ele>
        <time>2012-01-09T11:26:28Z</time>
      </trkpt>
      <trkpt lat="47.28874" lon="-1.69029">
        <ele>89.926674</ele>
        <time>2012-01-09T11:26:35Z</time>
      </trkpt>
      <trkpt lat="47.28856" lon="-1.69022">
        <ele>91.4035</ele>
        <time>2012-01-09T11:26:47Z</time>
      </trkpt>
      <trkpt lat="47.28839" lon="-1.69035">
        <ele>92.17038</ele>
        <time>2012-01-09T11:26:54Z</time>
      </trkpt>
      <trkpt lat="47.28826" lon="-1.69059">
        <ele>93</ele>
        <time>2012-01-09T11:27:21Z</time>
      </trkpt>
      <trkpt lat="47.28814" lon="-1.6908">
        <ele>94.14989</ele>
        <time>2012-01-09T11:27:46Z</time>
      </trkpt>
      <trkpt lat="47.288" lon="-1.69097">
        <ele>95.69887</ele>
        <time>2012-01-09T11:27:55Z</time>
      </trkpt>
      <trkpt lat="47.28787" lon="-1.69116">
        <ele>97.509094</ele>
        <time>2012-01-09T11:28:06Z</time>
      </trkpt>
      <trkpt lat="47.28773" lon="-1.69136">
        <ele>98.801285</ele>
        <time>2012-01-09T11:28:17Z</time>
      </trkpt>
      <trkpt lat="47.28759" lon="-1.69155">
        <ele>100.182495</ele>
        <time>2012-01-09T11:28:27Z</time>
      </trkpt>
      <trkpt lat="47.28741" lon="-1.69168">
        <ele>102.33936</ele>
        <time>2012-01-09T11:28:49Z</time>
      </trkpt>
      <trkpt lat="47.28724" lon="-1.69177">
        <ele>104.99952</ele>
        <time>2012-01-09T11:29:21Z</time>
      </trkpt>
      <trkpt lat="47.28706" lon="-1.69183">
        <ele>105.82202</ele>
        <time>2012-01-09T11:29:48Z</time>
      </trkpt>
      <trkpt lat="47.28688" lon="-1.69192">
        <ele>105.03801</ele>
        <time>2012-01-09T11:30:01Z</time>
      </trkpt>
      <trkpt lat="47.28671" lon="-1.69202">
        <ele>104.07629</ele>
        <time>2012-01-09T11:30:13Z</time>
      </trkpt>
      <trkpt lat="47.28652" lon="-1.69198">
        <ele>104.254295</ele>
        <time>2012-01-09T11:30:23Z</time>
      </trkpt>
      <trkpt lat="47.28642" lon="-1.69174">
        <ele>105.60894</ele>
        <time>2012-01-09T11:30:31Z</time>
      </trkpt>
      <trkpt lat="47.28636" lon="-1.69147">
        <ele>106.94309</ele>
        <time>2012-01-09T11:30:37Z</time>
      </trkpt>
      <trkpt lat="47.2863" lon="-1.69121">
        <ele>107.99919</ele>
        <time>2012-01-09T11:30:42Z</time>
      </trkpt>
      <trkpt lat="47.28625" lon="-1.69095">
        <ele>109.25938</ele>
        <time>2012-01-09T11:30:48Z</time>
      </trkpt>
      <trkpt lat="47.2862" lon="-1.69061">
        <ele>112.1055</ele>
        <time>2012-01-09T11:30:53Z</time>
      </trkpt>
      <trkpt lat="47.28619" lon="-1.69033">
        <ele>116.03338</ele>
        <time>2012-01-09T11:30:57Z</time>
      </trkpt>
      <trkpt lat="47.2862" lon="-1.69003">
        <ele>118.639465</ele>
        <time>2012-01-09T11:31:01Z</time>
      </trkpt>
      <trkpt lat="47.28624" lon="-1.68971">
        <ele>117.6203</ele>
        <time>2012-01-09T11:31:05Z</time>
      </trkpt>
      <trkpt lat="47.28627" lon="-1.68943">
        <ele>115.99606</ele>
        <time>2012-01-09T11:31:08Z</time>
      </trkpt>
      <trkpt lat="47.28631" lon="-1.68908">
        <ele>113.82646</ele>
        <time>2012-01-09T11:31:11Z</time>
      </trkpt>
      <trkpt lat="47.28636" lon="-1.68874">
        <ele>111.94241</ele>
        <time>2012-01-09T11:31:14Z</time>
      </trkpt>
      <trkpt lat="47.2864" lon="-1.68838">
        <ele>110.38196</ele>
        <time>2012-01-09T11:31:17Z</time>
      </trkpt>
      <trkpt lat="47.28644" lon="-1.68812">
        <ele>109.52735</ele>
        <time>2012-01-09T11:31:19Z</time>
      </trkpt>
      <trkpt lat="47.28649" lon="-1.68773">
        <ele>108.39435</ele>
        <time>2012-01-09T11:31:22Z</time>
      </trkpt>
      <trkpt lat="47.28651" lon="-1.68745">
        <ele>107.534325</ele>
        <time>2012-01-09T11:31:24Z</time>
      </trkpt>
      <trkpt lat="47.28651" lon="-1.68707">
        <ele>105.63167</ele>
        <time>2012-01-09T11:31:27Z</time>
      </trkpt>
      <trkpt lat="47.28651" lon="-1.68672">
        <ele>104.25086</ele>
        <time>2012-01-09T11:31:30Z</time>
      </trkpt>
      <trkpt lat="47.28651" lon="-1.68642">
        <ele>102.949585</ele>
        <time>2012-01-09T11:31:33Z</time>
      </trkpt>
      <trkpt lat="47.28651" lon="-1.68614">
        <ele>101.82248</ele>
        <time>2012-01-09T11:31:36Z</time>
      </trkpt>
      <trkpt lat="47.2865" lon="-1.68582">
        <ele>101.26024</ele>
        <time>2012-01-09T11:31:40Z</time>
      </trkpt>
      <trkpt lat="47.28649" lon="-1.68552">
        <ele>101.06175</ele>
        <time>2012-01-09T11:31:45Z</time>
      </trkpt>
      <trkpt lat="47.28649" lon="-1.68524">
        <ele>100.827156</ele>
        <time>2012-01-09T11:31:50Z</time>
      </trkpt>
      <trkpt lat="47.28654" lon="-1.68496">
        <ele>100.39111</ele>
        <time>2012-01-09T11:31:56Z</time>
      </trkpt>
      <trkpt lat="47.2867" lon="-1.68477">
        <ele>100.022026</ele>
        <time>2012-01-09T11:32:06Z</time>
      </trkpt>
      <trkpt lat="47.28684" lon="-1.6846">
        <ele>100.00124</ele>
        <time>2012-01-09T11:32:16Z</time>
      </trkpt>
      <trkpt lat="47.28698" lon="-1.68436">
        <ele>100.00009</ele>
        <time>2012-01-09T11:32:25Z</time>
      </trkpt>
      <trkpt lat="47.2871" lon="-1.68415">
        <ele>100.00001</ele>
        <time>2012-01-09T11:32:35Z</time>
      </trkpt>
      <trkpt lat="47.28724" lon="-1.68396">
        <ele>100.578125</ele>
        <time>2012-01-09T11:32:45Z</time>
      </trkpt>
      <trkpt lat="47.28737" lon="-1.68374">
        <ele>100.96832</ele>
        <time>2012-01-09T11:32:54Z</time>
      </trkpt>
      <trkpt lat="47.28745" lon="-1.68348">
        <ele>101.435715</ele>
        <time>2012-01-09T11:33:04Z</time>
      </trkpt>
      <trkpt lat="47.2875" lon="-1.6832">
        <ele>101.976166</ele>
        <time>2012-01-09T11:33:15Z</time>
      </trkpt>
      <trkpt lat="47.28748" lon="-1.6829">
        <ele>101.999245</ele>
        <time>2012-01-09T11:33:27Z</time>
      </trkpt>
      <trkpt lat="47.28746" lon="-1.6826">
        <ele>102.76264</ele>
        <time>2012-01-09T11:33:36Z</time>
      </trkpt>
      <trkpt lat="47.28741" lon="-1.68235">
        <ele>103.65983</ele>
        <time>2012-01-09T11:33:44Z</time>
      </trkpt>
      <trkpt lat="47.28732" lon="-1.68209">
        <ele>104.63818</ele>
        <time>2012-01-09T11:33:51Z</time>
      </trkpt>
      <trkpt lat="47.28722" lon="-1.68183">
        <ele>105.77373</ele>
        <time>2012-01-09T11:33:58Z</time>
      </trkpt>
      <trkpt lat="47.28712" lon="-1.68159">
        <ele>106.83631</ele>
        <time>2012-01-09T11:34:05Z</time>
      </trkpt>
      <trkpt lat="47.28702" lon="-1.68132">
        <ele>108.37101</ele>
        <time>2012-01-09T11:34:11Z</time>
      </trkpt>
      <trkpt lat="47.28694" lon="-1.68102">
        <ele>109.90075</ele>
        <time>2012-01-09T11:34:17Z</time>
      </trkpt>
      <trkpt lat="47.28681" lon="-1.68082">
        <ele>111.42274</ele>
        <time>2012-01-09T11:34:22Z</time>
      </trkpt>
      <trkpt lat="47.28663" lon="-1.68097">
        <ele>111.863014</ele>
        <time>2012-01-09T11:34:27Z</time>
      </trkpt>
      <trkpt lat="47.28649" lon="-1.68114">
        <ele>111.96749</ele>
        <time>2012-01-09T11:34:32Z</time>
      </trkpt>
      <trkpt lat="47.28631" lon="-1.68132">
        <ele>111.99422</ele>
        <time>2012-01-09T11:34:38Z</time>
      </trkpt>
      <trkpt lat="47.28614" lon="-1.68151">
        <ele>111.99897</ele>
        <time>2012-01-09T11:34:44Z</time>
      </trkpt>
      <trkpt lat="47.28597" lon="-1.6817">
        <ele>111.99982</ele>
        <time>2012-01-09T11:34:50Z</time>
      </trkpt>
      <trkpt lat="47.2858" lon="-1.68187">
        <ele>112.437454</ele>
        <time>2012-01-09T11:34:55Z</time>
      </trkpt>
      <trkpt lat="47.28564" lon="-1.68202">
        <ele>113.25951</ele>
        <time>2012-01-09T11:34:59Z</time>
      </trkpt>
      <trkpt lat="47.28549" lon="-1.68217">
        <ele>113.08211</ele>
        <time>2012-01-09T11:35:03Z</time>
      </trkpt>
      <trkpt lat="47.28535" lon="-1.68235">
        <ele>113.02598</ele>
        <time>2012-01-09T11:35:07Z</time>
      </trkpt>
      <trkpt lat="47.28521" lon="-1.68254">
        <ele>112.32462</ele>
        <time>2012-01-09T11:35:11Z</time>
      </trkpt>
      <trkpt lat="47.28507" lon="-1.68271">
        <ele>111.886955</ele>
        <time>2012-01-09T11:35:14Z</time>
      </trkpt>
      <trkpt lat="47.28492" lon="-1.68288">
        <ele>111.37418</ele>
        <time>2012-01-09T11:35:17Z</time>
      </trkpt>
      <trkpt lat="47.28477" lon="-1.68303">
        <ele>111.15786</ele>
        <time>2012-01-09T11:35:20Z</time>
      </trkpt>
      <trkpt lat="47.28463" lon="-1.6832">
        <ele>110.8166</ele>
        <time>2012-01-09T11:35:23Z</time>
      </trkpt>
      <trkpt lat="47.28444" lon="-1.6834">
        <ele>109.82088</ele>
        <time>2012-01-09T11:35:27Z</time>
      </trkpt>
      <trkpt lat="47.28428" lon="-1.68359">
        <ele>109.00973</ele>
        <time>2012-01-09T11:35:31Z</time>
      </trkpt>
      <trkpt lat="47.28409" lon="-1.68378">
        <ele>108.31949</ele>
        <time>2012-01-09T11:35:35Z</time>
      </trkpt>
      <trkpt lat="47.28392" lon="-1.68396">
        <ele>108.35109</ele>
        <time>2012-01-09T11:35:39Z</time>
      </trkpt>
      <trkpt lat="47.28374" lon="-1.68411">
        <ele>108.84601</ele>
        <time>2012-01-09T11:35:44Z</time>
      </trkpt>
      <trkpt lat="47.28356" lon="-1.68406">
        <ele>108.38533</ele>
        <time>2012-01-09T11:35:49Z</time>
      </trkpt>
      <trkpt lat="47.28343" lon="-1.68387">
        <ele>108.05144</ele>
        <time>2012-01-09T11:35:56Z</time>
      </trkpt>
      <trkpt lat="47.2834" lon="-1.68359">
        <ele>108.00386</ele>
        <time>2012-01-09T11:36:05Z</time>
      </trkpt>
      <trkpt lat="47.28341" lon="-1.68331">
        <ele>107.134</ele>
        <time>2012-01-09T11:36:12Z</time>
      </trkpt>
      <trkpt lat="47.28341" lon="-1.68301">
        <ele>105.75</ele>
        <time>2012-01-09T11:36:18Z</time>
      </trkpt>
      <trkpt lat="47.28334" lon="-1.68275">
        <ele>105.17798</ele>
        <time>2012-01-09T11:36:23Z</time>
      </trkpt>
      <trkpt lat="47.28318" lon="-1.68258">
        <ele>103.01782</ele>
        <time>2012-01-09T11:36:28Z</time>
      </trkpt>
      <trkpt lat="47.28303" lon="-1.68239">
        <ele>101.26935</ele>
        <time>2012-01-09T11:36:35Z</time>
      </trkpt>
      <trkpt lat="47.28289" lon="-1.68222">
        <ele>100.28524</ele>
        <time>2012-01-09T11:36:41Z</time>
      </trkpt>
      <trkpt lat="47.28275" lon="-1.68205">
        <ele>99.800766</ele>
        <time>2012-01-09T11:36:47Z</time>
      </trkpt>
      <trkpt lat="47.2826" lon="-1.6819">
        <ele>99.08017</ele>
        <time>2012-01-09T11:36:55Z</time>
      </trkpt>
      <trkpt lat="47.28246" lon="-1.68172">
        <ele>99.00602</ele>
        <time>2012-01-09T11:37:04Z</time>
      </trkpt>
      <trkpt lat="47.28236" lon="-1.68151">
        <ele>99</ele>
        <time>2012-01-09T11:37:14Z</time>
      </trkpt>
      <trkpt lat="47.28243" lon="-1.68123">
        <ele>99.25</ele>
        <time>2012-01-09T11:37:23Z</time>
      </trkpt>
      <trkpt lat="47.28252" lon="-1.68099">
        <ele>99.92491</ele>
        <time>2012-01-09T11:37:31Z</time>
      </trkpt>
      <trkpt lat="47.2826" lon="-1.68074">
        <ele>100.86229</ele>
        <time>2012-01-09T11:37:41Z</time>
      </trkpt>
      <trkpt lat="47.28263" lon="-1.68044">
        <ele>101.81621</ele>
        <time>2012-01-09T11:37:52Z</time>
      </trkpt>
      <trkpt lat="47.2827" lon="-1.68018">
        <ele>102.4237</ele>
        <time>2012-01-09T11:38:01Z</time>
      </trkpt>
      <trkpt lat="47.28275" lon="-1.67992">
        <ele>102.94231</ele>
        <time>2012-01-09T11:38:09Z</time>
      </trkpt>
      <trkpt lat="47.2828" lon="-1.67964">
        <ele>102.9923</ele>
        <time>2012-01-09T11:38:16Z</time>
      </trkpt>
      <trkpt lat="47.28282" lon="-1.67932">
        <ele>102.99897</ele>
        <time>2012-01-09T11:38:23Z</time>
      </trkpt>
      <trkpt lat="47.28285" lon="-1.67902">
        <ele>103.24986</ele>
        <time>2012-01-09T11:38:30Z</time>
      </trkpt>
      <trkpt lat="47.28289" lon="-1.67874">
        <ele>103.924904</ele>
        <time>2012-01-09T11:38:38Z</time>
      </trkpt>
      <trkpt lat="47.28299" lon="-1.6785">
        <ele>104.75706</ele>
        <time>2012-01-09T11:38:47Z</time>
      </trkpt>
      <trkpt lat="47.28305" lon="-1.67823">
        <ele>104.97568</ele>
        <time>2012-01-09T11:38:55Z</time>
      </trkpt>
      <trkpt lat="47.28287" lon="-1.67812">
        <ele>104.99818</ele>
        <time>2012-01-09T11:39:04Z</time>
      </trkpt>
      <trkpt lat="47.28268" lon="-1.67805">
        <ele>104.99986</ele>
        <time>2012-01-09T11:39:13Z</time>
      </trkpt>
      <trkpt lat="47.28251" lon="-1.67797">
        <ele>105.82201</ele>
        <time>2012-01-09T11:39:20Z</time>
      </trkpt>
      <trkpt lat="47.28233" lon="-1.67788">
        <ele>105.97624</ele>
        <time>2012-01-09T11:39:27Z</time>
      </trkpt>
      <trkpt lat="47.28214" lon="-1.6778">
        <ele>106.24762</ele>
        <time>2012-01-09T11:39:35Z</time>
      </trkpt>
      <trkpt lat="47.28196" lon="-1.67778">
        <ele>106.89957</ele>
        <time>2012-01-09T11:39:42Z</time>
      </trkpt>
      <trkpt lat="47.28177" lon="-1.67773">
        <ele>107.56472</ele>
        <time>2012-01-09T11:39:49Z</time>
      </trkpt>
      <trkpt lat="47.28158" lon="-1.67769">
        <ele>107.92253</ele>
        <time>2012-01-09T11:39:55Z</time>
      </trkpt>
      <trkpt lat="47.28138" lon="-1.67778">
        <ele>107.98621</ele>
        <time>2012-01-09T11:40:01Z</time>
      </trkpt>
      <trkpt lat="47.28123" lon="-1.67795">
        <ele>107.99754</ele>
        <time>2012-01-09T11:40:07Z</time>
      </trkpt>
      <trkpt lat="47.28108" lon="-1.6781">
        <ele>108.24967</ele>
        <time>2012-01-09T11:40:14Z</time>
      </trkpt>
      <trkpt lat="47.2809" lon="-1.67814">
        <ele>108.866455</ele>
        <time>2012-01-09T11:40:20Z</time>
      </trkpt>
      <trkpt lat="47.28069" lon="-1.67816">
        <ele>108.976234</ele>
        <time>2012-01-09T11:40:26Z</time>
      </trkpt>
      <trkpt lat="47.28049" lon="-1.67814">
        <ele>108.996826</ele>
        <time>2012-01-09T11:40:33Z</time>
      </trkpt>
      <trkpt lat="47.28027" lon="-1.67812">
        <ele>108.999435</ele>
        <time>2012-01-09T11:40:39Z</time>
      </trkpt>
      <trkpt lat="47.28009" lon="-1.67801">
        <ele>108.42174</ele>
        <time>2012-01-09T11:40:44Z</time>
      </trkpt>
      <trkpt lat="47.27996" lon="-1.67775">
        <ele>108.10008</ele>
        <time>2012-01-09T11:40:49Z</time>
      </trkpt>
      <trkpt lat="47.27992" lon="-1.67747">
        <ele>107.098076</ele>
        <time>2012-01-09T11:40:53Z</time>
      </trkpt>
      <trkpt lat="47.27992" lon="-1.67715">
        <ele>105.68245</ele>
        <time>2012-01-09T11:40:58Z</time>
      </trkpt>
      <trkpt lat="47.27994" lon="-1.67687">
        <ele>105.16195</ele>
        <time>2012-01-09T11:41:03Z</time>
      </trkpt>
      <trkpt lat="47.27996" lon="-1.67655">
        <ele>105.028824</ele>
        <time>2012-01-09T11:41:09Z</time>
      </trkpt>
      <trkpt lat="47.27998" lon="-1.67623">
        <ele>105.00513</ele>
        <time>2012-01-09T11:41:15Z</time>
      </trkpt>
      <trkpt lat="47.28001" lon="-1.67593">
        <ele>105.000916</ele>
        <time>2012-01-09T11:41:21Z</time>
      </trkpt>
      <trkpt lat="47.28003" lon="-1.67561">
        <ele>105.00016</ele>
        <time>2012-01-09T11:41:27Z</time>
      </trkpt>
      <trkpt lat="47.28006" lon="-1.67533">
        <ele>105.00003</ele>
        <time>2012-01-09T11:41:33Z</time>
      </trkpt>
      <trkpt lat="47.28008" lon="-1.67505">
        <ele>105.00001</ele>
        <time>2012-01-09T11:41:39Z</time>
      </trkpt>
      <trkpt lat="47.28005" lon="-1.67477">
        <ele>105</ele>
        <time>2012-01-09T11:42:27Z</time>
      </trkpt>
      <trkpt lat="47.27988" lon="-1.67462">
        <ele>105</ele>
        <time>2012-01-09T11:42:34Z</time>
      </trkpt>
      <trkpt lat="47.2797" lon="-1.67451">
        <ele>105</ele>
        <time>2012-01-09T11:42:40Z</time>
      </trkpt>
      <trkpt lat="47.27951" lon="-1.67445">
        <ele>105.4375</ele>
        <time>2012-01-09T11:42:46Z</time>
      </trkpt>
      <trkpt lat="47.27933" lon="-1.67439">
        <ele>105.89989</ele>
        <time>2012-01-09T11:42:52Z</time>
      </trkpt>
      <trkpt lat="47.27913" lon="-1.67434">
        <ele>105.982185</ele>
        <time>2012-01-09T11:42:58Z</time>
      </trkpt>
      <trkpt lat="47.27919" lon="-1.67406">
        <ele>105.75</ele>
        <time>2012-01-09T11:43:11Z</time>
      </trkpt>
      <trkpt lat="47.27928" lon="-1.67376">
        <ele>105.133484</ele>
        <time>2012-01-09T11:43:17Z</time>
      </trkpt>
      <trkpt lat="47.27936" lon="-1.67351">
        <ele>105.02376</ele>
        <time>2012-01-09T11:43:23Z</time>
      </trkpt>
      <trkpt lat="47.27945" lon="-1.67323">
        <ele>105.00423</ele>
        <time>2012-01-09T11:43:29Z</time>
      </trkpt>
      <trkpt lat="47.27952" lon="-1.67297">
        <ele>105.00101</ele>
        <time>2012-01-09T11:43:34Z</time>
      </trkpt>
      <trkpt lat="47.2796" lon="-1.67271">
        <ele>105.00024</ele>
        <time>2012-01-09T11:43:39Z</time>
      </trkpt>
      <trkpt lat="47.27967" lon="-1.67245">
        <ele>105.00005</ele>
        <time>2012-01-09T11:43:44Z</time>
      </trkpt>
      <trkpt lat="47.27976" lon="-1.6722">
        <ele>105.00001</ele>
        <time>2012-01-09T11:43:50Z</time>
      </trkpt>
      <trkpt lat="47.27983" lon="-1.67194">
        <ele>105</ele>
        <time>2012-01-09T11:43:55Z</time>
      </trkpt>
      <trkpt lat="47.27991" lon="-1.67168">
        <ele>105.762695</ele>
        <time>2012-01-09T11:44:00Z</time>
      </trkpt>
      <trkpt lat="47.27997" lon="-1.67142">
        <ele>106.38119</ele>
        <time>2012-01-09T11:44:05Z</time>
      </trkpt>
      <trkpt lat="47.28005" lon="-1.67114">
        <ele>107.78674</ele>
        <time>2012-01-09T11:44:10Z</time>
      </trkpt>
      <trkpt lat="47.28009" lon="-1.67089">
        <ele>108.71209</ele>
        <time>2012-01-09T11:44:15Z</time>
      </trkpt>
      <trkpt lat="47.28016" lon="-1.67059">
        <ele>107.75</ele>
        <time>2012-01-09T11:44:20Z</time>
      </trkpt>
      <trkpt lat="47.28024" lon="-1.67029">
        <ele>106.244385</ele>
        <time>2012-01-09T11:44:25Z</time>
      </trkpt>
      <trkpt lat="47.28032" lon="-1.66999">
        <ele>104.5326</ele>
        <time>2012-01-09T11:44:30Z</time>
      </trkpt>
      <trkpt lat="47.28038" lon="-1.66969">
        <ele>104.12639</ele>
        <time>2012-01-09T11:44:35Z</time>
      </trkpt>
      <trkpt lat="47.28046" lon="-1.66941">
        <ele>103.0964</ele>
        <time>2012-01-09T11:44:40Z</time>
      </trkpt>
      <trkpt lat="47.28054" lon="-1.66893">
        <ele>103.25</ele>
        <time>2012-01-09T11:44:48Z</time>
      </trkpt>
      <trkpt lat="47.28059" lon="-1.66861">
        <ele>104</ele>
        <time>2012-01-09T11:44:54Z</time>
      </trkpt>
      <trkpt lat="47.28063" lon="-1.66836">
        <ele>104.762695</ele>
        <time>2012-01-09T11:44:59Z</time>
      </trkpt>
      <trkpt lat="47.28066" lon="-1.66808">
        <ele>105.19369</ele>
        <time>2012-01-09T11:45:04Z</time>
      </trkpt>
      <trkpt lat="47.28069" lon="-1.6678">
        <ele>105.808655</ele>
        <time>2012-01-09T11:45:09Z</time>
      </trkpt>
      <trkpt lat="47.28074" lon="-1.66754">
        <ele>105.95459</ele>
        <time>2012-01-09T11:45:14Z</time>
      </trkpt>
      <trkpt lat="47.28078" lon="-1.66728">
        <ele>105.98923</ele>
        <time>2012-01-09T11:45:19Z</time>
      </trkpt>
      <trkpt lat="47.28082" lon="-1.667">
        <ele>105.997444</ele>
        <time>2012-01-09T11:45:24Z</time>
      </trkpt>
      <trkpt lat="47.28088" lon="-1.66675">
        <ele>105.99954</ele>
        <time>2012-01-09T11:45:30Z</time>
      </trkpt>
      <trkpt lat="47.28084" lon="-1.66647">
        <ele>105.74994</ele>
        <time>2012-01-09T11:45:37Z</time>
      </trkpt>
      <trkpt lat="47.2807" lon="-1.66627">
        <ele>105.100105</ele>
        <time>2012-01-09T11:45:44Z</time>
      </trkpt>
      <trkpt lat="47.28056" lon="-1.66604">
        <ele>105.591484</ele>
        <time>2012-01-09T11:45:51Z</time>
      </trkpt>
      <trkpt lat="47.2804" lon="-1.6658">
        <ele>105.92729</ele>
        <time>2012-01-09T11:45:57Z</time>
      </trkpt>
      <trkpt lat="47.28026" lon="-1.66563">
        <ele>105.977</ele>
        <time>2012-01-09T11:46:01Z</time>
      </trkpt>
      <trkpt lat="47.28014" lon="-1.66544">
        <ele>105.99272</ele>
        <time>2012-01-09T11:46:05Z</time>
      </trkpt>
      <trkpt lat="47.28" lon="-1.66524">
        <ele>105.998276</ele>
        <time>2012-01-09T11:46:10Z</time>
      </trkpt>
      <trkpt lat="47.28003" lon="-1.66497">
        <ele>106.4374</ele>
        <time>2012-01-09T11:46:20Z</time>
      </trkpt>
      <trkpt lat="47.28022" lon="-1.66488">
        <ele>106.94368</ele>
        <time>2012-01-09T11:46:28Z</time>
      </trkpt>
      <trkpt lat="47.28042" lon="-1.66477">
        <ele>107.5681</ele>
        <time>2012-01-09T11:46:34Z</time>
      </trkpt>
      <trkpt lat="47.28062" lon="-1.66469">
        <ele>108.9102</ele>
        <time>2012-01-09T11:46:39Z</time>
      </trkpt>
      <trkpt lat="47.28079" lon="-1.6646">
        <ele>109.74139</ele>
        <time>2012-01-09T11:46:44Z</time>
      </trkpt>
      <trkpt lat="47.28097" lon="-1.66445">
        <ele>109.93863</ele>
        <time>2012-01-09T11:46:49Z</time>
      </trkpt>
      <trkpt lat="47.28114" lon="-1.6643">
        <ele>110.74813</ele>
        <time>2012-01-09T11:46:54Z</time>
      </trkpt>
      <trkpt lat="47.28132" lon="-1.66415">
        <ele>110.94023</ele>
        <time>2012-01-09T11:46:59Z</time>
      </trkpt>
      <trkpt lat="47.28149" lon="-1.664">
        <ele>110.98582</ele>
        <time>2012-01-09T11:47:04Z</time>
      </trkpt>
      <trkpt lat="47.28165" lon="-1.66385">
        <ele>110.996635</ele>
        <time>2012-01-09T11:47:09Z</time>
      </trkpt>
      <trkpt lat="47.28173" lon="-1.66359">
        <ele>110.9994</ele>
        <time>2012-01-09T11:47:15Z</time>
      </trkpt>
      <trkpt lat="47.28169" lon="-1.66327">
        <ele>110.562355</ele>
        <time>2012-01-09T11:47:20Z</time>
      </trkpt>
      <trkpt lat="47.28164" lon="-1.66295">
        <ele>110.13345</ele>
        <time>2012-01-09T11:47:25Z</time>
      </trkpt>
      <trkpt lat="47.28161" lon="-1.66265">
        <ele>110.03167</ele>
        <time>2012-01-09T11:47:30Z</time>
      </trkpt>
      <trkpt lat="47.28156" lon="-1.66239">
        <ele>110.01002</ele>
        <time>2012-01-09T11:47:34Z</time>
      </trkpt>
      <trkpt lat="47.28151" lon="-1.66209">
        <ele>110.43988</ele>
        <time>2012-01-09T11:47:39Z</time>
      </trkpt>
      <trkpt lat="47.28145" lon="-1.66183">
        <ele>112.334496</ele>
        <time>2012-01-09T11:47:43Z</time>
      </trkpt>
      <trkpt lat="47.2814" lon="-1.66157">
        <ele>114.05115</ele>
        <time>2012-01-09T11:47:47Z</time>
      </trkpt>
      <trkpt lat="47.28134" lon="-1.66127">
        <ele>114.52483</ele>
        <time>2012-01-09T11:47:52Z</time>
      </trkpt>
      <trkpt lat="47.28126" lon="-1.661">
        <ele>113.54642</ele>
        <time>2012-01-09T11:47:57Z</time>
      </trkpt>
      <trkpt lat="47.28108" lon="-1.66093">
        <ele>113.12967</ele>
        <time>2012-01-09T11:48:02Z</time>
      </trkpt>
      <trkpt lat="47.2809" lon="-1.66091">
        <ele>111.52931</ele>
        <time>2012-01-09T11:48:06Z</time>
      </trkpt>
      <trkpt lat="47.2807" lon="-1.66091">
        <ele>110.362915</ele>
        <time>2012-01-09T11:48:11Z</time>
      </trkpt>
      <trkpt lat="47.28051" lon="-1.66091">
        <ele>110.08612</ele>
        <time>2012-01-09T11:48:16Z</time>
      </trkpt>
      <trkpt lat="47.28032" lon="-1.66091">
        <ele>109.336845</ele>
        <time>2012-01-09T11:48:21Z</time>
      </trkpt>
      <trkpt lat="47.28012" lon="-1.66089">
        <ele>109.07993</ele>
        <time>2012-01-09T11:48:26Z</time>
      </trkpt>
      <trkpt lat="47.27993" lon="-1.66089">
        <ele>109.01423</ele>
        <time>2012-01-09T11:48:32Z</time>
      </trkpt>
      <trkpt lat="47.27973" lon="-1.66091">
        <ele>109.0019</ele>
        <time>2012-01-09T11:48:39Z</time>
      </trkpt>
      <trkpt lat="47.27955" lon="-1.66085">
        <ele>109.762886</ele>
        <time>2012-01-09T11:48:47Z</time>
      </trkpt>
      <trkpt lat="47.27941" lon="-1.66065">
        <ele>110.82202</ele>
        <time>2012-01-09T11:51:12Z</time>
      </trkpt>
      <trkpt lat="47.27937" lon="-1.66037">
        <ele>111.02333</ele>
        <time>2012-01-09T11:52:48Z</time>
      </trkpt>
      <trkpt lat="47.27926" lon="-1.66014">
        <ele>111.25311</ele>
        <time>2012-01-09T11:52:55Z</time>
      </trkpt>
      <trkpt lat="47.27906" lon="-1.65999">
        <ele>111.82276</ele>
        <time>2012-01-09T11:53:00Z</time>
      </trkpt>
      <trkpt lat="47.27924" lon="-1.65994">
        <ele>113.8935</ele>
        <time>2012-01-09T11:53:19Z</time>
      </trkpt>
      <trkpt lat="47.27929" lon="-1.65967">
        <ele>113.98105</ele>
        <time>2012-01-09T11:53:25Z</time>
      </trkpt>
      <trkpt lat="47.27926" lon="-1.65939">
        <ele>113.9955</ele>
        <time>2012-01-09T11:53:30Z</time>
      </trkpt>
      <trkpt lat="47.27921" lon="-1.65911">
        <ele>113.99893</ele>
        <time>2012-01-09T11:53:35Z</time>
      </trkpt>
      <trkpt lat="47.27917" lon="-1.65883">
        <ele>113.56225</ele>
        <time>2012-01-09T11:53:40Z</time>
      </trkpt>
      <trkpt lat="47.27917" lon="-1.65853">
        <ele>112.44983</ele>
        <time>2012-01-09T11:53:45Z</time>
      </trkpt>
      <trkpt lat="47.27921" lon="-1.65823">
        <ele>112.10675</ele>
        <time>2012-01-09T11:53:50Z</time>
      </trkpt>
      <trkpt lat="47.27918" lon="-1.65795">
        <ele>111.596275</ele>
        <time>2012-01-09T11:53:54Z</time>
      </trkpt>
      <trkpt lat="47.27917" lon="-1.65765">
        <ele>110.75117</ele>
        <time>2012-01-09T11:53:58Z</time>
      </trkpt>
      <trkpt lat="47.27917" lon="-1.65733">
        <ele>109.409546</ele>
        <time>2012-01-09T11:54:02Z</time>
      </trkpt>
      <trkpt lat="47.27919" lon="-1.657">
        <ele>107.3249</ele>
        <time>2012-01-09T11:54:06Z</time>
      </trkpt>
      <trkpt lat="47.27921" lon="-1.65662">
        <ele>103.75</ele>
        <time>2012-01-09T11:54:11Z</time>
      </trkpt>
      <trkpt lat="47.27919" lon="-1.65634">
        <ele>102.30371</ele>
        <time>2012-01-09T11:54:15Z</time>
      </trkpt>
      <trkpt lat="47.27916" lon="-1.65604">
        <ele>100.188286</ele>
        <time>2012-01-09T11:54:20Z</time>
      </trkpt>
      <trkpt lat="47.27912" lon="-1.65572">
        <ele>98.5625</ele>
        <time>2012-01-09T11:54:26Z</time>
      </trkpt>
      <trkpt lat="47.27909" lon="-1.65542">
        <ele>97.37079</ele>
        <time>2012-01-09T11:54:31Z</time>
      </trkpt>
      <trkpt lat="47.279" lon="-1.65516">
        <ele>97.77158</ele>
        <time>2012-01-09T11:54:36Z</time>
      </trkpt>
      <trkpt lat="47.27883" lon="-1.65497">
        <ele>98.21951</ele>
        <time>2012-01-09T11:54:43Z</time>
      </trkpt>
      <trkpt lat="47.27862" lon="-1.65488">
        <ele>99.06479</ele>
        <time>2012-01-09T11:54:48Z</time>
      </trkpt>
      <trkpt lat="47.2784" lon="-1.65482">
        <ele>100.411674</ele>
        <time>2012-01-09T11:54:54Z</time>
      </trkpt>
      <trkpt lat="47.2782" lon="-1.65475">
        <ele>101.391975</ele>
        <time>2012-01-09T11:54:58Z</time>
      </trkpt>
      <trkpt lat="47.27801" lon="-1.65467">
        <ele>102.46991</ele>
        <time>2012-01-09T11:55:04Z</time>
      </trkpt>
      <trkpt lat="47.27783" lon="-1.6546">
        <ele>103.48378</ele>
        <time>2012-01-09T11:55:10Z</time>
      </trkpt>
      <trkpt lat="47.27764" lon="-1.65452">
        <ele>103.90813</ele>
        <time>2012-01-09T11:55:16Z</time>
      </trkpt>
      <trkpt lat="47.27744" lon="-1.65447">
        <ele>104.66179</ele>
        <time>2012-01-09T11:55:21Z</time>
      </trkpt>
      <trkpt lat="47.27726" lon="-1.65445">
        <ele>104.91974</ele>
        <time>2012-01-09T11:55:26Z</time>
      </trkpt>
      <trkpt lat="47.27711" lon="-1.6543">
        <ele>105.55908</ele>
        <time>2012-01-09T11:55:31Z</time>
      </trkpt>
      <trkpt lat="47.27692" lon="-1.65428">
        <ele>107.016464</ele>
        <time>2012-01-09T11:55:36Z</time>
      </trkpt>
      <trkpt lat="47.27701" lon="-1.65404">
        <ele>107.99688</ele>
        <time>2012-01-09T11:55:56Z</time>
      </trkpt>
      <trkpt lat="47.27695" lon="-1.65376">
        <ele>107.421135</ele>
        <time>2012-01-09T11:56:01Z</time>
      </trkpt>
      <trkpt lat="47.27679" lon="-1.65351">
        <ele>107.00751</ele>
        <time>2012-01-09T11:56:15Z</time>
      </trkpt>
      <trkpt lat="47.27659" lon="-1.6534">
        <ele>107.000565</ele>
        <time>2012-01-09T11:56:24Z</time>
      </trkpt>
      <trkpt lat="47.2765" lon="-1.65312">
        <ele>106.75002</ele>
        <time>2012-01-09T11:56:35Z</time>
      </trkpt>
      <trkpt lat="47.27647" lon="-1.65278">
        <ele>107.24315</ele>
        <time>2012-01-09T11:56:54Z</time>
      </trkpt>
      <trkpt lat="47.27632" lon="-1.65254">
        <ele>107.92423</ele>
        <time>2012-01-09T11:57:02Z</time>
      </trkpt>
      <trkpt lat="47.27618" lon="-1.65235">
        <ele>107.98988</ele>
        <time>2012-01-09T11:57:09Z</time>
      </trkpt>
      <trkpt lat="47.27602" lon="-1.65209">
        <ele>109</ele>
        <time>2012-01-09T11:57:19Z</time>
      </trkpt>
      <trkpt lat="47.27595" lon="-1.65183">
        <ele>109</ele>
        <time>2012-01-09T11:57:25Z</time>
      </trkpt>
      <trkpt lat="47.27587" lon="-1.65155">
        <ele>109</ele>
        <time>2012-01-09T11:57:33Z</time>
      </trkpt>
      <trkpt lat="47.27577" lon="-1.65125">
        <ele>109</ele>
        <time>2012-01-09T11:57:40Z</time>
      </trkpt>
      <trkpt lat="47.27567" lon="-1.65097">
        <ele>108.5625</ele>
        <time>2012-01-09T11:57:46Z</time>
      </trkpt>
      <trkpt lat="47.27559" lon="-1.65074">
        <ele>108.10011</ele>
        <time>2012-01-09T11:57:52Z</time>
      </trkpt>
      <trkpt lat="47.27552" lon="-1.65046">
        <ele>107.33422</ele>
        <time>2012-01-09T11:57:58Z</time>
      </trkpt>
      <trkpt lat="47.27545" lon="-1.65016">
        <ele>107.079315</ele>
        <time>2012-01-09T11:58:03Z</time>
      </trkpt>
      <trkpt lat="47.27539" lon="-1.6499">
        <ele>107.02509</ele>
        <time>2012-01-09T11:58:07Z</time>
      </trkpt>
      <trkpt lat="47.27535" lon="-1.6496">
        <ele>107.00596</ele>
        <time>2012-01-09T11:58:12Z</time>
      </trkpt>
      <trkpt lat="47.27534" lon="-1.64932">
        <ele>107.25141</ele>
        <time>2012-01-09T11:58:17Z</time>
      </trkpt>
      <trkpt lat="47.27532" lon="-1.64902">
        <ele>107.13876</ele>
        <time>2012-01-09T11:58:22Z</time>
      </trkpt>
      <trkpt lat="47.27527" lon="-1.64874">
        <ele>107.62203</ele>
        <time>2012-01-09T11:58:26Z</time>
      </trkpt>
      <trkpt lat="47.27523" lon="-1.64846">
        <ele>108.814</ele>
        <time>2012-01-09T11:58:30Z</time>
      </trkpt>
      <trkpt lat="47.27525" lon="-1.64816">
        <ele>109.71856</ele>
        <time>2012-01-09T11:58:35Z</time>
      </trkpt>
      <trkpt lat="47.27532" lon="-1.64791">
        <ele>109.93321</ele>
        <time>2012-01-09T11:58:40Z</time>
      </trkpt>
      <trkpt lat="47.27538" lon="-1.64761">
        <ele>109.40603</ele>
        <time>2012-01-09T11:58:45Z</time>
      </trkpt>
      <trkpt lat="47.27543" lon="-1.64735">
        <ele>109.12847</ele>
        <time>2012-01-09T11:58:49Z</time>
      </trkpt>
      <trkpt lat="47.27545" lon="-1.64707">
        <ele>108.79065</ele>
        <time>2012-01-09T11:58:53Z</time>
      </trkpt>
      <trkpt lat="47.27547" lon="-1.64673">
        <ele>108.25017</ele>
        <time>2012-01-09T11:58:57Z</time>
      </trkpt>
      <trkpt lat="47.27551" lon="-1.64638">
        <ele>107.14556</ele>
        <time>2012-01-09T11:59:01Z</time>
      </trkpt>
      <trkpt lat="47.27556" lon="-1.6461">
        <ele>106.045784</ele>
        <time>2012-01-09T11:59:04Z</time>
      </trkpt>
      <trkpt lat="47.27561" lon="-1.64585">
        <ele>104.86307</ele>
        <time>2012-01-09T11:59:07Z</time>
      </trkpt>
      <trkpt lat="47.27564" lon="-1.64552">
        <ele>103.589485</ele>
        <time>2012-01-09T11:59:11Z</time>
      </trkpt>
      <trkpt lat="47.27564" lon="-1.64522">
        <ele>102.37719</ele>
        <time>2012-01-09T11:59:16Z</time>
      </trkpt>
      <trkpt lat="47.27563" lon="-1.64495">
        <ele>102.06713</ele>
        <time>2012-01-09T11:59:22Z</time>
      </trkpt>
      <trkpt lat="47.27559" lon="-1.64467">
        <ele>102.008965</ele>
        <time>2012-01-09T11:59:29Z</time>
      </trkpt>
      <trkpt lat="47.27539" lon="-1.64464">
        <ele>102.58025</ele>
        <time>2012-01-09T11:59:34Z</time>
      </trkpt>
      <trkpt lat="47.2752" lon="-1.64467">
        <ele>103.80078</ele>
        <time>2012-01-09T11:59:38Z</time>
      </trkpt>
      <trkpt lat="47.27501" lon="-1.64477">
        <ele>104.71542</ele>
        <time>2012-01-09T11:59:43Z</time>
      </trkpt>
      <trkpt lat="47.27479" lon="-1.64484">
        <ele>103.341644</ele>
        <time>2012-01-09T11:59:48Z</time>
      </trkpt>
      <trkpt lat="47.27459" lon="-1.64486">
        <ele>100.47529</ele>
        <time>2012-01-09T11:59:52Z</time>
      </trkpt>
      <trkpt lat="47.2744" lon="-1.64488">
        <ele>98.20507</ele>
        <time>2012-01-09T11:59:56Z</time>
      </trkpt>
      <trkpt lat="47.27421" lon="-1.6449">
        <ele>97.28597</ele>
        <time>2012-01-09T12:00:01Z</time>
      </trkpt>
      <trkpt lat="47.27404" lon="-1.64475">
        <ele>98.50304</ele>
        <time>2012-01-09T12:01:24Z</time>
      </trkpt>
      <trkpt lat="47.27391" lon="-1.64456">
        <ele>98.962685</ele>
        <time>2012-01-09T12:01:33Z</time>
      </trkpt>
      <trkpt lat="47.27377" lon="-1.64432">
        <ele>98.9979</ele>
        <time>2012-01-09T12:01:43Z</time>
      </trkpt>
      <trkpt lat="47.27365" lon="-1.64411">
        <ele>98.99984</ele>
        <time>2012-01-09T12:01:52Z</time>
      </trkpt>
      <trkpt lat="47.27355" lon="-1.64389">
        <ele>98.99997</ele>
        <time>2012-01-09T12:01:58Z</time>
      </trkpt>
      <trkpt lat="47.27344" lon="-1.64364">
        <ele>98.2373</ele>
        <time>2012-01-09T12:02:03Z</time>
      </trkpt>
      <trkpt lat="47.27333" lon="-1.64338">
        <ele>98.04224</ele>
        <time>2012-01-09T12:02:09Z</time>
      </trkpt>
      <trkpt lat="47.27323" lon="-1.64316">
        <ele>97.07392</ele>
        <time>2012-01-09T12:02:15Z</time>
      </trkpt>
      <trkpt lat="47.27316" lon="-1.64286">
        <ele>95.52939</ele>
        <time>2012-01-09T12:02:23Z</time>
      </trkpt>
      <trkpt lat="47.27305" lon="-1.64261">
        <ele>94.671875</ele>
        <time>2012-01-09T12:02:29Z</time>
      </trkpt>
      <trkpt lat="47.27295" lon="-1.64239">
        <ele>94.89618</ele>
        <time>2012-01-09T12:02:33Z</time>
      </trkpt>
      <trkpt lat="47.2728" lon="-1.64213">
        <ele>95.65896</ele>
        <time>2012-01-09T12:02:38Z</time>
      </trkpt>
      <trkpt lat="47.27265" lon="-1.64192">
        <ele>95.704475</ele>
        <time>2012-01-09T12:02:45Z</time>
      </trkpt>
      <trkpt lat="47.27249" lon="-1.64164">
        <ele>95.022316</ele>
        <time>2012-01-09T12:02:57Z</time>
      </trkpt>
      <trkpt lat="47.27235" lon="-1.64147">
        <ele>94.13646</ele>
        <time>2012-01-09T12:03:04Z</time>
      </trkpt>
      <trkpt lat="47.27215" lon="-1.64138">
        <ele>93.20226</ele>
        <time>2012-01-09T12:03:10Z</time>
      </trkpt>
      <trkpt lat="47.27197" lon="-1.64125">
        <ele>93.027</ele>
        <time>2012-01-09T12:03:17Z</time>
      </trkpt>
      <trkpt lat="47.27184" lon="-1.64104">
        <ele>93.0027</ele>
        <time>2012-01-09T12:03:25Z</time>
      </trkpt>
      <trkpt lat="47.27173" lon="-1.6408">
        <ele>93.00048</ele>
        <time>2012-01-09T12:03:31Z</time>
      </trkpt>
      <trkpt lat="47.27162" lon="-1.64059">
        <ele>93.89993</ele>
        <time>2012-01-09T12:03:39Z</time>
      </trkpt>
      <trkpt lat="47.27151" lon="-1.64037">
        <ele>94.88987</ele>
        <time>2012-01-09T12:03:47Z</time>
      </trkpt>
      <trkpt lat="47.2714" lon="-1.64016">
        <ele>95.56342</ele>
        <time>2012-01-09T12:03:54Z</time>
      </trkpt>
      <trkpt lat="47.27127" lon="-1.63992">
        <ele>96.37923</ele>
        <time>2012-01-09T12:04:01Z</time>
      </trkpt>
      <trkpt lat="47.27116" lon="-1.63971">
        <ele>97.35464</ele>
        <time>2012-01-09T12:04:08Z</time>
      </trkpt>
      <trkpt lat="47.27104" lon="-1.63945">
        <ele>97.91386</ele>
        <time>2012-01-09T12:04:15Z</time>
      </trkpt>
      <trkpt lat="47.27094" lon="-1.63922">
        <ele>98.810524</ele>
        <time>2012-01-09T12:04:22Z</time>
      </trkpt>
      <trkpt lat="47.27078" lon="-1.63907">
        <ele>98.95503</ele>
        <time>2012-01-09T12:04:27Z</time>
      </trkpt>
      <trkpt lat="47.27059" lon="-1.63902">
        <ele>98.993996</ele>
        <time>2012-01-09T12:04:34Z</time>
      </trkpt>
      <trkpt lat="47.27068" lon="-1.63879">
        <ele>99.95769</ele>
        <time>2012-01-09T12:04:49Z</time>
      </trkpt>
      <trkpt lat="47.27065" lon="-1.63849">
        <ele>99.994354</ele>
        <time>2012-01-09T12:04:56Z</time>
      </trkpt>
      <trkpt lat="47.27063" lon="-1.63819">
        <ele>99.99899</ele>
        <time>2012-01-09T12:05:02Z</time>
      </trkpt>
      <trkpt lat="47.27064" lon="-1.63789">
        <ele>99.999825</ele>
        <time>2012-01-09T12:05:08Z</time>
      </trkpt>
      <trkpt lat="47.27063" lon="-1.63759">
        <ele>100.578094</ele>
        <time>2012-01-09T12:05:14Z</time>
      </trkpt>
      <trkpt lat="47.27064" lon="-1.63731">
        <ele>100.92491</ele>
        <time>2012-01-09T12:05:20Z</time>
      </trkpt>
      <trkpt lat="47.27068" lon="-1.63703">
        <ele>100.98663</ele>
        <time>2012-01-09T12:05:26Z</time>
      </trkpt>
      <trkpt lat="47.27074" lon="-1.63673">
        <ele>100.99762</ele>
        <time>2012-01-09T12:05:32Z</time>
      </trkpt>
      <trkpt lat="47.27078" lon="-1.63645">
        <ele>100.99958</ele>
        <time>2012-01-09T12:05:38Z</time>
      </trkpt>
      <trkpt lat="47.27084" lon="-1.63619">
        <ele>100.99992</ele>
        <time>2012-01-09T12:05:44Z</time>
      </trkpt>
      <trkpt lat="47.27092" lon="-1.63591">
        <ele>100.74999</ele>
        <time>2012-01-09T12:05:53Z</time>
      </trkpt>
      <trkpt lat="47.27095" lon="-1.63561">
        <ele>100.07508</ele>
        <time>2012-01-09T12:06:01Z</time>
      </trkpt>
      <trkpt lat="47.27095" lon="-1.63531">
        <ele>99.00813</ele>
        <time>2012-01-09T12:06:05Z</time>
      </trkpt>
      <trkpt lat="47.27094" lon="-1.63499">
        <ele>97.88148</ele>
        <time>2012-01-09T12:06:09Z</time>
      </trkpt>
      <trkpt lat="47.27093" lon="-1.63471">
        <ele>97.27891</ele>
        <time>2012-01-09T12:06:13Z</time>
      </trkpt>
      <trkpt lat="47.27085" lon="-1.63443">
        <ele>97.08825</ele>
        <time>2012-01-09T12:06:17Z</time>
      </trkpt>
      <trkpt lat="47.27068" lon="-1.63432">
        <ele>96.57821</ele>
        <time>2012-01-09T12:06:23Z</time>
      </trkpt>
      <trkpt lat="47.2705" lon="-1.63417">
        <ele>93.6753</ele>
        <time>2012-01-09T12:06:28Z</time>
      </trkpt>
      <trkpt lat="47.27047" lon="-1.63387">
        <ele>91.81943</ele>
        <time>2012-01-09T12:06:33Z</time>
      </trkpt>
      <trkpt lat="47.27046" lon="-1.63357">
        <ele>90.75696</ele>
        <time>2012-01-09T12:06:38Z</time>
      </trkpt>
      <trkpt lat="47.27044" lon="-1.63325">
        <ele>90.13472</ele>
        <time>2012-01-09T12:06:44Z</time>
      </trkpt>
      <trkpt lat="47.2704" lon="-1.63293">
        <ele>90.03197</ele>
        <time>2012-01-09T12:06:49Z</time>
      </trkpt>
      <trkpt lat="47.27038" lon="-1.63265">
        <ele>89.32652</ele>
        <time>2012-01-09T12:06:53Z</time>
      </trkpt>
      <trkpt lat="47.27043" lon="-1.63237">
        <ele>88.85332</ele>
        <time>2012-01-09T12:06:57Z</time>
      </trkpt>
      <trkpt lat="47.27052" lon="-1.63207">
        <ele>88.78062</ele>
        <time>2012-01-09T12:07:02Z</time>
      </trkpt>
      <trkpt lat="47.27059" lon="-1.63177">
        <ele>88.94794</ele>
        <time>2012-01-09T12:07:07Z</time>
      </trkpt>
      <trkpt lat="47.27063" lon="-1.63147">
        <ele>88.98353</ele>
        <time>2012-01-09T12:07:11Z</time>
      </trkpt>
      <trkpt lat="47.27068" lon="-1.63115">
        <ele>88.561195</ele>
        <time>2012-01-09T12:07:15Z</time>
      </trkpt>
      <trkpt lat="47.27074" lon="-1.63087">
        <ele>88.89587</ele>
        <time>2012-01-09T12:07:20Z</time>
      </trkpt>
      <trkpt lat="47.27083" lon="-1.63059">
        <ele>88.99753</ele>
        <time>2012-01-09T12:07:33Z</time>
      </trkpt>
      <trkpt lat="47.27082" lon="-1.63023">
        <ele>90.245766</ele>
        <time>2012-01-09T12:07:55Z</time>
      </trkpt>
      <trkpt lat="47.27084" lon="-1.62992">
        <ele>92.13981</ele>
        <time>2012-01-09T12:08:10Z</time>
      </trkpt>
      <trkpt lat="47.27085" lon="-1.6296">
        <ele>96.75507</ele>
        <time>2012-01-09T12:08:30Z</time>
      </trkpt>
      <trkpt lat="47.27082" lon="-1.62928">
        <ele>99.07708</ele>
        <time>2012-01-09T12:08:42Z</time>
      </trkpt>
      <trkpt lat="47.27078" lon="-1.629">
        <ele>101.30749</ele>
        <time>2012-01-09T12:08:50Z</time>
      </trkpt>
      <trkpt lat="47.27075" lon="-1.62872">
        <ele>103.45767</ele>
        <time>2012-01-09T12:08:57Z</time>
      </trkpt>
      <trkpt lat="47.27068" lon="-1.62844">
        <ele>105.23162</ele>
        <time>2012-01-09T12:09:04Z</time>
      </trkpt>
      <trkpt lat="47.27062" lon="-1.62817">
        <ele>106.11324</ele>
        <time>2012-01-09T12:09:10Z</time>
      </trkpt>
      <trkpt lat="47.27054" lon="-1.62786">
        <ele>106.84218</ele>
        <time>2012-01-09T12:09:16Z</time>
      </trkpt>
      <trkpt lat="47.27048" lon="-1.62756">
        <ele>106.950066</ele>
        <time>2012-01-09T12:09:20Z</time>
      </trkpt>
      <trkpt lat="47.2704" lon="-1.62724">
        <ele>106.9842</ele>
        <time>2012-01-09T12:09:24Z</time>
      </trkpt>
      <trkpt lat="47.27032" lon="-1.62694">
        <ele>106.16813</ele>
        <time>2012-01-09T12:09:29Z</time>
      </trkpt>
      <trkpt lat="47.27031" lon="-1.62662">
        <ele>105.0272</ele>
        <time>2012-01-09T12:09:34Z</time>
      </trkpt>
      <trkpt lat="47.27032" lon="-1.6263">
        <ele>103.20392</ele>
        <time>2012-01-09T12:09:38Z</time>
      </trkpt>
      <trkpt lat="47.27033" lon="-1.626">
        <ele>102.2857</ele>
        <time>2012-01-09T12:09:43Z</time>
      </trkpt>
      <trkpt lat="47.27029" lon="-1.62574">
        <ele>102.05085</ele>
        <time>2012-01-09T12:09:49Z</time>
      </trkpt>
      <trkpt lat="47.27024" lon="-1.62546">
        <ele>101.1052</ele>
        <time>2012-01-09T12:09:57Z</time>
      </trkpt>
      <trkpt lat="47.27034" lon="-1.62523">
        <ele>100</ele>
        <time>2012-01-09T12:10:04Z</time>
      </trkpt>
      <trkpt lat="47.27029" lon="-1.62497">
        <ele>97.43036</ele>
        <time>2012-01-09T12:10:11Z</time>
      </trkpt>
      <trkpt lat="47.2701" lon="-1.62469">
        <ele>93.63588</ele>
        <time>2012-01-09T12:10:18Z</time>
      </trkpt>
      <trkpt lat="47.27001" lon="-1.62445">
        <ele>93.7469</ele>
        <time>2012-01-09T12:10:40Z</time>
      </trkpt>
      <trkpt lat="47.26981" lon="-1.62437">
        <ele>93.23633</ele>
        <time>2012-01-09T12:10:44Z</time>
      </trkpt>
    </trkseg>
  </trk>
</gpx>